Darstellungsparameter: Aktuell verwendete Einstellungen:
Skalierung der Graphiken ... ?
xyx+y,   Skalierungsfaktor:      Skalierung: Modus: x, Faktor: 1
Darstellungszeitraum ... ?
Vom - - bis: - -   Zeitraum: 26.04.2009 - 25.04.2019
Min/Max/Avg-Anzeige ... ?
Zeige MMA aktuell
Zeige MMA Monat
Zeige MMA alles
Zeige --A aktuell
Zeige --A Monat
Zeige --A alles
Keine MMA-Anzeige
MMA:
Average (ber die Originaldaten)
MMA-Basis: 26.04.2009 - 25.04.2019
Quicknavigation für Darstellung... ?
Tage:      1T, 2T, 3T, 5T -1T -2T -3T -5T +1T +2T +3T +5T
Wochen: 1W, 2W, 3W -1W -2W -3W +1W +2W +3W
Monate: 1M, 3M, 6M -1M -3M -6M +1M +3M +6M
Jahre:    1J, 3J, 5J, 10J -1J -3J -5J -10J +1J +3J +5J +10J
Nutze für die Darstellung ... ?
Originaldaten oder ...
Mittelwerte Minima Maxima auf...
Stundenbasis Tagesbasis Wochenbasis
Monatsbasis Jahresbasis      Datenbasis: Mittelwerte auf Stundenbasis
Darstellen als:
Statistik (Auto) Statistik J:M      Darstellung:
Zur Graphik,    zurück zur Übersicht aller Sensoren.
 
Tabellarische Datenbersicht: ?
 
Sensor: Nr:Datum:Temp:Abs-Feuchte:Windchill:Wind:
Aussen-T/F 1 26-04-2009 00:00:00 14.8 C 8.13 g/m*3 14.8 C 0 km/h
2 26-04-2009 01:00:00 14.06 C 8.14 g/m*3 14.06 C 0 km/h
3 26-04-2009 02:00:00 14 C 8.18 g/m*3 14 C 0 km/h
4 26-04-2009 03:00:00 13.6 C 8.14 g/m*3 13.6 C 0 km/h
5 26-04-2009 04:00:00 13.2 C 8.18 g/m*3 13.2 C 0 km/h
6 26-04-2009 05:00:00 12.82 C 8.21 g/m*3 12.82 C 0 km/h
7 26-04-2009 06:00:00 12.04 C 8.21 g/m*3 12.04 C 0 km/h
8 26-04-2009 07:00:00 11.98 C 8.49 g/m*3 11.98 C 0 km/h
9 26-04-2009 08:00:00 13.32 C 8.68 g/m*3 13.32 C 0 km/h
10 26-04-2009 09:00:00 15.82 C 8.41 g/m*3 15.82 C 0 km/h
11 26-04-2009 10:00:00 17.34 C 8.12 g/m*3 17.34 C 0 km/h
12 26-04-2009 11:00:00 19.16 C 7.73 g/m*3 19.16 C 0 km/h
13 26-04-2009 12:00:00 21.54 C 6.65 g/m*3 21.54 C 0 km/h
14 26-04-2009 13:00:00 23.76 C 6.27 g/m*3 23.76 C 0 km/h
15 26-04-2009 14:00:00 24.44 C 5.71 g/m*3 24.44 C 0 km/h
16 26-04-2009 15:00:00 24.94 C 5.64 g/m*3 24.94 C 0 km/h
17 26-04-2009 16:00:00 26.24 C 5.43 g/m*3 26.24 C 0 km/h
18 26-04-2009 17:00:00 28.2 C 5.5 g/m*3 28.2 C 0 km/h
19 26-04-2009 18:00:00 25.88 C 5.37 g/m*3 25.88 C 0 km/h
20 26-04-2009 19:00:00 22.32 C 6.37 g/m*3 22.32 C 0 km/h
21 26-04-2009 20:00:00 20.34 C 6.91 g/m*3 20.34 C 0 km/h
22 26-04-2009 21:00:00 18.9 C 7.61 g/m*3 18.9 C 0 km/h
23 26-04-2009 22:00:00 15.96 C 9.89 g/m*3 15.96 C 0 km/h
24 26-04-2009 23:00:00 15.74 C 9.95 g/m*3 15.74 C 0 km/h
25 27-04-2009 00:00:00 15.78 C 9.65 g/m*3 15.78 C 0 km/h
Sensor: Nr:Datum:Temp:Abs-Feuchte:Windchill:Wind:
Aussen-T/F 26 27-04-2009 01:00:00 15.08 C 9.43 g/m*3 15.08 C 0 km/h
27 27-04-2009 02:00:00 14.18 C 8.93 g/m*3 14.18 C 0 km/h
28 27-04-2009 03:00:00 14.02 C 8.45 g/m*3 14.02 C 0 km/h
29 27-04-2009 04:00:00 12.6 C 8.85 g/m*3 12.6 C 0 km/h
30 27-04-2009 05:00:00 11.7 C 9.12 g/m*3 11.7 C 0 km/h
31 27-04-2009 06:00:00 11.72 C 8.94 g/m*3 11.72 C 0 km/h
32 27-04-2009 07:00:00 12.42 C 8.75 g/m*3 12.42 C 0 km/h
33 27-04-2009 08:00:00 13.32 C 8.14 g/m*3 13.32 C 0 km/h
34 27-04-2009 09:00:00 13.38 C 7.43 g/m*3 13.38 C 0 km/h
35 27-04-2009 10:00:00 14.6 C 6.73 g/m*3 14.6 C 0 km/h
36 27-04-2009 11:00:00 15.12 C 6.12 g/m*3 15.12 C 0 km/h
37 27-04-2009 12:00:00 15.48 C 5.86 g/m*3 15.48 C 0 km/h
38 27-04-2009 13:00:00 15.86 C 5.92 g/m*3 15.86 C 0 km/h
39 27-04-2009 14:00:00 16.64 C 5.61 g/m*3 16.64 C 0 km/h
40 27-04-2009 15:00:00 16.9 C 5.41 g/m*3 16.9 C 0 km/h
41 27-04-2009 16:00:00 17.74 C 5.26 g/m*3 17.74 C 0 km/h
42 27-04-2009 17:00:00 19.02 C 4.93 g/m*3 19.02 C 0 km/h
43 27-04-2009 18:00:00 18.78 C 5.02 g/m*3 18.78 C 0 km/h
44 27-04-2009 19:00:00 17.32 C 5.25 g/m*3 17.32 C 0 km/h
45 27-04-2009 20:00:00 15.32 C 5.83 g/m*3 15.32 C 0 km/h
46 27-04-2009 21:00:00 14.225 C 6.11 g/m*3 14.23 C 0 km/h
47 27-04-2009 22:00:00 13.62 C 6.53 g/m*3 13.62 C 0 km/h
48 27-04-2009 23:00:00 12.52 C 7.13 g/m*3 12.52 C 0 km/h
49 28-04-2009 00:00:00 11.86 C 7.44 g/m*3 11.86 C 0 km/h
50 28-04-2009 01:00:00 10.58 C 8.27 g/m*3 10.58 C 0 km/h
Sensor: Nr:Datum:Temp:Abs-Feuchte:Windchill:Wind:
Aussen-T/F 51 28-04-2009 02:00:00 10.74 C 8.57 g/m*3 10.74 C 0 km/h
52 28-04-2009 03:00:00 10.54 C 8.63 g/m*3 10.54 C 0 km/h
53 28-04-2009 04:00:00 10.38 C 8.62 g/m*3 10.38 C 0 km/h
54 28-04-2009 05:00:00 10.18 C 8.55 g/m*3 10.18 C 0 km/h
55 28-04-2009 06:00:00 10 C 8.57 g/m*3 10 C 0 km/h
56 28-04-2009 07:00:00 10.2 C 8.66 g/m*3 10.2 C 0 km/h
57 28-04-2009 08:00:00 10.62 C 8.89 g/m*3 10.62 C 0 km/h
58 28-04-2009 09:00:00 10.9 C 8.97 g/m*3 10.9 C 0 km/h
59 28-04-2009 10:00:00 11.22 C 9.13 g/m*3 11.22 C 0 km/h
60 28-04-2009 11:00:00 11.42 C 9.15 g/m*3 11.42 C 0 km/h
61 28-04-2009 12:00:00 12.08 C 9.19 g/m*3 12.08 C 0 km/h
62 28-04-2009 13:00:00 12.02 C 8.77 g/m*3 12.02 C 0 km/h
63 28-04-2009 14:00:00 10.96 C 7.99 g/m*3 10.96 C 0 km/h
64 28-04-2009 15:00:00 11.68 C 7.52 g/m*3 11.68 C 0 km/h
65 28-04-2009 16:00:00 12.64 C 7.19 g/m*3 12.64 C 0 km/h
66 28-04-2009 17:00:00 13.42 C 6.54 g/m*3 13.42 C 0 km/h
67 28-04-2009 18:00:00 13.08 C 6.13 g/m*3 13.08 C 0 km/h
68 28-04-2009 19:00:00 12.82 C 6.89 g/m*3 12.82 C 0 km/h
69 28-04-2009 20:00:00 11.52 C 6.95 g/m*3 11.52 C 0 km/h
70 28-04-2009 21:00:00 9.28 C 6.82 g/m*3 9.28 C 0 km/h
71 28-04-2009 22:00:00 8.96 C 6.95 g/m*3 8.96 C 0 km/h
72 28-04-2009 23:00:00 8.78 C 6.95 g/m*3 8.78 C 0 km/h
73 29-04-2009 00:00:00 8.54 C 7 g/m*3 8.54 C 0 km/h
74 29-04-2009 01:00:00 8.2 C 6.95 g/m*3 8.2 C 0 km/h
75 29-04-2009 02:00:00 7.66 C 6.84 g/m*3 7.66 C 0 km/h
Sensor: Nr:Datum:Temp:Abs-Feuchte:Windchill:Wind:
Aussen-T/F 76 29-04-2009 03:00:00 7.26 C 6.84 g/m*3 7.26 C 0 km/h
77 29-04-2009 04:00:00 6.88 C 6.75 g/m*3 6.88 C 0 km/h
78 29-04-2009 05:00:00 6.94 C 6.88 g/m*3 6.94 C 0 km/h
79 29-04-2009 06:00:00 7 C 6.96 g/m*3 7 C 0 km/h
80 29-04-2009 07:00:00 7.38 C 7.13 g/m*3 7.38 C 0 km/h
81 29-04-2009 08:00:00 8.18 C 7.09 g/m*3 8.18 C 0 km/h
82 29-04-2009 09:00:00 9.76 C 7.27 g/m*3 9.76 C 0 km/h
83 29-04-2009 10:00:00 12.66 C 7.35 g/m*3 12.66 C 0 km/h
84 29-04-2009 11:00:00 15.22 C 6.86 g/m*3 15.22 C 0 km/h
85 29-04-2009 12:00:00 17.04 C 5.71 g/m*3 17.04 C 0 km/h
86 29-04-2009 13:00:00 18.4 C 4.72 g/m*3 18.4 C 0 km/h
87 29-04-2009 14:00:00 18.56 C 4.64 g/m*3 18.56 C 0 km/h
88 29-04-2009 15:00:00 18.76 C 4.92 g/m*3 18.76 C 0 km/h
89 29-04-2009 16:00:00 21.06 C 4.56 g/m*3 21.06 C 0 km/h
90 29-04-2009 17:00:00 17.22 C 5.16 g/m*3 17.22 C 0 km/h
91 29-04-2009 18:00:00 12.24 C 8.44 g/m*3 12.24 C 0 km/h
92 29-04-2009 19:00:00 12.64 C 8.67 g/m*3 12.64 C 0 km/h
93 29-04-2009 20:00:00 11.98 C 8.09 g/m*3 11.98 C 0 km/h
94 29-04-2009 21:00:00 10.98 C 7.46 g/m*3 10.98 C 0 km/h
95 29-04-2009 22:00:00 10.68 C 7.1 g/m*3 10.68 C 0 km/h
96 29-04-2009 23:00:00 10.42 C 7.16 g/m*3 10.42 C 0 km/h
97 30-04-2009 00:00:00 9.58 C 7.28 g/m*3 9.58 C 0 km/h
98 30-04-2009 01:00:00 9.28 C 7.34 g/m*3 9.28 C 0 km/h
99 30-04-2009 02:00:00 8.84 C 7.4 g/m*3 8.84 C 0 km/h
100 30-04-2009 03:00:00 8.42 C 7.24 g/m*3 8.42 C 0 km/h
Sensor: Nr:Datum:Temp:Abs-Feuchte:Windchill:Wind:
Aussen-T/F 101 30-04-2009 04:00:00 7.6 C 7.12 g/m*3 7.6 C 0 km/h
102 30-04-2009 05:00:00 7.88 C 7.38 g/m*3 7.88 C 0 km/h
103 30-04-2009 06:00:00 8.18 C 7.36 g/m*3 8.18 C 0 km/h
104 30-04-2009 07:00:00 8.48 C 7.42 g/m*3 8.48 C 0 km/h
105 30-04-2009 08:00:00 9.36 C 7.52 g/m*3 9.36 C 0 km/h
106 30-04-2009 09:00:00 10.32 C 7.46 g/m*3 10.32 C 0 km/h
107 30-04-2009 10:00:00 11.46 C 7.48 g/m*3 11.46 C 0 km/h
108 30-04-2009 11:00:00 12.64 C 7.63 g/m*3 12.64 C 0 km/h
109 30-04-2009 12:00:00 14.04 C 7.5 g/m*3 14.04 C 0 km/h
110 30-04-2009 13:00:00 16.5 C 6.94 g/m*3 16.5 C 0 km/h
111 30-04-2009 14:00:00 18.4 C 6.35 g/m*3 18.4 C 0 km/h
112 30-04-2009 15:00:00 17.98 C 6.57 g/m*3 17.98 C 0 km/h
113 30-04-2009 16:00:00 17.94 C 6.55 g/m*3 17.94 C 0 km/h
114 30-04-2009 17:00:00 18.44 C 6.53 g/m*3 18.44 C 0 km/h
115 30-04-2009 18:00:00 17.9 C 6.69 g/m*3 17.9 C 0 km/h
116 30-04-2009 19:00:00 19.02 C 6.75 g/m*3 19.02 C 0 km/h
117 30-04-2009 20:00:00 16.58 C 7.48 g/m*3 16.58 C 0 km/h
118 30-04-2009 21:00:00 13.9 C 7.55 g/m*3 13.9 C 0 km/h
119 30-04-2009 22:00:00 13.42 C 7.89 g/m*3 13.42 C 0 km/h
120 30-04-2009 23:00:00 12.44 C 7.89 g/m*3 12.44 C 0 km/h
121 01-05-2009 00:00:00 11.52 C 7.88 g/m*3 11.52 C 0 km/h
122 01-05-2009 01:00:00 10.7 C 7.68 g/m*3 10.7 C 0 km/h
123 01-05-2009 02:00:00 9.92 C 7.63 g/m*3 9.92 C 0 km/h
124 01-05-2009 03:00:00 9.26 C 7.58 g/m*3 9.26 C 0 km/h
125 01-05-2009 04:00:00 8.56 C 7.39 g/m*3 8.56 C 0 km/h
Sensor: Nr:Datum:Temp:Abs-Feuchte:Windchill:Wind:
Aussen-T/F 126 01-05-2009 05:00:00 8.14 C 7.39 g/m*3 8.14 C 0 km/h
127 01-05-2009 06:00:00 8.08 C 7.46 g/m*3 8.08 C 0 km/h
128 01-05-2009 07:00:00 8.2 C 7.6 g/m*3 8.2 C 0 km/h
129 01-05-2009 08:00:00 9.12 C 7.89 g/m*3 9.12 C 0 km/h
130 01-05-2009 09:00:00 10.76 C 8.22 g/m*3 10.76 C 0 km/h
131 01-05-2009 10:00:00 12.5 C 8.25 g/m*3 12.5 C 0 km/h
132 01-05-2009 11:00:00 16.52 C 8.77 g/m*3 16.52 C 0 km/h
133 01-05-2009 12:00:00 19.3 C 7.99 g/m*3 19.3 C 0 km/h
134 01-05-2009 13:00:00 22.54 C 6.81 g/m*3 22.54 C 0 km/h
135 01-05-2009 14:00:00 23.9 C 6.23 g/m*3 23.9 C 0 km/h
136 01-05-2009 15:00:00 25.48 C 5.96 g/m*3 25.48 C 0 km/h
137 01-05-2009 16:00:00 26.8 C 5.35 g/m*3 26.8 C 0 km/h
138 01-05-2009 17:00:00 26.16 C 5.06 g/m*3 26.16 C 0 km/h
139 01-05-2009 18:00:00 26.2 C 5.32 g/m*3 26.2 C 0 km/h
140 01-05-2009 19:00:00 24.8 C 5.55 g/m*3 24.8 C 0 km/h
141 01-05-2009 20:00:00 21.48 C 7.16 g/m*3 21.48 C 0 km/h
142 01-05-2009 21:00:00 18.22 C 7.16 g/m*3 18.22 C 0 km/h
143 01-05-2009 22:00:00 16.8 C 7.32 g/m*3 16.8 C 0 km/h
144 01-05-2009 23:00:00 15.18 C 7.55 g/m*3 15.18 C 0 km/h
145 02-05-2009 00:00:00 14.08 C 8.02 g/m*3 14.08 C 0 km/h
146 02-05-2009 01:00:00 12.9 C 8.16 g/m*3 12.9 C 0 km/h
147 02-05-2009 02:00:00 12.12 C 8.14 g/m*3 12.12 C 0 km/h
148 02-05-2009 03:00:00 11.42 C 8.08 g/m*3 11.42 C 0 km/h
149 02-05-2009 04:00:00 10.66 C 8.07 g/m*3 10.66 C 0 km/h
150 02-05-2009 05:00:00 10.22 C 7.97 g/m*3 10.22 C 0 km/h
Sensor: Nr:Datum:Temp:Abs-Feuchte:Windchill:Wind:
Aussen-T/F 151 02-05-2009 06:00:00 10.06 C 8 g/m*3 10.06 C 0 km/h
152 02-05-2009 07:00:00 11.64 C 8.46 g/m*3 11.64 C 0 km/h
153 02-05-2009 08:00:00 13.52 C 8.15 g/m*3 13.52 C 0 km/h
154 02-05-2009 09:00:00 14.82 C 7.74 g/m*3 14.82 C 0 km/h
155 02-05-2009 10:00:00 16.96 C 7.65 g/m*3 16.96 C 0 km/h
156 02-05-2009 11:00:00 17.86 C 7.56 g/m*3 17.86 C 0 km/h
157 02-05-2009 12:00:00 19.84 C 7.64 g/m*3 19.84 C 0 km/h
158 02-05-2009 13:00:00 22.46 C 7.01 g/m*3 22.46 C 0 km/h
159 02-05-2009 14:00:00 22.96 C 6.36 g/m*3 22.96 C 0 km/h
160 02-05-2009 15:00:00 24.52 C 5.69 g/m*3 24.52 C 0 km/h
161 02-05-2009 16:00:00 26.18 C 5.02 g/m*3 26.18 C 0 km/h
162 02-05-2009 17:00:00 26.88 C 5.11 g/m*3 26.88 C 0 km/h
163 02-05-2009 18:00:00 26.64 C 5.05 g/m*3 26.64 C 0 km/h
164 02-05-2009 19:00:00 24.34 C 4.7 g/m*3 24.34 C 0 km/h
165 02-05-2009 20:00:00 21.7 C 5.49 g/m*3 21.7 C 0 km/h
166 02-05-2009 21:00:00 18.2 C 5.6 g/m*3 18.2 C 0 km/h
167 02-05-2009 22:00:00 16.66 C 6.01 g/m*3 16.66 C 0 km/h
168 02-05-2009 23:00:00 15.8 C 6.52 g/m*3 15.8 C 0 km/h
169 03-05-2009 00:00:00 14.2 C 6.94 g/m*3 14.2 C 0 km/h
170 03-05-2009 01:00:00 12.86 C 7.26 g/m*3 12.86 C 0 km/h
171 03-05-2009 02:00:00 12 C 7.37 g/m*3 12 C 0 km/h
172 03-05-2009 03:00:00 10.98 C 7.4 g/m*3 10.98 C 0 km/h
173 03-05-2009 04:00:00 10.06 C 7.36 g/m*3 10.06 C 0 km/h
174 03-05-2009 05:00:00 9.24 C 7.23 g/m*3 9.24 C 0 km/h
175 03-05-2009 06:00:00 9.46 C 7.37 g/m*3 9.46 C 0 km/h
Sensor: Nr:Datum:Temp:Abs-Feuchte:Windchill:Wind:
Aussen-T/F 176 03-05-2009 07:00:00 10 C 7.42 g/m*3 10 C 0 km/h
177 03-05-2009 08:00:00 11.36 C 7.56 g/m*3 11.36 C 0 km/h
178 03-05-2009 09:00:00 13.2 C 7.85 g/m*3 13.2 C 0 km/h
179 03-05-2009 10:00:00 15.8 C 8.16 g/m*3 15.8 C 0 km/h
180 03-05-2009 11:00:00 18.32 C 7.98 g/m*3 18.32 C 0 km/h
181 03-05-2009 12:00:00 20.32 C 7.57 g/m*3 20.32 C 0 km/h
182 03-05-2009 13:00:00 22.16 C 7.56 g/m*3 22.16 C 0 km/h
183 03-05-2009 14:00:00 18.56 C 8.83 g/m*3 18.56 C 0 km/h
184 03-05-2009 15:00:00 19.94 C 7.68 g/m*3 19.94 C 0 km/h
185 03-05-2009 16:00:00 18.3 C 6.22 g/m*3 18.3 C 0 km/h
186 03-05-2009 17:00:00 16.28 C 5.99 g/m*3 16.28 C 0 km/h
187 03-05-2009 18:00:00 16.66 C 5.47 g/m*3 16.66 C 0 km/h
188 03-05-2009 19:00:00 16.68 C 5.59 g/m*3 16.68 C 0 km/h
189 03-05-2009 20:00:00 15.06 C 5.61 g/m*3 15.06 C 0 km/h
190 03-05-2009 21:00:00 13.94 C 5.77 g/m*3 13.94 C 0 km/h
191 03-05-2009 22:00:00 12.7 C 5.19 g/m*3 12.7 C 0 km/h
192 03-05-2009 23:00:00 11.92 C 5.2 g/m*3 11.92 C 0 km/h
193 04-05-2009 00:00:00 11.4 C 5.38 g/m*3 11.4 C 0 km/h
194 04-05-2009 01:00:00 10.48 C 4.92 g/m*3 10.48 C 0 km/h
195 04-05-2009 02:00:00 9.7 C 4.54 g/m*3 9.7 C 0 km/h
196 04-05-2009 03:00:00 8.5 C 4.61 g/m*3 8.5 C 0 km/h
197 04-05-2009 04:00:00 7.72 C 4.76 g/m*3 7.72 C 0 km/h
198 04-05-2009 05:00:00 7 C 4.97 g/m*3 7 C 0 km/h
199 04-05-2009 06:00:00 6.92 C 5.1 g/m*3 6.92 C 0 km/h
200 04-05-2009 07:00:00 7.13333 C 5.34 g/m*3 7.13 C 0 km/h
Sensor: Nr:Datum:Temp:Abs-Feuchte:Windchill:Wind:
Aussen-T/F 201 04-05-2009 08:00:00 7.94 C 5.44 g/m*3 7.94 C 0 km/h
202 04-05-2009 09:00:00 8.96 C 5.08 g/m*3 8.96 C 0 km/h
203 04-05-2009 10:00:00 10.5 C 4.56 g/m*3 10.5 C 0 km/h
204 04-05-2009 11:00:00 12.14 C 4.26 g/m*3 12.14 C 0 km/h
205 04-05-2009 12:00:00 13.52 C 3.89 g/m*3 13.52 C 0 km/h
206 04-05-2009 13:00:00 15.44 C 3.29 g/m*3 15.44 C 0 km/h
207 04-05-2009 14:00:00 16.12 C 2.88 g/m*3 16.12 C 0 km/h
208 04-05-2009 15:00:00 15.62 C 2.98 g/m*3 15.62 C 0 km/h
209 04-05-2009 16:00:00 16.24 C 3.01 g/m*3 16.24 C 0 km/h
210 04-05-2009 17:00:00 15.88 C 2.98 g/m*3 15.88 C 0 km/h
211 04-05-2009 18:00:00 17.58 C 3.06 g/m*3 17.58 C 0 km/h
212 04-05-2009 19:00:00 17.74 C 3.21 g/m*3 17.74 C 0 km/h
213 04-05-2009 20:00:00 13.34 C 3.94 g/m*3 13.34 C 0 km/h
214 04-05-2009 21:00:00 12.68 C 4.18 g/m*3 12.68 C 0 km/h
215 04-05-2009 22:00:00 11.86 C 4.69 g/m*3 11.86 C 0 km/h
216 04-05-2009 23:00:00 11.3 C 4.77 g/m*3 11.3 C 0 km/h
217 05-05-2009 00:00:00 9.7 C 4.68 g/m*3 9.7 C 0 km/h
218 05-05-2009 01:00:00 8.42 C 4.93 g/m*3 8.42 C 0 km/h
219 05-05-2009 02:00:00 8.2 C 5.26 g/m*3 8.2 C 0 km/h
220 05-05-2009 03:00:00 7.88 C 5.33 g/m*3 7.88 C 0 km/h
221 05-05-2009 04:00:00 7.9 C 5.13 g/m*3 7.9 C 0 km/h
222 05-05-2009 05:00:00 7.82 C 5.41 g/m*3 7.82 C 0 km/h
223 05-05-2009 06:00:00 8.12 C 5.33 g/m*3 8.12 C 0 km/h
224 05-05-2009 07:00:00 8.92 C 5.42 g/m*3 8.92 C 0 km/h
225 05-05-2009 08:00:00 9.84 C 5.19 g/m*3 9.84 C 0 km/h
Sensor: Nr:Datum:Temp:Abs-Feuchte:Windchill:Wind:
Aussen-T/F 226 05-05-2009 09:00:00 10.66 C 5.41 g/m*3 10.66 C 0 km/h
227 05-05-2009 10:00:00 11.58 C 5.48 g/m*3 11.58 C 0 km/h
228 05-05-2009 11:00:00 12.64 C 5.88 g/m*3 12.64 C 0 km/h
229 05-05-2009 12:00:00 12.46 C 6.51 g/m*3 12.46 C 0 km/h
230 05-05-2009 13:00:00 12.06 C 6.68 g/m*3 12.06 C 0 km/h
231 05-05-2009 14:00:00 12.62 C 6.67 g/m*3 12.62 C 0 km/h
232 05-05-2009 15:00:00 12.74 C 7.12 g/m*3 12.74 C 0 km/h
233 05-05-2009 16:00:00 11.48 C 8.19 g/m*3 11.48 C 0 km/h
234 05-05-2009 17:00:00 11.78 C 8.35 g/m*3 11.78 C 0 km/h
235 05-05-2009 18:00:00 11.36 C 8.62 g/m*3 11.36 C 0 km/h
236 05-05-2009 19:00:00 11.16 C 8.92 g/m*3 11.16 C 0 km/h
237 05-05-2009 20:00:00 11.06 C 9.08 g/m*3 11.06 C 0 km/h
238 05-05-2009 21:00:00 11.16 C 9.28 g/m*3 11.16 C 0 km/h
239 05-05-2009 22:00:00 11.28 C 9.37 g/m*3 11.28 C 0 km/h
240 05-05-2009 23:00:00 11.38 C 9.43 g/m*3 11.38 C 0 km/h
241 06-05-2009 00:00:00 11.96 C 9.27 g/m*3 11.96 C 0 km/h
242 06-05-2009 01:00:00 12.14 C 8.84 g/m*3 12.14 C 0 km/h
243 06-05-2009 02:00:00 12.38 C 8.71 g/m*3 12.38 C 0 km/h
244 06-05-2009 03:00:00 12.32 C 8.41 g/m*3 12.32 C 0 km/h
245 06-05-2009 04:00:00 12.2 C 8.01 g/m*3 12.2 C 0 km/h
246 06-05-2009 05:00:00 11.9 C 7.41 g/m*3 11.9 C 0 km/h
247 06-05-2009 06:00:00 11.8 C 7.07 g/m*3 11.8 C 0 km/h
248 06-05-2009 07:00:00 12.04 C 6.88 g/m*3 12.04 C 0 km/h
249 06-05-2009 08:00:00 12.28 C 6.75 g/m*3 12.28 C 0 km/h
250 06-05-2009 09:00:00 12.96 C 6.45 g/m*3 12.96 C 0 km/h
Sensor: Nr:Datum:Temp:Abs-Feuchte:Windchill:Wind:
Aussen-T/F 251 06-05-2009 10:00:00 14.2 C 6.08 g/m*3 14.2 C 0 km/h
252 06-05-2009 11:00:00 15.1 C 5.83 g/m*3 15.1 C 0 km/h
253 06-05-2009 12:00:00 15.96 C 5.82 g/m*3 15.96 C 0 km/h
254 06-05-2009 13:00:00 15.52 C 6.14 g/m*3 15.52 C 0 km/h
255 06-05-2009 14:00:00 15.78 C 6.35 g/m*3 15.78 C 0 km/h
256 06-05-2009 15:00:00 15.52 C 6.64 g/m*3 15.52 C 0 km/h
257 06-05-2009 16:00:00 15.65 C 6.84 g/m*3 15.65 C 0 km/h
258 06-05-2009 17:00:00 15.8 C 7.07 g/m*3 15.8 C 0 km/h
259 06-05-2009 18:00:00 15.875 C 6.93 g/m*3 15.88 C 0 km/h
260 06-05-2009 19:00:00 15.525 C 7.22 g/m*3 15.53 C 0 km/h
261 06-05-2009 20:00:00 15.025 C 7.26 g/m*3 15.03 C 0 km/h
262 06-05-2009 21:00:00 14.55 C 7.24 g/m*3 14.55 C 0 km/h
263 06-05-2009 22:00:00 14.175 C 7.19 g/m*3 14.18 C 0 km/h
264 06-05-2009 23:00:00 13.8 C 7.12 g/m*3 13.8 C 0 km/h
265 07-05-2009 00:00:00 13.2 C 7.18 g/m*3 13.2 C 0 km/h
266 07-05-2009 01:00:00 11.975 C 7.32 g/m*3 11.98 C 0 km/h
267 07-05-2009 02:00:00 11.05 C 7.38 g/m*3 11.05 C 0 km/h
268 07-05-2009 03:00:00 10.575 C 7.36 g/m*3 10.58 C 0 km/h
269 07-05-2009 04:00:00 9.85 C 7.21 g/m*3 9.85 C 0 km/h
270 07-05-2009 05:00:00 8.625 C 7.01 g/m*3 8.63 C 0 km/h
271 07-05-2009 06:00:00 8.25 C 7.08 g/m*3 8.25 C 0 km/h
272 07-05-2009 07:00:00 9.05 C 7.52 g/m*3 9.05 C 0 km/h
273 07-05-2009 08:00:00 10.6 C 7.56 g/m*3 10.6 C 0 km/h
274 07-05-2009 09:00:00 12.725 C 7.5 g/m*3 12.73 C 0 km/h
275 07-05-2009 10:00:00 14.7 C 7.33 g/m*3 14.7 C 0 km/h
Sensor: Nr:Datum:Temp:Abs-Feuchte:Windchill:Wind:
Aussen-T/F 276 07-05-2009 11:00:00 16.55 C 6.94 g/m*3 16.55 C 0 km/h
277 07-05-2009 12:00:00 17.75 C 6.47 g/m*3 17.75 C 0 km/h
278 07-05-2009 13:00:00 20 C 6.05 g/m*3 20 C 0 km/h
279 07-05-2009 14:00:00 20.8 C 5.66 g/m*3 20.8 C 0 km/h
280 07-05-2009 15:00:00 22.95 C 5.53 g/m*3 22.95 C 0 km/h
281 07-05-2009 16:00:00 24.175 C 5.44 g/m*3 24.18 C 0 km/h
282 07-05-2009 17:00:00 25.45 C 5.61 g/m*3 25.45 C 0 km/h
283 07-05-2009 18:00:00 25.4 C 5.12 g/m*3 25.4 C 0 km/h
284 07-05-2009 19:00:00 25.875 C 5.8 g/m*3 25.88 C 0 km/h
285 07-05-2009 20:00:00 23.1 C 6.67 g/m*3 23.1 C 0 km/h
286 07-05-2009 21:00:00 19.175 C 7.33 g/m*3 19.18 C 0 km/h
287 07-05-2009 22:00:00 17.45 C 7.4 g/m*3 17.45 C 0 km/h
288 07-05-2009 23:00:00 16.175 C 7.57 g/m*3 16.18 C 0 km/h
289 08-05-2009 00:00:00 14.8 C 7.82 g/m*3 14.8 C 0 km/h
290 08-05-2009 01:00:00 13.925 C 8.01 g/m*3 13.93 C 0 km/h
291 08-05-2009 02:00:00 12.95 C 8 g/m*3 12.95 C 0 km/h
292 08-05-2009 03:00:00 12.375 C 8.07 g/m*3 12.38 C 0 km/h
293 08-05-2009 04:00:00 12.2 C 8.12 g/m*3 12.2 C 0 km/h
294 08-05-2009 05:00:00 11.95 C 9.32 g/m*3 11.95 C 0 km/h
295 08-05-2009 06:00:00 13.325 C 10.12 g/m*3 13.33 C 0 km/h
296 08-05-2009 07:00:00 13.025 C 10.19 g/m*3 13.03 C 0 km/h
297 08-05-2009 08:00:00 14.7 C 11.14 g/m*3 14.7 C 0 km/h
298 08-05-2009 09:00:00 15.775 C 10.75 g/m*3 15.78 C 0 km/h
299 08-05-2009 10:00:00 16.85 C 10.5 g/m*3 16.85 C 0 km/h
300 08-05-2009 11:00:00 19.05 C 9.85 g/m*3 19.05 C 0 km/h
Sensor: Nr:Datum:Temp:Abs-Feuchte:Windchill:Wind:
Aussen-T/F 301 08-05-2009 12:00:00 20.125 C 9.23 g/m*3 20.13 C 0 km/h
302 08-05-2009 13:00:00 20.275 C 9 g/m*3 20.27 C 0 km/h
303 08-05-2009 14:00:00 21.625 C 8.5 g/m*3 21.63 C 0 km/h
304 08-05-2009 15:00:00 21.725 C 7.69 g/m*3 21.73 C 0 km/h
305 08-05-2009 16:00:00 21.925 C 6.67 g/m*3 21.93 C 0 km/h
306 08-05-2009 17:00:00 21.075 C 6.35 g/m*3 21.08 C 0 km/h
307 08-05-2009 18:00:00 20.85 C 6.36 g/m*3 20.85 C 0 km/h
308 08-05-2009 19:00:00 19.4 C 6.21 g/m*3 19.4 C 0 km/h
309 08-05-2009 20:00:00 17.425 C 5.42 g/m*3 17.43 C 0 km/h
310 08-05-2009 21:00:00 15.55 C 6.26 g/m*3 15.55 C 0 km/h
311 08-05-2009 22:00:00 14.125 C 6.53 g/m*3 14.13 C 0 km/h
312 08-05-2009 23:00:00 12.9 C 6.28 g/m*3 12.9 C 0 km/h
313 09-05-2009 00:00:00 11.55 C 6.45 g/m*3 11.55 C 0 km/h
314 09-05-2009 01:00:00 10.35 C 6.7 g/m*3 10.35 C 0 km/h
315 09-05-2009 02:00:00 9.4 C 6.76 g/m*3 9.4 C 0 km/h
316 09-05-2009 03:00:00 8.5 C 6.68 g/m*3 8.5 C 0 km/h
317 09-05-2009 04:00:00 7.8 C 6.61 g/m*3 7.8 C 0 km/h
318 09-05-2009 05:00:00 7.375 C 6.63 g/m*3 7.38 C 0 km/h
319 09-05-2009 06:00:00 7.325 C 6.65 g/m*3 7.33 C 0 km/h
320 09-05-2009 07:00:00 7.975 C 6.81 g/m*3 7.98 C 0 km/h
321 09-05-2009 08:00:00 9.85 C 6.96 g/m*3 9.85 C 0 km/h
322 09-05-2009 09:00:00 12 C 7.19 g/m*3 12 C 0 km/h
323 09-05-2009 10:00:00 14.725 C 7.28 g/m*3 14.73 C 0 km/h
324 09-05-2009 11:00:00 17.575 C 6.74 g/m*3 17.58 C 0 km/h
325 09-05-2009 12:00:00 18.975 C 6.75 g/m*3 18.98 C 0 km/h
Sensor: Nr:Datum:Temp:Abs-Feuchte:Windchill:Wind:
Aussen-T/F 326 09-05-2009 13:00:00 20.275 C 6.54 g/m*3 20.27 C 0 km/h
327 09-05-2009 14:00:00 20.4 C 6.68 g/m*3 20.4 C 0 km/h
328 09-05-2009 15:00:00 20.525 C 6.91 g/m*3 20.53 C 0 km/h
329 09-05-2009 16:00:00 22.65 C 7.25 g/m*3 22.65 C 0 km/h
330 09-05-2009 17:00:00 23.125 C 7.25 g/m*3 23.13 C 0 km/h
331 09-05-2009 18:00:00 21.3 C 8.02 g/m*3 21.3 C 0 km/h
332 09-05-2009 19:00:00 17.975 C 10.16 g/m*3 17.98 C 0 km/h
333 09-05-2009 20:00:00 15.65 C 11 g/m*3 15.65 C 0 km/h
334 09-05-2009 21:00:00 13.525 C 10.66 g/m*3 13.53 C 0 km/h
335 09-05-2009 22:00:00 13.325 C 10.79 g/m*3 13.33 C 0 km/h
336 09-05-2009 23:00:00 13.15 C 10.76 g/m*3 13.15 C 0 km/h
337 10-05-2009 00:00:00 13.025 C 10.68 g/m*3 13.03 C 0 km/h
338 10-05-2009 01:00:00 12.925 C 10.7 g/m*3 12.93 C 0 km/h
339 10-05-2009 02:00:00 12.625 C 10.53 g/m*3 12.63 C 0 km/h
340 10-05-2009 03:00:00 12.375 C 10.36 g/m*3 12.38 C 0 km/h
341 10-05-2009 04:00:00 12.225 C 10.27 g/m*3 12.23 C 0 km/h
342 10-05-2009 05:00:00 12 C 10.12 g/m*3 12 C 0 km/h
343 10-05-2009 06:00:00 12.325 C 10.33 g/m*3 12.33 C 0 km/h
344 10-05-2009 07:00:00 13.05 C 10.81 g/m*3 13.05 C 0 km/h
345 10-05-2009 08:00:00 13.45 C 10.87 g/m*3 13.45 C 0 km/h
346 10-05-2009 09:00:00 14.95 C 10 g/m*3 14.95 C 0 km/h
347 10-05-2009 10:00:00 16.1 C 9.8 g/m*3 16.1 C 0 km/h
348 10-05-2009 11:00:00 18.15 C 8.06 g/m*3 18.15 C 0 km/h
349 10-05-2009 12:00:00 20.4 C 5.84 g/m*3 20.4 C 0 km/h
350 10-05-2009 13:00:00 22.275 C 5.27 g/m*3 22.28 C 0 km/h
Sensor: Nr:Datum:Temp:Abs-Feuchte:Windchill:Wind:
Aussen-T/F 351 10-05-2009 14:00:00 23.3 C 5.7 g/m*3 23.3 C 0 km/h
352 10-05-2009 15:00:00 25.475 C 5.38 g/m*3 25.48 C 0 km/h
353 10-05-2009 16:00:00 27.15 C 5.19 g/m*3 27.15 C 0 km/h
354 10-05-2009 17:00:00 27.725 C 5.36 g/m*3 27.73 C 0 km/h
355 10-05-2009 18:00:00 25.3 C 6.2 g/m*3 25.3 C 0 km/h
356 10-05-2009 19:00:00 22.05 C 7.49 g/m*3 22.05 C 0 km/h
357 10-05-2009 20:00:00 19.5 C 7.68 g/m*3 19.5 C 0 km/h
358 10-05-2009 21:00:00 18 C 8.52 g/m*3 18 C 0 km/h
359 10-05-2009 22:00:00 15.65 C 11.27 g/m*3 15.65 C 0 km/h
360 10-05-2009 23:00:00 15.275 C 11.83 g/m*3 15.28 C 0 km/h
361 11-05-2009 00:00:00 14.95 C 11.83 g/m*3 14.95 C 0 km/h
362 11-05-2009 01:00:00 14.575 C 11.62 g/m*3 14.58 C 0 km/h
363 11-05-2009 02:00:00 14.425 C 11.51 g/m*3 14.43 C 0 km/h
364 11-05-2009 03:00:00 14.3 C 11.46 g/m*3 14.3 C 0 km/h
365 11-05-2009 04:00:00 13.525 C 11.01 g/m*3 13.53 C 0 km/h
366 11-05-2009 05:00:00 13.5 C 11.05 g/m*3 13.5 C 0 km/h
367 11-05-2009 06:00:00 13.3 C 10.95 g/m*3 13.3 C 0 km/h
368 11-05-2009 07:00:00 13.55 C 11.15 g/m*3 13.55 C 0 km/h
369 11-05-2009 08:00:00 13.6 C 11.18 g/m*3 13.6 C 0 km/h
370 11-05-2009 09:00:00 13.975 C 11.44 g/m*3 13.98 C 0 km/h
371 11-05-2009 10:00:00 14.2 C 11.6 g/m*3 14.2 C 0 km/h
372 11-05-2009 11:00:00 14.475 C 11.8 g/m*3 14.48 C 0 km/h
373 11-05-2009 12:00:00 14.475 C 11.64 g/m*3 14.48 C 0 km/h
374 11-05-2009 13:00:00 13.85 C 11.23 g/m*3 13.85 C 0 km/h
375 11-05-2009 14:00:00 13.85 C 11.23 g/m*3 13.85 C 0 km/h
Sensor: Nr:Datum:Temp:Abs-Feuchte:Windchill:Wind:
Aussen-T/F 376 11-05-2009 15:00:00 13.325 C 10.79 g/m*3 13.33 C 0 km/h
377 11-05-2009 16:00:00 13.575 C 10.93 g/m*3 13.58 C 0 km/h
378 11-05-2009 17:00:00 13.375 C 10.85 g/m*3 13.38 C 0 km/h
379 11-05-2009 18:00:00 13.15 C 10.76 g/m*3 13.15 C 0 km/h
380 11-05-2009 19:00:00 12.875 C 10.63 g/m*3 12.88 C 0 km/h
381 11-05-2009 20:00:00 12.375 C 10.36 g/m*3 12.38 C 0 km/h
382 11-05-2009 21:00:00 12.475 C 10.43 g/m*3 12.48 C 0 km/h
383 11-05-2009 22:00:00 12.025 C 10.14 g/m*3 12.03 C 0 km/h
384 11-05-2009 23:00:00 12 C 10.12 g/m*3 12 C 0 km/h
385 12-05-2009 00:00:00 11.8 C 10 g/m*3 11.8 C 0 km/h
386 12-05-2009 01:00:00 11.725 C 9.93 g/m*3 11.73 C 0 km/h
387 12-05-2009 02:00:00 11.6 C 9.64 g/m*3 11.6 C 0 km/h
388 12-05-2009 03:00:00 11.4 C 9.21 g/m*3 11.4 C 0 km/h
389 12-05-2009 04:00:00 11.1 C 8.61 g/m*3 11.1 C 0 km/h
390 12-05-2009 05:00:00 10.825 C 8.12 g/m*3 10.83 C 0 km/h
391 12-05-2009 06:00:00 10.825 C 8.04 g/m*3 10.83 C 0 km/h
392 12-05-2009 07:00:00 11.675 C 8.07 g/m*3 11.68 C 0 km/h
393 12-05-2009 08:00:00 12.45 C 7.97 g/m*3 12.45 C 0 km/h
394 12-05-2009 09:00:00 13.525 C 7.88 g/m*3 13.53 C 0 km/h
395 12-05-2009 10:00:00 12.8 C 8.2 g/m*3 12.8 C 0 km/h
396 12-05-2009 11:00:00 11.525 C 9.28 g/m*3 11.53 C 0 km/h
397 12-05-2009 12:00:00 11.8 C 9.68 g/m*3 11.8 C 0 km/h
398 12-05-2009 13:00:00 12 C 9.86 g/m*3 12 C 0 km/h
399 12-05-2009 14:00:00 12.075 C 9.96 g/m*3 12.08 C 0 km/h
400 12-05-2009 15:00:00 12.475 C 9.69 g/m*3 12.48 C 0 km/h
Sensor: Nr:Datum:Temp:Abs-Feuchte:Windchill:Wind:
Aussen-T/F 401 12-05-2009 16:00:00 12.15 C 9.22 g/m*3 12.15 C 0 km/h
402 12-05-2009 17:00:00 12.05 C 9.54 g/m*3 12.05 C 0 km/h
403 12-05-2009 18:00:00 11.875 C 9.36 g/m*3 11.88 C 0 km/h
404 12-05-2009 19:00:00 12.05 C 9.78 g/m*3 12.05 C 0 km/h
405 12-05-2009 20:00:00 12.075 C 9.72 g/m*3 12.08 C 0 km/h
406 12-05-2009 21:00:00 11.725 C 9.51 g/m*3 11.73 C 0 km/h
407 12-05-2009 22:00:00 11.375 C 9.4 g/m*3 11.38 C 0 km/h
408 12-05-2009 23:00:00 11.1 C 9.27 g/m*3 11.1 C 0 km/h
409 13-05-2009 00:00:00 10.95 C 9.18 g/m*3 10.95 C 0 km/h
410 13-05-2009 01:00:00 10.75 C 8.89 g/m*3 10.75 C 0 km/h
411 13-05-2009 02:00:00 10.5 C 8.53 g/m*3 10.5 C 0 km/h
412 13-05-2009 03:00:00 10.15 C 8.25 g/m*3 10.15 C 0 km/h
413 13-05-2009 04:00:00 10.15 C 8.16 g/m*3 10.15 C 0 km/h
414 13-05-2009 05:00:00 10.15 C 8.16 g/m*3 10.15 C 0 km/h
415 13-05-2009 06:00:00 10.425 C 8.3 g/m*3 10.43 C 0 km/h
416 13-05-2009 07:00:00 11.6 C 8.32 g/m*3 11.6 C 0 km/h
417 13-05-2009 08:00:00 13.15 C 7.61 g/m*3 13.15 C 0 km/h
418 13-05-2009 09:00:00 13.725 C 7.53 g/m*3 13.73 C 0 km/h
419 13-05-2009 10:00:00 15.925 C 7.46 g/m*3 15.93 C 0 km/h
420 13-05-2009 11:00:00 18.65 C 7.66 g/m*3 18.65 C 0 km/h
421 13-05-2009 12:00:00 20.3 C 7.74 g/m*3 20.3 C 0 km/h
422 13-05-2009 13:00:00 21.45 C 7.66 g/m*3 21.45 C 0 km/h
423 13-05-2009 14:00:00 22.55 C 8.01 g/m*3 22.55 C 0 km/h
424 13-05-2009 15:00:00 22.6 C 8.09 g/m*3 22.6 C 0 km/h
425 13-05-2009 16:00:00 21.05 C 8.96 g/m*3 21.05 C 0 km/h
Sensor: Nr:Datum:Temp:Abs-Feuchte:Windchill:Wind:
Aussen-T/F 426 13-05-2009 17:00:00 19.575 C 9.31 g/m*3 19.58 C 0 km/h
427 13-05-2009 18:00:00 18.6 C 9.35 g/m*3 18.6 C 0 km/h
428 13-05-2009 19:00:00 18.4 C 9.91 g/m*3 18.4 C 0 km/h
429 13-05-2009 20:00:00 17.325 C 10.33 g/m*3 17.33 C 0 km/h
430 13-05-2009 21:00:00 15.7 C 10.07 g/m*3 15.7 C 0 km/h
431 13-05-2009 22:00:00 14.575 C 10 g/m*3 14.58 C 0 km/h
432 13-05-2009 23:00:00 14.175 C 9.94 g/m*3 14.18 C 0 km/h
433 14-05-2009 00:00:00 13.9 C 9.95 g/m*3 13.9 C 0 km/h
434 14-05-2009 01:00:00 13.45 C 9.68 g/m*3 13.45 C 0 km/h
435 14-05-2009 02:00:00 13 C 9.55 g/m*3 13 C 0 km/h
436 14-05-2009 03:00:00 13.25 C 9.53 g/m*3 13.25 C 0 km/h
437 14-05-2009 04:00:00 13.275 C 8.77 g/m*3 13.28 C 0 km/h
438 14-05-2009 05:00:00 13.425 C 8.64 g/m*3 13.43 C 0 km/h
439 14-05-2009 06:00:00 13.375 C 8.59 g/m*3 13.38 C 0 km/h
440 14-05-2009 07:00:00 13.75 C 8.76 g/m*3 13.75 C 0 km/h
441 14-05-2009 08:00:00 14.125 C 8.69 g/m*3 14.13 C 0 km/h
442 14-05-2009 09:00:00 15.075 C 8.31 g/m*3 15.08 C 0 km/h
443 14-05-2009 10:00:00 15.55 C 8.15 g/m*3 15.55 C 0 km/h
444 14-05-2009 11:00:00 16.55 C 8.13 g/m*3 16.55 C 0 km/h
445 14-05-2009 12:00:00 17.225 C 8.54 g/m*3 17.23 C 0 km/h
446 14-05-2009 13:00:00 18.175 C 8.65 g/m*3 18.18 C 0 km/h
447 14-05-2009 14:00:00 21.2 C 8.2 g/m*3 21.2 C 0 km/h
448 14-05-2009 15:00:00 22.3 C 8.34 g/m*3 22.3 C 0 km/h
449 14-05-2009 16:00:00 22.675 C 8.17 g/m*3 22.68 C 0 km/h
450 14-05-2009 17:00:00 19.675 C 8.94 g/m*3 19.68 C 0 km/h
Sensor: Nr:Datum:Temp:Abs-Feuchte:Windchill:Wind:
Aussen-T/F 451 14-05-2009 18:00:00 18.925 C 9.49 g/m*3 18.93 C 0 km/h
452 14-05-2009 19:00:00 17.525 C 9.89 g/m*3 17.52 C 0 km/h
453 14-05-2009 20:00:00 15.625 C 11.29 g/m*3 15.63 C 0 km/h
454 14-05-2009 21:00:00 14.975 C 11.36 g/m*3 14.98 C 0 km/h
455 14-05-2009 22:00:00 13.825 C 10.89 g/m*3 13.83 C 0 km/h
456 14-05-2009 23:00:00 13.175 C 10.66 g/m*3 13.18 C 0 km/h
457 15-05-2009 00:00:00 12.825 C 10.55 g/m*3 12.83 C 0 km/h
458 15-05-2009 01:00:00 13 C 10.49 g/m*3 13 C 0 km/h
459 15-05-2009 02:00:00 13.1 C 10.38 g/m*3 13.1 C 0 km/h
460 15-05-2009 03:00:00 13.2 C 10.45 g/m*3 13.2 C 0 km/h
461 15-05-2009 04:00:00 13.4 C 10.64 g/m*3 13.4 C 0 km/h
462 15-05-2009 05:00:00 13.65 C 10.86 g/m*3 13.65 C 0 km/h
463 15-05-2009 06:00:00 14 C 10.95 g/m*3 14 C 0 km/h
464 15-05-2009 07:00:00 14.725 C 11.25 g/m*3 14.73 C 0 km/h
465 15-05-2009 08:00:00 16.25 C 11.48 g/m*3 16.25 C 0 km/h
466 15-05-2009 09:00:00 16.85 C 10.32 g/m*3 16.85 C 0 km/h
467 15-05-2009 10:00:00 18 C 9.75 g/m*3 18 C 0 km/h
468 15-05-2009 11:00:00 20.15 C 9.15 g/m*3 20.15 C 0 km/h
469 15-05-2009 12:00:00 19.875 C 8.66 g/m*3 19.88 C 0 km/h
470 15-05-2009 13:00:00 17.55 C 10.28 g/m*3 17.55 C 0 km/h
471 15-05-2009 14:00:00 17.475 C 9.79 g/m*3 17.48 C 0 km/h
472 15-05-2009 15:00:00 16.675 C 10.75 g/m*3 16.68 C 0 km/h
473 15-05-2009 16:00:00 18.3 C 10.79 g/m*3 18.3 C 0 km/h
474 15-05-2009 17:00:00 16.725 C 10.11 g/m*3 16.73 C 0 km/h
475 15-05-2009 18:00:00 15.38 C 9.89 g/m*3 15.38 C 0 km/h
Sensor: Nr:Datum:Temp:Abs-Feuchte:Windchill:Wind:
Aussen-T/F 476 15-05-2009 19:00:00 13.72 C 9.56 g/m*3 13.72 C 0 km/h
477 15-05-2009 20:00:00 13.26 C 9.8 g/m*3 13.26 C 0 km/h
478 15-05-2009 21:00:00 12.6 C 9.76 g/m*3 12.6 C 0 km/h
479 15-05-2009 22:00:00 12.52 C 9.97 g/m*3 12.52 C 0 km/h
480 15-05-2009 23:00:00 12.42 C 9.82 g/m*3 12.42 C 0 km/h
481 16-05-2009 00:00:00 12.3 C 8.86 g/m*3 12.3 C 0 km/h
482 16-05-2009 01:00:00 11.48 C 8.5 g/m*3 11.48 C 0 km/h
483 16-05-2009 02:00:00 10.02 C 8.02 g/m*3 10.02 C 0 km/h
484 16-05-2009 03:00:00 9.36 C 8.07 g/m*3 9.36 C 0 km/h
485 16-05-2009 04:00:00 9.18 C 7.96 g/m*3 9.18 C 0 km/h
486 16-05-2009 05:00:00 8.34 C 7.52 g/m*3 8.34 C 0 km/h
487 16-05-2009 06:00:00 8.12 C 7.4 g/m*3 8.12 C 0 km/h
488 16-05-2009 07:00:00 8.92 C 7.53 g/m*3 8.92 C 0 km/h
489 16-05-2009 08:00:00 10.36 C 7.36 g/m*3 10.36 C 0 km/h
490 16-05-2009 09:00:00 11.68 C 7.17 g/m*3 11.68 C 0 km/h
491 16-05-2009 10:00:00 13.08 C 6.61 g/m*3 13.08 C 0 km/h
492 16-05-2009 11:00:00 13.92 C 6.22 g/m*3 13.92 C 0 km/h
493 16-05-2009 12:00:00 16.3 C 5.6 g/m*3 16.3 C 0 km/h
494 16-05-2009 13:00:00 16.54 C 5.4 g/m*3 16.54 C 0 km/h
495 16-05-2009 14:00:00 17.32 C 5.46 g/m*3 17.32 C 0 km/h
496 16-05-2009 15:00:00 17.8 C 5.77 g/m*3 17.8 C 0 km/h
497 16-05-2009 16:00:00 18.18 C 5.93 g/m*3 18.18 C 0 km/h
498 16-05-2009 17:00:00 18.54 C 5.99 g/m*3 18.54 C 0 km/h
499 16-05-2009 18:00:00 20.74 C 5.85 g/m*3 20.74 C 0 km/h
500 16-05-2009 19:00:00 20.52 C 6.34 g/m*3 20.52 C 0 km/h
Sensor: Nr:Datum:Temp:Abs-Feuchte:Windchill:Wind:
Aussen-T/F 501 16-05-2009 20:00:00 17.3 C 7.66 g/m*3 17.3 C 0 km/h
502 16-05-2009 21:00:00 14.56 C 7.54 g/m*3 14.56 C 0 km/h
503 16-05-2009 22:00:00 13.2 C 7.65 g/m*3 13.2 C 0 km/h
504 16-05-2009 23:00:00 13.52 C 7.5 g/m*3 13.52 C 0 km/h
505 17-05-2009 00:00:00 13.86 C 7.25 g/m*3 13.86 C 0 km/h
506 17-05-2009 01:00:00 13.52 C 7.28 g/m*3 13.52 C 0 km/h
507 17-05-2009 02:00:00 13.24 C 7.39 g/m*3 13.24 C 0 km/h
508 17-05-2009 03:00:00 11.92 C 7.44 g/m*3 11.92 C 0 km/h
509 17-05-2009 04:00:00 11.86 C 7.33 g/m*3 11.86 C 0 km/h
510 17-05-2009 05:00:00 11.1 C 7.41 g/m*3 11.1 C 0 km/h
511 17-05-2009 06:00:00 10.74 C 7.6 g/m*3 10.74 C 0 km/h
512 17-05-2009 07:00:00 11.92 C 7.83 g/m*3 11.92 C 0 km/h
513 17-05-2009 08:00:00 11.9 C 8.47 g/m*3 11.9 C 0 km/h
514 17-05-2009 09:00:00 13.9 C 8.94 g/m*3 13.9 C 0 km/h
515 17-05-2009 10:00:00 16.04 C 8.09 g/m*3 16.04 C 0 km/h
516 17-05-2009 11:00:00 19.24 C 8.3 g/m*3 19.24 C 0 km/h
517 17-05-2009 12:00:00 21.44 C 8.27 g/m*3 21.44 C 0 km/h
518 17-05-2009 13:00:00 22.6 C 8.04 g/m*3 22.6 C 0 km/h
519 17-05-2009 14:00:00 21.66 C 7.69 g/m*3 21.66 C 0 km/h
520 17-05-2009 15:00:00 22.88 C 7.68 g/m*3 22.88 C 0 km/h
521 17-05-2009 16:00:00 23.7 C 6.63 g/m*3 23.7 C 0 km/h
522 17-05-2009 17:00:00 24 C 6.31 g/m*3 24 C 0 km/h
523 17-05-2009 18:00:00 21.46 C 6.74 g/m*3 21.46 C 0 km/h
524 17-05-2009 19:00:00 20.52 C 7.34 g/m*3 20.52 C 0 km/h
525 17-05-2009 20:00:00 19.28 C 8.02 g/m*3 19.28 C 0 km/h
Sensor: Nr:Datum:Temp:Abs-Feuchte:Windchill:Wind:
Aussen-T/F 526 17-05-2009 21:00:00 18.28 C 7.75 g/m*3 18.28 C 0 km/h
527 17-05-2009 22:00:00 17.14 C 7.32 g/m*3 17.14 C 0 km/h
528 17-05-2009 23:00:00 16.3 C 6.85 g/m*3 16.3 C 0 km/h
529 18-05-2009 00:00:00 15.66 C 6.97 g/m*3 15.66 C 0 km/h
530 18-05-2009 01:00:00 14.78 C 7.31 g/m*3 14.78 C 0 km/h
531 18-05-2009 02:00:00 14.14 C 7.32 g/m*3 14.14 C 0 km/h
532 18-05-2009 03:00:00 13.06 C 7.33 g/m*3 13.06 C 0 km/h
533 18-05-2009 04:00:00 12.66 C 7.55 g/m*3 12.66 C 0 km/h
534 18-05-2009 05:00:00 11.28 C 7.48 g/m*3 11.28 C 0 km/h
535 18-05-2009 06:00:00 10.74 C 7.76 g/m*3 10.74 C 0 km/h
536 18-05-2009 07:00:00 11.44 C 8.11 g/m*3 11.44 C 0 km/h
537 18-05-2009 08:00:00 12.84 C 8.38 g/m*3 12.84 C 0 km/h
538 18-05-2009 09:00:00 15.3 C 7.65 g/m*3 15.3 C 0 km/h
539 18-05-2009 10:00:00 16.68 C 7.15 g/m*3 16.68 C 0 km/h
540 18-05-2009 11:00:00 17.66 C 6.56 g/m*3 17.66 C 0 km/h
541 18-05-2009 12:00:00 19.04 C 5.78 g/m*3 19.04 C 0 km/h
542 18-05-2009 13:00:00 20.56 C 4.36 g/m*3 20.56 C 0 km/h
543 18-05-2009 14:00:00 20.92 C 3.65 g/m*3 20.92 C 0 km/h
544 18-05-2009 15:00:00 22.16 C 3.96 g/m*3 22.16 C 0 km/h
545 18-05-2009 16:00:00 21.96 C 4.07 g/m*3 21.96 C 0 km/h
546 18-05-2009 17:00:00 22.54 C 4.16 g/m*3 22.54 C 0 km/h
547 18-05-2009 18:00:00 23.02 C 4.16 g/m*3 23.02 C 0 km/h
548 18-05-2009 19:00:00 22.9 C 4.29 g/m*3 22.9 C 0 km/h
549 18-05-2009 20:00:00 21.1 C 4.94 g/m*3 21.1 C 0 km/h
550 18-05-2009 21:00:00 17.48 C 5.42 g/m*3 17.48 C 0 km/h
Sensor: Nr:Datum:Temp:Abs-Feuchte:Windchill:Wind:
Aussen-T/F 551 18-05-2009 22:00:00 15.32 C 5.7 g/m*3 15.32 C 0 km/h
552 18-05-2009 23:00:00 13.58 C 6.23 g/m*3 13.58 C 0 km/h
553 19-05-2009 00:00:00 12.48 C 6.65 g/m*3 12.48 C 0 km/h
554 19-05-2009 01:00:00 11.44 C 6.54 g/m*3 11.44 C 0 km/h
555 19-05-2009 02:00:00 10.44 C 6.49 g/m*3 10.44 C 0 km/h
556 19-05-2009 03:00:00 9.62 C 6.59 g/m*3 9.62 C 0 km/h
557 19-05-2009 04:00:00 8.94 C 6.66 g/m*3 8.94 C 0 km/h
558 19-05-2009 05:00:00 8.28 C 6.6 g/m*3 8.28 C 0 km/h
559 19-05-2009 06:00:00 8.3 C 6.71 g/m*3 8.3 C 0 km/h
560 19-05-2009 07:00:00 9.62 C 6.88 g/m*3 9.62 C 0 km/h
561 19-05-2009 08:00:00 10.72 C 6.77 g/m*3 10.72 C 0 km/h
562 19-05-2009 09:00:00 13.96 C 7.08 g/m*3 13.96 C 0 km/h
563 19-05-2009 10:00:00 17.08 C 7.39 g/m*3 17.08 C 0 km/h
564 19-05-2009 11:00:00 20.44 C 6.67 g/m*3 20.44 C 0 km/h
565 19-05-2009 12:00:00 22.86 C 5.59 g/m*3 22.86 C 0 km/h
566 19-05-2009 13:00:00 24 C 5.13 g/m*3 24 C 0 km/h
567 19-05-2009 14:00:00 23.56 C 6.49 g/m*3 23.56 C 0 km/h
568 19-05-2009 15:00:00 25.22 C 6.25 g/m*3 25.22 C 0 km/h
569 19-05-2009 16:00:00 27.52 C 5.77 g/m*3 27.52 C 0 km/h
570 19-05-2009 17:00:00 23.96 C 8.86 g/m*3 23.96 C 0 km/h
571 19-05-2009 18:00:00 24.3 C 8.59 g/m*3 24.3 C 0 km/h
572 19-05-2009 19:00:00 21.7 C 9.08 g/m*3 21.7 C 0 km/h
573 19-05-2009 20:00:00 16.56 C 9.7 g/m*3 16.56 C 0 km/h
574 19-05-2009 21:00:00 15.78 C 10.38 g/m*3 15.78 C 0 km/h
575 19-05-2009 22:00:00 15 C 9.57 g/m*3 15 C 0 km/h
Sensor: Nr:Datum:Temp:Abs-Feuchte:Windchill:Wind:
Aussen-T/F 576 19-05-2009 23:00:00 14.06 C 9.3 g/m*3 14.06 C 0 km/h
577 20-05-2009 00:00:00 13.32 C 9.05 g/m*3 13.32 C 0 km/h
578 20-05-2009 01:00:00 12.66 C 8.77 g/m*3 12.66 C 0 km/h
579 20-05-2009 02:00:00 11.98 C 8.62 g/m*3 11.98 C 0 km/h
580 20-05-2009 03:00:00 11.36 C 8.66 g/m*3 11.36 C 0 km/h
581 20-05-2009 04:00:00 10.74 C 8.49 g/m*3 10.74 C 0 km/h
582 20-05-2009 05:00:00 10.18 C 8.34 g/m*3 10.18 C 0 km/h
583 20-05-2009 06:00:00 10.54 C 8.48 g/m*3 10.54 C 0 km/h
584 20-05-2009 07:00:00 11.16 C 8.63 g/m*3 11.16 C 0 km/h
585 20-05-2009 08:00:00 12.74 C 8.82 g/m*3 12.74 C 0 km/h
586 20-05-2009 09:00:00 15.18 C 8.97 g/m*3 15.18 C 0 km/h
587 20-05-2009 10:00:00 17.76 C 9.45 g/m*3 17.76 C 0 km/h
588 20-05-2009 11:00:00 20.9 C 8.71 g/m*3 20.9 C 0 km/h
589 20-05-2009 12:00:00 24.12 C 7.75 g/m*3 24.12 C 0 km/h
590 20-05-2009 13:00:00 26.24 C 6.86 g/m*3 26.24 C 0 km/h
591 20-05-2009 14:00:00 26.5 C 7.06 g/m*3 26.5 C 0 km/h
592 20-05-2009 15:00:00 28.34 C 7.26 g/m*3 28.34 C 0 km/h
593 20-05-2009 16:00:00 27.46 C 7.39 g/m*3 27.46 C 0 km/h
594 20-05-2009 17:00:00 27.78 C 8.22 g/m*3 27.78 C 0 km/h
595 20-05-2009 18:00:00 26.42 C 8.97 g/m*3 26.42 C 0 km/h
596 20-05-2009 19:00:00 24.1 C 9.93 g/m*3 24.1 C 0 km/h
597 20-05-2009 20:00:00 21.98 C 10.43 g/m*3 21.98 C 0 km/h
598 20-05-2009 21:00:00 20.16 C 10.36 g/m*3 20.16 C 0 km/h
599 20-05-2009 22:00:00 18.98 C 10.42 g/m*3 18.98 C 0 km/h
600 20-05-2009 23:00:00 18.24 C 10.78 g/m*3 18.24 C 0 km/h
Sensor: Nr:Datum:Temp:Abs-Feuchte:Windchill:Wind:
Aussen-T/F 601 21-05-2009 00:00:00 17.44 C 10.81 g/m*3 17.44 C 0 km/h
602 21-05-2009 01:00:00 16.5 C 10.67 g/m*3 16.5 C 0 km/h
603 21-05-2009 02:00:00 15.58 C 10.41 g/m*3 15.58 C 0 km/h
604 21-05-2009 03:00:00 15.08 C 10.23 g/m*3 15.08 C 0 km/h
605 21-05-2009 04:00:00 14.74 C 10.3 g/m*3 14.74 C 0 km/h
606 21-05-2009 05:00:00 14.6 C 10.14 g/m*3 14.6 C 0 km/h
607 21-05-2009 06:00:00 14.46 C 10.27 g/m*3 14.46 C 0 km/h
608 21-05-2009 07:00:00 14.62 C 10.55 g/m*3 14.62 C 0 km/h
609 21-05-2009 08:00:00 15.92 C 10.68 g/m*3 15.92 C 0 km/h
610 21-05-2009 09:00:00 17.38 C 10.84 g/m*3 17.38 C 0 km/h
611 21-05-2009 10:00:00 20.98 C 10.69 g/m*3 20.98 C 0 km/h
612 21-05-2009 11:00:00 22.92 C 9.41 g/m*3 22.92 C 0 km/h
613 21-05-2009 12:00:00 25.5 C 9.28 g/m*3 25.5 C 0 km/h
614 21-05-2009 13:00:00 26.42 C 9.17 g/m*3 26.42 C 0 km/h
615 21-05-2009 14:00:00 25.1 C 9.26 g/m*3 25.1 C 0 km/h
616 21-05-2009 15:00:00 25.1 C 9.07 g/m*3 25.1 C 0 km/h
617 21-05-2009 16:00:00 24.8 C 9.01 g/m*3 24.8 C 0 km/h
618 21-05-2009 17:00:00 24.58 C 9.4 g/m*3 24.58 C 0 km/h
619 21-05-2009 18:00:00 22.76 C 10.1 g/m*3 22.76 C 0 km/h
620 21-05-2009 19:00:00 21.82 C 9.83 g/m*3 21.82 C 0 km/h
621 21-05-2009 20:00:00 18.68 C 10.46 g/m*3 18.68 C 0 km/h
622 21-05-2009 21:00:00 16.16 C 12.16 g/m*3 16.16 C 0 km/h
623 21-05-2009 22:00:00 15.7 C 12.01 g/m*3 15.7 C 0 km/h
624 21-05-2009 23:00:00 14.24 C 10.53 g/m*3 14.24 C 0 km/h
625 22-05-2009 00:00:00 13.38 C 9.75 g/m*3 13.38 C 0 km/h
Sensor: Nr:Datum:Temp:Abs-Feuchte:Windchill:Wind:
Aussen-T/F 626 22-05-2009 01:00:00 13.26 C 9.7 g/m*3 13.26 C 0 km/h
627 22-05-2009 02:00:00 13.36 C 9.37 g/m*3 13.36 C 0 km/h
628 22-05-2009 03:00:00 13.28 C 9.14 g/m*3 13.28 C 0 km/h
629 22-05-2009 04:00:00 13 C 9 g/m*3 13 C 0 km/h
630 22-05-2009 05:00:00 12.92 C 8.87 g/m*3 12.92 C 0 km/h
631 22-05-2009 06:00:00 12.56 C 8.7 g/m*3 12.56 C 0 km/h
632 22-05-2009 07:00:00 13.62 C 9.29 g/m*3 13.62 C 0 km/h
633 22-05-2009 08:00:00 14.52 C 9.12 g/m*3 14.52 C 0 km/h
634 22-05-2009 09:00:00 16.56 C 7.72 g/m*3 16.56 C 0 km/h
635 22-05-2009 10:00:00 18.14 C 6.94 g/m*3 18.14 C 0 km/h
636 22-05-2009 11:00:00 20.38 C 6.82 g/m*3 20.38 C 0 km/h
637 22-05-2009 12:00:00 21.18 C 6.29 g/m*3 21.18 C 0 km/h
638 22-05-2009 13:00:00 22.7 C 4.49 g/m*3 22.7 C 0 km/h
639 22-05-2009 14:00:00 22.98 C 4.11 g/m*3 22.98 C 0 km/h
640 22-05-2009 15:00:00 23.9 C 4.41 g/m*3 23.9 C 0 km/h
641 22-05-2009 16:00:00 23.3 C 4.27 g/m*3 23.3 C 0 km/h
642 22-05-2009 17:00:00 23.4 C 4.25 g/m*3 23.4 C 0 km/h
643 22-05-2009 18:00:00 24.02 C 4.36 g/m*3 24.02 C 0 km/h
644 22-05-2009 19:00:00 23.76 C 4.29 g/m*3 23.76 C 0 km/h
645 22-05-2009 20:00:00 21.14 C 4.21 g/m*3 21.14 C 0 km/h
646 22-05-2009 21:00:00 18.4 C 4.78 g/m*3 18.4 C 0 km/h
647 22-05-2009 22:00:00 16.78 C 4.97 g/m*3 16.78 C 0 km/h
648 22-05-2009 23:00:00 14.96 C 5.73 g/m*3 14.96 C 0 km/h
649 23-05-2009 00:00:00 13.38 C 6.11 g/m*3 13.38 C 0 km/h
650 23-05-2009 01:00:00 12.36 C 6.34 g/m*3 12.36 C 0 km/h
Sensor: Nr:Datum:Temp:Abs-Feuchte:Windchill:Wind:
Aussen-T/F 651 23-05-2009 02:00:00 11.18 C 6.58 g/m*3 11.18 C 0 km/h
652 23-05-2009 03:00:00 10.4 C 6.69 g/m*3 10.4 C 0 km/h
653 23-05-2009 04:00:00 9.72 C 6.65 g/m*3 9.72 C 0 km/h
654 23-05-2009 05:00:00 9.18 C 6.62 g/m*3 9.18 C 0 km/h
655 23-05-2009 06:00:00 8.94 C 6.83 g/m*3 8.94 C 0 km/h
656 23-05-2009 07:00:00 9.38 C 6.99 g/m*3 9.38 C 0 km/h
657 23-05-2009 08:00:00 11.04 C 7.14 g/m*3 11.04 C 0 km/h
658 23-05-2009 09:00:00 13.8 C 7.39 g/m*3 13.8 C 0 km/h
659 23-05-2009 10:00:00 17.64 C 6.86 g/m*3 17.64 C 0 km/h
660 23-05-2009 11:00:00 20.28 C 6.08 g/m*3 20.28 C 0 km/h
661 23-05-2009 12:00:00 23.54 C 5.26 g/m*3 23.54 C 0 km/h
662 23-05-2009 13:00:00 26 C 4.97 g/m*3 26 C 0 km/h
663 23-05-2009 14:00:00 26.38 C 5.12 g/m*3 26.38 C 0 km/h
664 23-05-2009 15:00:00 28.32 C 5.54 g/m*3 28.32 C 0 km/h
665 23-05-2009 16:00:00 30.1 C 6.1 g/m*3 30.1 C 0 km/h
666 23-05-2009 17:00:00 30.78 C 6.33 g/m*3 30.78 C 0 km/h
667 23-05-2009 18:00:00 29.48 C 6.43 g/m*3 29.48 C 0 km/h
668 23-05-2009 19:00:00 24.94 C 7.39 g/m*3 24.94 C 0 km/h
669 23-05-2009 20:00:00 22.74 C 7.01 g/m*3 22.74 C 0 km/h
670 23-05-2009 21:00:00 20.82 C 7.54 g/m*3 20.82 C 0 km/h
671 23-05-2009 22:00:00 19.9 C 7.49 g/m*3 19.9 C 0 km/h
672 23-05-2009 23:00:00 19 C 7.92 g/m*3 19 C 0 km/h
673 24-05-2009 00:00:00 17.84 C 7.76 g/m*3 17.84 C 0 km/h
674 24-05-2009 01:00:00 17.1 C 8.01 g/m*3 17.1 C 0 km/h
675 24-05-2009 02:00:00 16.14 C 8.41 g/m*3 16.14 C 0 km/h
Sensor: Nr:Datum:Temp:Abs-Feuchte:Windchill:Wind:
Aussen-T/F 676 24-05-2009 03:00:00 14.96 C 8.47 g/m*3 14.96 C 0 km/h
677 24-05-2009 04:00:00 13.98 C 8.55 g/m*3 13.98 C 0 km/h
678 24-05-2009 05:00:00 13.38 C 8.55 g/m*3 13.38 C 0 km/h
679 24-05-2009 06:00:00 13.42 C 8.82 g/m*3 13.42 C 0 km/h
680 24-05-2009 07:00:00 13.78 C 9.07 g/m*3 13.78 C 0 km/h
681 24-05-2009 08:00:00 15.68 C 9.25 g/m*3 15.68 C 0 km/h
682 24-05-2009 09:00:00 18.64 C 8.87 g/m*3 18.64 C 0 km/h
683 24-05-2009 10:00:00 21.42 C 8.37 g/m*3 21.42 C 0 km/h
684 24-05-2009 11:00:00 24.96 C 8.31 g/m*3 24.96 C 0 km/h
685 24-05-2009 12:00:00 27.68 C 7.43 g/m*3 27.68 C 0 km/h
686 24-05-2009 13:00:00 29.86 C 6.68 g/m*3 29.86 C 0 km/h
687 24-05-2009 14:00:00 29.2 C 6.91 g/m*3 29.2 C 0 km/h
688 24-05-2009 15:00:00 31.34 C 6.65 g/m*3 31.34 C 0 km/h
689 24-05-2009 16:00:00 31.74 C 6.79 g/m*3 31.74 C 0 km/h
690 24-05-2009 17:00:00 31.38 C 6.92 g/m*3 31.38 C 0 km/h
691 24-05-2009 18:00:00 31.48 C 6.83 g/m*3 31.48 C 0 km/h
692 24-05-2009 19:00:00 30.62 C 7.53 g/m*3 30.62 C 0 km/h
693 24-05-2009 20:00:00 27.8 C 8.82 g/m*3 27.8 C 0 km/h
694 24-05-2009 21:00:00 24.2 C 9.29 g/m*3 24.2 C 0 km/h
695 24-05-2009 22:00:00 22.74 C 9.6 g/m*3 22.74 C 0 km/h
696 24-05-2009 23:00:00 21.48 C 9.83 g/m*3 21.48 C 0 km/h
697 25-05-2009 00:00:00 20.22 C 10.08 g/m*3 20.22 C 0 km/h
698 25-05-2009 01:00:00 19.1 C 10.23 g/m*3 19.1 C 0 km/h
699 25-05-2009 02:00:00 18.22 C 10.27 g/m*3 18.22 C 0 km/h
700 25-05-2009 03:00:00 17.4 C 10.26 g/m*3 17.4 C 0 km/h
Sensor: Nr:Datum:Temp:Abs-Feuchte:Windchill:Wind:
Aussen-T/F 701 25-05-2009 04:00:00 16.7 C 10.29 g/m*3 16.7 C 0 km/h
702 25-05-2009 05:00:00 15.98 C 10.21 g/m*3 15.98 C 0 km/h
703 25-05-2009 06:00:00 15.82 C 10.38 g/m*3 15.82 C 0 km/h
704 25-05-2009 07:00:00 16.3 C 10.63 g/m*3 16.3 C 0 km/h
705 25-05-2009 08:00:00 17.94 C 11.05 g/m*3 17.94 C 0 km/h
706 25-05-2009 09:00:00 20.9 C 10.78 g/m*3 20.9 C 0 km/h
707 25-05-2009 10:00:00 24.34 C 10.47 g/m*3 24.34 C 0 km/h
708 25-05-2009 11:00:00 27.52 C 10.01 g/m*3 27.52 C 0 km/h
709 25-05-2009 12:00:00 30.58 C 9.2 g/m*3 30.58 C 0 km/h
710 25-05-2009 13:00:00 32.1 C 7.47 g/m*3 32.1 C 0 km/h
711 25-05-2009 14:00:00 32.3 C 7.34 g/m*3 32.3 C 0 km/h
712 25-05-2009 15:00:00 33.36 C 7.33 g/m*3 33.36 C 0 km/h
713 25-05-2009 16:00:00 32.36 C 9.7 g/m*3 32.36 C 0 km/h
714 25-05-2009 17:00:00 29.14 C 12.56 g/m*3 29.14 C 0 km/h
715 25-05-2009 18:00:00 26.5 C 8.46 g/m*3 26.5 C 0 km/h
716 25-05-2009 19:00:00 25.28 C 8.23 g/m*3 25.28 C 0 km/h
717 25-05-2009 20:00:00 25.82 C 9.45 g/m*3 25.82 C 0 km/h
718 25-05-2009 21:00:00 23.52 C 10.12 g/m*3 23.52 C 0 km/h
719 25-05-2009 22:00:00 21.78 C 10.08 g/m*3 21.78 C 0 km/h
720 25-05-2009 23:00:00 20.78 C 10.45 g/m*3 20.78 C 0 km/h
721 26-05-2009 00:00:00 19.86 C 11 g/m*3 19.86 C 0 km/h
722 26-05-2009 01:00:00 19.08 C 11.26 g/m*3 19.08 C 0 km/h
723 26-05-2009 02:00:00 18.5 C 11.39 g/m*3 18.5 C 0 km/h
724 26-05-2009 03:00:00 18.32 C 11.46 g/m*3 18.32 C 0 km/h
725 26-05-2009 04:00:00 17.56 C 11.46 g/m*3 17.56 C 0 km/h
Sensor: Nr:Datum:Temp:Abs-Feuchte:Windchill:Wind:
Aussen-T/F 726 26-05-2009 05:00:00 17.4 C 11.62 g/m*3 17.4 C 0 km/h
727 26-05-2009 06:00:00 17.98 C 11.84 g/m*3 17.98 C 0 km/h
728 26-05-2009 07:00:00 18.86 C 12.02 g/m*3 18.86 C 0 km/h
729 26-05-2009 08:00:00 20.7 C 10.95 g/m*3 20.7 C 0 km/h
730 26-05-2009 09:00:00 21.46 C 10.46 g/m*3 21.46 C 0 km/h
731 26-05-2009 10:00:00 23.1 C 9.88 g/m*3 23.1 C 0 km/h
732 26-05-2009 11:00:00 23.78 C 9.93 g/m*3 23.78 C 0 km/h
733 26-05-2009 12:00:00 24.3 C 8.81 g/m*3 24.3 C 0 km/h
734 26-05-2009 13:00:00 26.08 C 7.97 g/m*3 26.08 C 0 km/h
735 26-05-2009 14:00:00 24.5 C 7.74 g/m*3 24.5 C 0 km/h
736 26-05-2009 15:00:00 24.34 C 7.45 g/m*3 24.34 C 0 km/h
737 26-05-2009 16:00:00 24.56 C 7.32 g/m*3 24.56 C 0 km/h
738 26-05-2009 17:00:00 23.94 C 7.55 g/m*3 23.94 C 0 km/h
739 26-05-2009 18:00:00 19.36 C 9.75 g/m*3 19.36 C 0 km/h
740 26-05-2009 19:00:00 16.52 C 10.09 g/m*3 16.52 C 0 km/h
741 26-05-2009 20:00:00 15.62 C 9.43 g/m*3 15.62 C 0 km/h
742 26-05-2009 21:00:00 14.94 C 8.87 g/m*3 14.94 C 0 km/h
743 26-05-2009 22:00:00 13.76 C 7.25 g/m*3 13.76 C 0 km/h
744 26-05-2009 23:00:00 12.26 C 6.52 g/m*3 12.26 C 0 km/h
745 27-05-2009 00:00:00 12.12 C 6.94 g/m*3 12.12 C 0 km/h
746 27-05-2009 01:00:00 11.22 C 7.02 g/m*3 11.22 C 0 km/h
747 27-05-2009 02:00:00 10.36 C 6.84 g/m*3 10.36 C 0 km/h
748 27-05-2009 03:00:00 9.72 C 6.76 g/m*3 9.72 C 0 km/h
749 27-05-2009 04:00:00 9.26 C 6.69 g/m*3 9.26 C 0 km/h
750 27-05-2009 05:00:00 9.18 C 6.76 g/m*3 9.18 C 0 km/h
Sensor: Nr:Datum:Temp:Abs-Feuchte:Windchill:Wind:
Aussen-T/F 751 27-05-2009 06:00:00 9.42 C 6.79 g/m*3 9.42 C 0 km/h
752 27-05-2009 07:00:00 10.08 C 6.82 g/m*3 10.08 C 0 km/h
753 27-05-2009 08:00:00 11.38 C 6.95 g/m*3 11.38 C 0 km/h
754 27-05-2009 09:00:00 13.14 C 6.8 g/m*3 13.14 C 0 km/h
755 27-05-2009 10:00:00 14.98 C 6.3 g/m*3 14.98 C 0 km/h
756 27-05-2009 11:00:00 16.66 C 5.81 g/m*3 16.66 C 0 km/h
757 27-05-2009 12:00:00 18.76 C 4.63 g/m*3 18.76 C 0 km/h
758 27-05-2009 13:00:00 20.16 C 3.98 g/m*3 20.16 C 0 km/h
759 27-05-2009 14:00:00 19.76 C 3.65 g/m*3 19.76 C 0 km/h
760 27-05-2009 15:00:00 19.32 C 4.35 g/m*3 19.32 C 0 km/h
761 27-05-2009 16:00:00 19.74 C 4.56 g/m*3 19.74 C 0 km/h
762 27-05-2009 17:00:00 18.54 C 4.73 g/m*3 18.54 C 0 km/h
763 27-05-2009 18:00:00 17.4 C 4.56 g/m*3 17.4 C 0 km/h
764 27-05-2009 19:00:00 17.36 C 5 g/m*3 17.36 C 0 km/h
765 27-05-2009 20:00:00 16.24 C 5.17 g/m*3 16.24 C 0 km/h
766 27-05-2009 21:00:00 14.62 C 5.56 g/m*3 14.62 C 0 km/h
767 27-05-2009 22:00:00 13.82 C 6.04 g/m*3 13.82 C 0 km/h
768 27-05-2009 23:00:00 13.38 C 5.94 g/m*3 13.38 C 0 km/h
769 28-05-2009 00:00:00 13.34 C 5.68 g/m*3 13.34 C 0 km/h
770 28-05-2009 01:00:00 13.1 C 6.05 g/m*3 13.1 C 0 km/h
771 28-05-2009 02:00:00 12.78 C 6.69 g/m*3 12.78 C 0 km/h
772 28-05-2009 03:00:00 12.84 C 6.67 g/m*3 12.84 C 0 km/h
773 28-05-2009 04:00:00 12.94 C 6.98 g/m*3 12.94 C 0 km/h
774 28-05-2009 05:00:00 12.86 C 7.4 g/m*3 12.86 C 0 km/h
775 28-05-2009 06:00:00 13.1 C 7.53 g/m*3 13.1 C 0 km/h
Sensor: Nr:Datum:Temp:Abs-Feuchte:Windchill:Wind:
Aussen-T/F 776 28-05-2009 07:00:00 13.48 C 7.73 g/m*3 13.48 C 0 km/h
777 28-05-2009 08:00:00 14.22 C 7.92 g/m*3 14.22 C 0 km/h
778 28-05-2009 09:00:00 15.06 C 8.08 g/m*3 15.06 C 0 km/h
779 28-05-2009 10:00:00 15.56 C 8.23 g/m*3 15.56 C 0 km/h
780 28-05-2009 11:00:00 16.62 C 8.43 g/m*3 16.62 C 0 km/h
781 28-05-2009 12:00:00 15.32 C 9.6 g/m*3 15.32 C 0 km/h
782 28-05-2009 13:00:00 16.18 C 11.1 g/m*3 16.18 C 0 km/h
783 28-05-2009 14:00:00 17.46 C 10.92 g/m*3 17.46 C 0 km/h
784 28-05-2009 15:00:00 18 C 10.23 g/m*3 18 C 0 km/h
785 28-05-2009 16:00:00 19.42 C 9.25 g/m*3 19.42 C 0 km/h
786 28-05-2009 17:00:00 19.28 C 8.75 g/m*3 19.28 C 0 km/h
787 28-05-2009 18:00:00 18.4 C 8.52 g/m*3 18.4 C 0 km/h
788 28-05-2009 19:00:00 17.84 C 9.13 g/m*3 17.84 C 0 km/h
789 28-05-2009 20:00:00 17.42 C 8.9 g/m*3 17.42 C 0 km/h
790 28-05-2009 21:00:00 16.26 C 8.3 g/m*3 16.26 C 0 km/h
791 28-05-2009 22:00:00 15.68 C 8.18 g/m*3 15.68 C 0 km/h
792 28-05-2009 23:00:00 15.62 C 7.94 g/m*3 15.62 C 0 km/h
793 29-05-2009 00:00:00 14.98 C 7.68 g/m*3 14.98 C 0 km/h
794 29-05-2009 01:00:00 13.28 C 7.94 g/m*3 13.28 C 0 km/h
795 29-05-2009 02:00:00 12.04 C 7.97 g/m*3 12.04 C 0 km/h
796 29-05-2009 03:00:00 10.88 C 7.83 g/m*3 10.88 C 0 km/h
797 29-05-2009 04:00:00 9.9 C 7.56 g/m*3 9.9 C 0 km/h
798 29-05-2009 05:00:00 9.34 C 7.53 g/m*3 9.34 C 0 km/h
799 29-05-2009 06:00:00 9.18 C 7.65 g/m*3 9.18 C 0 km/h
800 29-05-2009 07:00:00 9.74 C 7.82 g/m*3 9.74 C 0 km/h
Sensor: Nr:Datum:Temp:Abs-Feuchte:Windchill:Wind:
Aussen-T/F 801 29-05-2009 08:00:00 11.4 C 6.77 g/m*3 11.4 C 0 km/h
802 29-05-2009 09:00:00 13.5 C 4.8 g/m*3 13.5 C 0 km/h
803 29-05-2009 10:00:00 15.58 C 4.12 g/m*3 15.58 C 0 km/h
804 29-05-2009 11:00:00 18.1 C 3.55 g/m*3 18.1 C 0 km/h
805 29-05-2009 12:00:00 21.64 C 3.8 g/m*3 21.64 C 0 km/h
806 29-05-2009 13:00:00 24.12 C 4.38 g/m*3 24.12 C 0 km/h
807 29-05-2009 14:00:00 23.32 C 4.19 g/m*3 23.32 C 0 km/h
808 29-05-2009 15:00:00 25.9 C 4.84 g/m*3 25.9 C 0 km/h
809 29-05-2009 16:00:00 27.46 C 5.28 g/m*3 27.46 C 0 km/h
810 29-05-2009 17:00:00 28.42 C 5.57 g/m*3 28.42 C 0 km/h
811 29-05-2009 18:00:00 27.98 C 5.43 g/m*3 27.98 C 0 km/h
812 29-05-2009 19:00:00 26.4 C 4.98 g/m*3 26.4 C 0 km/h
813 29-05-2009 20:00:00 23.1 C 4.51 g/m*3 23.1 C 0 km/h
814 29-05-2009 21:00:00 18.76 C 4.98 g/m*3 18.76 C 0 km/h
815 29-05-2009 22:00:00 17.1 C 5.09 g/m*3 17.1 C 0 km/h
816 29-05-2009 23:00:00 15.36 C 5.22 g/m*3 15.36 C 0 km/h
817 30-05-2009 00:00:00 14.02 C 5.48 g/m*3 14.02 C 0 km/h
818 30-05-2009 01:00:00 12.86 C 5.64 g/m*3 12.86 C 0 km/h
819 30-05-2009 02:00:00 11.72 C 6.01 g/m*3 11.72 C 0 km/h
820 30-05-2009 03:00:00 11.4 C 5.77 g/m*3 11.4 C 0 km/h
821 30-05-2009 04:00:00 10.88 C 5.88 g/m*3 10.88 C 0 km/h
822 30-05-2009 05:00:00 10.26 C 6.19 g/m*3 10.26 C 0 km/h
823 30-05-2009 06:00:00 9.92 C 6.6 g/m*3 9.92 C 0 km/h
824 30-05-2009 07:00:00 10.56 C 6.87 g/m*3 10.56 C 0 km/h
825 30-05-2009 08:00:00 12.3 C 6.8 g/m*3 12.3 C 0 km/h
Sensor: Nr:Datum:Temp:Abs-Feuchte:Windchill:Wind:
Aussen-T/F 826 30-05-2009 09:00:00 14.8 C 6.36 g/m*3 14.8 C 0 km/h
827 30-05-2009 10:00:00 17.62 C 6.25 g/m*3 17.62 C 0 km/h
828 30-05-2009 11:00:00 20.18 C 6.18 g/m*3 20.18 C 0 km/h
829 30-05-2009 12:00:00 22.02 C 5.29 g/m*3 22.02 C 0 km/h
830 30-05-2009 13:00:00 24.94 C 5.05 g/m*3 24.94 C 0 km/h
831 30-05-2009 14:00:00 24.12 C 4.51 g/m*3 24.12 C 0 km/h
832 30-05-2009 15:00:00 25.62 C 4.77 g/m*3 25.62 C 0 km/h
833 30-05-2009 16:00:00 27.8 C 5.38 g/m*3 27.8 C 0 km/h
834 30-05-2009 17:00:00 27.36 C 5.25 g/m*3 27.36 C 0 km/h
835 30-05-2009 18:00:00 27.1 C 5.18 g/m*3 27.1 C 0 km/h
836 30-05-2009 19:00:00 26.82 C 5.1 g/m*3 26.82 C 0 km/h
837 30-05-2009 20:00:00 24.26 C 5.08 g/m*3 24.26 C 0 km/h
838 30-05-2009 21:00:00 20.44 C 6.24 g/m*3 20.44 C 0 km/h
839 30-05-2009 22:00:00 18.22 C 6.63 g/m*3 18.22 C 0 km/h
840 30-05-2009 23:00:00 17.2 C 6.88 g/m*3 17.2 C 0 km/h
841 31-05-2009 00:00:00 16.52 C 7.2 g/m*3 16.52 C 0 km/h
842 31-05-2009 01:00:00 16.04 C 7.46 g/m*3 16.04 C 0 km/h
843 31-05-2009 02:00:00 15.82 C 7.76 g/m*3 15.82 C 0 km/h
844 31-05-2009 03:00:00 15.66 C 7.77 g/m*3 15.66 C 0 km/h
845 31-05-2009 04:00:00 15.44 C 7.98 g/m*3 15.44 C 0 km/h
846 31-05-2009 05:00:00 15.42 C 8.05 g/m*3 15.42 C 0 km/h
847 31-05-2009 06:00:00 15.6 C 8.3 g/m*3 15.6 C 0 km/h
848 31-05-2009 07:00:00 15.98 C 8.41 g/m*3 15.98 C 0 km/h
849 31-05-2009 08:00:00 16.78 C 8.8 g/m*3 16.78 C 0 km/h
850 31-05-2009 09:00:00 18.48 C 8.57 g/m*3 18.48 C 0 km/h
Sensor: Nr:Datum:Temp:Abs-Feuchte:Windchill:Wind:
Aussen-T/F 851 31-05-2009 10:00:00 20.16 C 8.16 g/m*3 20.16 C 0 km/h
852 31-05-2009 11:00:00 21.56 C 7.64 g/m*3 21.56 C 0 km/h
853 31-05-2009 12:00:00 23.02 C 7.04 g/m*3 23.02 C 0 km/h
854 31-05-2009 13:00:00 24.28 C 6.19 g/m*3 24.28 C 0 km/h
855 31-05-2009 14:00:00 25.24 C 6.11 g/m*3 25.24 C 0 km/h
856 31-05-2009 15:00:00 26.36 C 5.22 g/m*3 26.36 C 0 km/h
857 31-05-2009 16:00:00 27.28 C 5.23 g/m*3 27.28 C 0 km/h
858 31-05-2009 17:00:00 25.6 C 5.33 g/m*3 25.6 C 0 km/h
859 31-05-2009 18:00:00 26.12 C 5.44 g/m*3 26.12 C 0 km/h
860 31-05-2009 19:00:00 27 C 5.66 g/m*3 27 C 0 km/h
861 31-05-2009 20:00:00 23.32 C 6.11 g/m*3 23.32 C 0 km/h
862 31-05-2009 21:00:00 20.2 C 6.75 g/m*3 20.2 C 0 km/h
863 31-05-2009 22:00:00 18.34 C 7.08 g/m*3 18.34 C 0 km/h
864 31-05-2009 23:00:00 17.16 C 7.3 g/m*3 17.16 C 0 km/h
865 01-06-2009 00:00:00 16.1 C 7.65 g/m*3 16.1 C 0 km/h
866 01-06-2009 01:00:00 15.02 C 7.99 g/m*3 15.02 C 0 km/h
867 01-06-2009 02:00:00 14.08 C 8.1 g/m*3 14.08 C 0 km/h
868 01-06-2009 03:00:00 13.28 C 8.24 g/m*3 13.28 C 0 km/h
869 01-06-2009 04:00:00 12.64 C 8.34 g/m*3 12.64 C 0 km/h
870 01-06-2009 05:00:00 12.46 C 8.38 g/m*3 12.46 C 0 km/h
871 01-06-2009 06:00:00 13.14 C 8.47 g/m*3 13.14 C 0 km/h
872 01-06-2009 07:00:00 13.92 C 8.64 g/m*3 13.92 C 0 km/h
873 01-06-2009 08:00:00 15.34 C 8.88 g/m*3 15.34 C 0 km/h
874 01-06-2009 09:00:00 17.98 C 8.81 g/m*3 17.98 C 0 km/h
875 01-06-2009 10:00:00 20.86 C 8.76 g/m*3 20.86 C 0 km/h
Sensor: Nr:Datum:Temp:Abs-Feuchte:Windchill:Wind:
Aussen-T/F 876 01-06-2009 11:00:00 23 C 8.37 g/m*3 23 C 0 km/h
877 01-06-2009 12:00:00 25.94 C 7.57 g/m*3 25.94 C 0 km/h
878 01-06-2009 13:00:00 25.18 C 8.37 g/m*3 25.18 C 0 km/h
879 01-06-2009 14:00:00 20.76 C 11.2 g/m*3 20.76 C 0 km/h
880 01-06-2009 15:00:00 23.32 C 11.85 g/m*3 23.32 C 0 km/h
881 01-06-2009 16:00:00 27.32 C 7.91 g/m*3 27.32 C 0 km/h
882 01-06-2009 17:00:00 23.26 C 11.1 g/m*3 23.26 C 0 km/h
883 01-06-2009 18:00:00 26.28 C 9.05 g/m*3 26.28 C 0 km/h
884 01-06-2009 19:00:00 24.82 C 8.25 g/m*3 24.82 C 0 km/h
885 01-06-2009 20:00:00 24.18 C 7.69 g/m*3 24.18 C 0 km/h
886 01-06-2009 21:00:00 20.5 C 8.58 g/m*3 20.5 C 0 km/h
887 01-06-2009 22:00:00 18.38 C 8.89 g/m*3 18.38 C 0 km/h
888 01-06-2009 23:00:00 17.02 C 9.07 g/m*3 17.02 C 0 km/h
889 02-06-2009 00:00:00 15.96 C 9.38 g/m*3 15.96 C 0 km/h
890 02-06-2009 01:00:00 14.9 C 9.71 g/m*3 14.9 C 0 km/h
891 02-06-2009 02:00:00 13.98 C 9.61 g/m*3 13.98 C 0 km/h
892 02-06-2009 03:00:00 13.48 C 9.56 g/m*3 13.48 C 0 km/h
893 02-06-2009 04:00:00 13.06 C 9.31 g/m*3 13.06 C 0 km/h
894 02-06-2009 05:00:00 12.48 C 9.22 g/m*3 12.48 C 0 km/h
895 02-06-2009 06:00:00 12.9 C 8.7 g/m*3 12.9 C 0 km/h
896 02-06-2009 07:00:00 13.76 C 7.73 g/m*3 13.76 C 0 km/h
897 02-06-2009 08:00:00 14.6 C 7.76 g/m*3 14.6 C 0 km/h
898 02-06-2009 09:00:00 16.16 C 7.79 g/m*3 16.16 C 0 km/h
899 02-06-2009 10:00:00 18.3 C 7.76 g/m*3 18.3 C 0 km/h
900 02-06-2009 11:00:00 20.14 C 8.05 g/m*3 20.14 C 0 km/h
Sensor: Nr:Datum:Temp:Abs-Feuchte:Windchill:Wind:
Aussen-T/F 901 02-06-2009 12:00:00 23 C 7.6 g/m*3 23 C 0 km/h
902 02-06-2009 13:00:00 24.36 C 6.35 g/m*3 24.36 C 0 km/h
903 02-06-2009 14:00:00 24.54 C 5.74 g/m*3 24.54 C 0 km/h
904 02-06-2009 15:00:00 25.74 C 5.33 g/m*3 25.74 C 0 km/h
905 02-06-2009 16:00:00 26.66 C 5.25 g/m*3 26.66 C 0 km/h
906 02-06-2009 17:00:00 27.56 C 5.31 g/m*3 27.56 C 0 km/h
907 02-06-2009 18:00:00 28.22 C 5.5 g/m*3 28.22 C 0 km/h
908 02-06-2009 19:00:00 28.04 C 5.51 g/m*3 28.04 C 0 km/h
909 02-06-2009 20:00:00 26.16 C 5.7 g/m*3 26.16 C 0 km/h
910 02-06-2009 21:00:00 22.88 C 5.47 g/m*3 22.88 C 0 km/h
911 02-06-2009 22:00:00 21.18 C 5.74 g/m*3 21.18 C 0 km/h
912 02-06-2009 23:00:00 20 C 5.84 g/m*3 20 C 0 km/h
913 03-06-2009 00:00:00 18.98 C 5.57 g/m*3 18.98 C 0 km/h
914 03-06-2009 01:00:00 17.36 C 5.35 g/m*3 17.36 C 0 km/h
915 03-06-2009 02:00:00 15.72 C 5.41 g/m*3 15.72 C 0 km/h
916 03-06-2009 03:00:00 14.4 C 5.83 g/m*3 14.4 C 0 km/h
917 03-06-2009 04:00:00 13.44 C 5.99 g/m*3 13.44 C 0 km/h
918 03-06-2009 05:00:00 12.84 C 5.95 g/m*3 12.84 C 0 km/h
919 03-06-2009 06:00:00 12.96 C 6.31 g/m*3 12.96 C 0 km/h
920 03-06-2009 07:00:00 12.74 C 6.2 g/m*3 12.74 C 0 km/h
921 03-06-2009 08:00:00 12.94 C 5.78 g/m*3 12.94 C 0 km/h
922 03-06-2009 09:00:00 14.12 C 5.35 g/m*3 14.12 C 0 km/h
923 03-06-2009 10:00:00 14.82 C 5.43 g/m*3 14.82 C 0 km/h
924 03-06-2009 11:00:00 15.98 C 5.28 g/m*3 15.98 C 0 km/h
925 03-06-2009 12:00:00 17.58 C 4.88 g/m*3 17.58 C 0 km/h
Sensor: Nr:Datum:Temp:Abs-Feuchte:Windchill:Wind:
Aussen-T/F 926 03-06-2009 13:00:00 18.64 C 4.4 g/m*3 18.64 C 0 km/h
927 03-06-2009 14:00:00 19.5 C 4.43 g/m*3 19.5 C 0 km/h
928 03-06-2009 15:00:00 20.52 C 4.56 g/m*3 20.52 C 0 km/h
929 03-06-2009 16:00:00 20.2 C 4.51 g/m*3 20.2 C 0 km/h
930 03-06-2009 17:00:00 20.32 C 4.4 g/m*3 20.32 C 0 km/h
931 03-06-2009 18:00:00 19.56 C 4.08 g/m*3 19.56 C 0 km/h
932 03-06-2009 19:00:00 18.4 C 4.56 g/m*3 18.4 C 0 km/h
933 03-06-2009 20:00:00 16.82 C 4.98 g/m*3 16.82 C 0 km/h
934 03-06-2009 21:00:00 15.78 C 4.76 g/m*3 15.78 C 0 km/h
935 03-06-2009 22:00:00 15.02 C 4.72 g/m*3 15.02 C 0 km/h
936 03-06-2009 23:00:00 14.42 C 4.93 g/m*3 14.42 C 0 km/h
937 04-06-2009 00:00:00 13.38 C 5.22 g/m*3 13.38 C 0 km/h
938 04-06-2009 01:00:00 12.62 C 5.43 g/m*3 12.62 C 0 km/h
939 04-06-2009 02:00:00 12.1 C 4.55 g/m*3 12.1 C 0 km/h
940 04-06-2009 03:00:00 11.08 C 4.1 g/m*3 11.08 C 0 km/h
941 04-06-2009 04:00:00 10.68 C 4.34 g/m*3 10.68 C 0 km/h
942 04-06-2009 05:00:00 10.6 C 5 g/m*3 10.6 C 0 km/h
943 04-06-2009 06:00:00 10.64 C 4.91 g/m*3 10.64 C 0 km/h
944 04-06-2009 07:00:00 10.86 C 5.08 g/m*3 10.86 C 0 km/h
945 04-06-2009 08:00:00 12 C 5.29 g/m*3 12 C 0 km/h
946 04-06-2009 09:00:00 12.74 C 4.46 g/m*3 12.74 C 0 km/h
947 04-06-2009 10:00:00 13.38 C 4.37 g/m*3 13.38 C 0 km/h
948 04-06-2009 11:00:00 13.72 C 4.27 g/m*3 13.72 C 0 km/h
949 04-06-2009 12:00:00 14.58 C 4.27 g/m*3 14.58 C 0 km/h
950 04-06-2009 13:00:00 15.06 C 4.02 g/m*3 15.06 C 0 km/h
Sensor: Nr:Datum:Temp:Abs-Feuchte:Windchill:Wind:
Aussen-T/F 951 04-06-2009 14:00:00 15.44 C 3.92 g/m*3 15.44 C 0 km/h
952 04-06-2009 15:00:00 16.44 C 3.83 g/m*3 16.44 C 0 km/h
953 04-06-2009 16:00:00 16.48 C 3.65 g/m*3 16.48 C 0 km/h
954 04-06-2009 17:00:00 15.98 C 3.95 g/m*3 15.98 C 0 km/h
955 04-06-2009 18:00:00 15.8 C 4.17 g/m*3 15.8 C 0 km/h
956 04-06-2009 19:00:00 15.18 C 4.33 g/m*3 15.18 C 0 km/h
957 04-06-2009 20:00:00 14.62 C 4.64 g/m*3 14.62 C 0 km/h
958 04-06-2009 21:00:00 13.7 C 4.86 g/m*3 13.7 C 0 km/h
959 04-06-2009 22:00:00 13.08 C 4.95 g/m*3 13.08 C 0 km/h
960 04-06-2009 23:00:00 12.28 C 4.95 g/m*3 12.28 C 0 km/h
961 05-06-2009 00:00:00 11.52 C 4.98 g/m*3 11.52 C 0 km/h
962 05-06-2009 01:00:00 11 C 4.64 g/m*3 11 C 0 km/h
963 05-06-2009 02:00:00 9.98 C 4.77 g/m*3 9.98 C 0 km/h
964 05-06-2009 03:00:00 9.06 C 5.06 g/m*3 9.06 C 0 km/h
965 05-06-2009 04:00:00 8.54 C 5.26 g/m*3 8.54 C 0 km/h
966 05-06-2009 05:00:00 8.32 C 5.47 g/m*3 8.32 C 0 km/h
967 05-06-2009 06:00:00 8.54 C 5.72 g/m*3 8.54 C 0 km/h
968 05-06-2009 07:00:00 9.42 C 5.69 g/m*3 9.42 C 0 km/h
969 05-06-2009 08:00:00 10.5 C 5.64 g/m*3 10.5 C 0 km/h
970 05-06-2009 09:00:00 12.08 C 5.31 g/m*3 12.08 C 0 km/h
971 05-06-2009 10:00:00 12.8 C 4.86 g/m*3 12.8 C 0 km/h
972 05-06-2009 11:00:00 13.4 C 4.51 g/m*3 13.4 C 0 km/h
973 05-06-2009 12:00:00 15.64 C 4.35 g/m*3 15.64 C 0 km/h
974 05-06-2009 13:00:00 17.24 C 4.2 g/m*3 17.24 C 0 km/h
975 05-06-2009 14:00:00 16.5 C 4.04 g/m*3 16.5 C 0 km/h
Sensor: Nr:Datum:Temp:Abs-Feuchte:Windchill:Wind:
Aussen-T/F 976 05-06-2009 15:00:00 16.14 C 3.9 g/m*3 16.14 C 0 km/h
977 05-06-2009 16:00:00 18.36 C 4.02 g/m*3 18.36 C 0 km/h
978 05-06-2009 17:00:00 20.3 C 3.59 g/m*3 20.3 C 0 km/h
979 05-06-2009 18:00:00 21.92 C 3.86 g/m*3 21.92 C 0 km/h
980 05-06-2009 19:00:00 19.06 C 3.73 g/m*3 19.06 C 0 km/h
981 05-06-2009 20:00:00 16.56 C 4.45 g/m*3 16.56 C 0 km/h
982 05-06-2009 21:00:00 13.1 C 4.79 g/m*3 13.1 C 0 km/h
983 05-06-2009 22:00:00 11.44 C 5.02 g/m*3 11.44 C 0 km/h
984 05-06-2009 23:00:00 10.36 C 5.17 g/m*3 10.36 C 0 km/h
985 06-06-2009 00:00:00 9.4 C 5.35 g/m*3 9.4 C 0 km/h
986 06-06-2009 01:00:00 8.56 C 5.43 g/m*3 8.56 C 0 km/h
987 06-06-2009 02:00:00 8.12 C 5.58 g/m*3 8.12 C 0 km/h
988 06-06-2009 03:00:00 7.66 C 5.81 g/m*3 7.66 C 0 km/h
989 06-06-2009 04:00:00 7.28 C 5.82 g/m*3 7.28 C 0 km/h
990 06-06-2009 05:00:00 7.78 C 6.03 g/m*3 7.78 C 0 km/h
991 06-06-2009 06:00:00 8.58 C 6.14 g/m*3 8.58 C 0 km/h
992 06-06-2009 07:00:00 8.72 C 6.32 g/m*3 8.72 C 0 km/h
993 06-06-2009 08:00:00 8.4 C 7.11 g/m*3 8.4 C 0 km/h
994 06-06-2009 09:00:00 8.64 C 7.77 g/m*3 8.64 C 0 km/h
995 06-06-2009 10:00:00 9.02 C 7.96 g/m*3 9.02 C 0 km/h
996 06-06-2009 11:00:00 9.08 C 8.03 g/m*3 9.08 C 0 km/h
997 06-06-2009 12:00:00 9.34 C 8.27 g/m*3 9.34 C 0 km/h
998 06-06-2009 13:00:00 9.66 C 8.52 g/m*3 9.66 C 0 km/h
999 06-06-2009 14:00:00 9.7 C 8.54 g/m*3 9.7 C 0 km/h
1000 06-06-2009 15:00:00 9.58 C 8.45 g/m*3 9.58 C 0 km/h
Sensor: Nr:Datum:Temp:Abs-Feuchte:Windchill:Wind:
Aussen-T/F 1001 06-06-2009 16:00:00 10 C 8.68 g/m*3 10 C 0 km/h
1002 06-06-2009 17:00:00 10.12 C 8.64 g/m*3 10.12 C 0 km/h
1003 06-06-2009 18:00:00 10.72 C 8.69 g/m*3 10.72 C 0 km/h
1004 06-06-2009 19:00:00 10.94 C 8.54 g/m*3 10.94 C 0 km/h
1005 06-06-2009 20:00:00 10.4 C 8.35 g/m*3 10.4 C 0 km/h
1006 06-06-2009 21:00:00 10.12 C 8.35 g/m*3 10.12 C 0 km/h
1007 06-06-2009 22:00:00 9.48 C 8.24 g/m*3 9.48 C 0 km/h
1008 06-06-2009 23:00:00 9.1 C 8.15 g/m*3 9.1 C 0 km/h
1009 07-06-2009 00:00:00 8.16 C 7.7 g/m*3 8.16 C 0 km/h
1010 07-06-2009 01:00:00 7.98 C 7.71 g/m*3 7.98 C 0 km/h
1011 07-06-2009 02:00:00 8.36 C 7.95 g/m*3 8.36 C 0 km/h
1012 07-06-2009 03:00:00 8.46 C 8.09 g/m*3 8.46 C 0 km/h
1013 07-06-2009 04:00:00 8.5 C 8.11 g/m*3 8.5 C 0 km/h
1014 07-06-2009 05:00:00 8.66 C 8.19 g/m*3 8.66 C 0 km/h
1015 07-06-2009 06:00:00 9.26 C 8.44 g/m*3 9.26 C 0 km/h
1016 07-06-2009 07:00:00 10.16 C 8.6 g/m*3 10.16 C 0 km/h
1017 07-06-2009 08:00:00 11.68 C 7.75 g/m*3 11.68 C 0 km/h
1018 07-06-2009 09:00:00 13.82 C 7.47 g/m*3 13.82 C 0 km/h
1019 07-06-2009 10:00:00 15.42 C 7.68 g/m*3 15.42 C 0 km/h
1020 07-06-2009 11:00:00 16.94 C 7.87 g/m*3 16.94 C 0 km/h
1021 07-06-2009 12:00:00 17.2 C 8.02 g/m*3 17.2 C 0 km/h
1022 07-06-2009 13:00:00 17.78 C 8.49 g/m*3 17.78 C 0 km/h
1023 07-06-2009 14:00:00 19 C 8.47 g/m*3 19 C 0 km/h
1024 07-06-2009 15:00:00 16.6 C 9.78 g/m*3 16.6 C 0 km/h
1025 07-06-2009 16:00:00 15.98 C 11.4 g/m*3 15.98 C 0 km/h
Sensor: Nr:Datum:Temp:Abs-Feuchte:Windchill:Wind:
Aussen-T/F 1026 07-06-2009 17:00:00 18.54 C 10.28 g/m*3 18.54 C 0 km/h
1027 07-06-2009 18:00:00 18.06 C 8.29 g/m*3 18.06 C 0 km/h
1028 07-06-2009 19:00:00 20.24 C 7.33 g/m*3 20.24 C 0 km/h
1029 07-06-2009 20:00:00 18.64 C 7.12 g/m*3 18.64 C 0 km/h
1030 07-06-2009 21:00:00 15.18 C 7.62 g/m*3 15.18 C 0 km/h
1031 07-06-2009 22:00:00 12.8 C 7.03 g/m*3 12.8 C 0 km/h
1032 07-06-2009 23:00:00 11.64 C 6.92 g/m*3 11.64 C 0 km/h
1033 08-06-2009 00:00:00 10.92 C 7.15 g/m*3 10.92 C 0 km/h
1034 08-06-2009 01:00:00 10.4 C 7 g/m*3 10.4 C 0 km/h
1035 08-06-2009 02:00:00 11.62 C 6.72 g/m*3 11.62 C 0 km/h
1036 08-06-2009 03:00:00 11.04 C 7.65 g/m*3 11.04 C 0 km/h
1037 08-06-2009 04:00:00 11.1 C 7.78 g/m*3 11.1 C 0 km/h
1038 08-06-2009 05:00:00 11.28 C 7.86 g/m*3 11.28 C 0 km/h
1039 08-06-2009 06:00:00 11.5 C 7.91 g/m*3 11.5 C 0 km/h
1040 08-06-2009 07:00:00 12.12 C 8.01 g/m*3 12.12 C 0 km/h
1041 08-06-2009 08:00:00 12.96 C 7.49 g/m*3 12.96 C 0 km/h
1042 08-06-2009 09:00:00 14.46 C 6.92 g/m*3 14.46 C 0 km/h
1043 08-06-2009 10:00:00 16.2 C 6.37 g/m*3 16.2 C 0 km/h
1044 08-06-2009 11:00:00 17.54 C 6.1 g/m*3 17.54 C 0 km/h
1045 08-06-2009 12:00:00 19.2 C 6 g/m*3 19.2 C 0 km/h
1046 08-06-2009 13:00:00 21.14 C 5.13 g/m*3 21.14 C 0 km/h
1047 08-06-2009 14:00:00 21.78 C 4.79 g/m*3 21.78 C 0 km/h
1048 08-06-2009 15:00:00 23.14 C 4.56 g/m*3 23.14 C 0 km/h
1049 08-06-2009 16:00:00 23.8 C 4.6 g/m*3 23.8 C 0 km/h
1050 08-06-2009 17:00:00 24.34 C 4.88 g/m*3 24.34 C 0 km/h
Sensor: Nr:Datum:Temp:Abs-Feuchte:Windchill:Wind:
Aussen-T/F 1051 08-06-2009 18:00:00 23.2 C 6.61 g/m*3 23.2 C 0 km/h
1052 08-06-2009 19:00:00 20.88 C 7.49 g/m*3 20.88 C 0 km/h
1053 08-06-2009 20:00:00 19.3 C 7.96 g/m*3 19.3 C 0 km/h
1054 08-06-2009 21:00:00 17.4 C 8.27 g/m*3 17.4 C 0 km/h
1055 08-06-2009 22:00:00 16.44 C 8.62 g/m*3 16.44 C 0 km/h
1056 08-06-2009 23:00:00 16.32 C 8.64 g/m*3 16.32 C 0 km/h
1057 09-06-2009 00:00:00 15.28 C 9.81 g/m*3 15.28 C 0 km/h
1058 09-06-2009 01:00:00 14.56 C 10.21 g/m*3 14.56 C 0 km/h
1059 09-06-2009 02:00:00 14.5 C 10.05 g/m*3 14.5 C 0 km/h
1060 09-06-2009 03:00:00 14.44 C 9.99 g/m*3 14.44 C 0 km/h
1061 09-06-2009 04:00:00 14.5 C 9.93 g/m*3 14.5 C 0 km/h
1062 09-06-2009 05:00:00 14.18 C 10.05 g/m*3 14.18 C 0 km/h
1063 09-06-2009 06:00:00 14.1 C 10.53 g/m*3 14.1 C 0 km/h
1064 09-06-2009 07:00:00 14.74 C 10.5 g/m*3 14.74 C 0 km/h
1065 09-06-2009 08:00:00 15.26 C 9.38 g/m*3 15.26 C 0 km/h
1066 09-06-2009 09:00:00 16.02 C 9.44 g/m*3 16.02 C 0 km/h
1067 09-06-2009 10:00:00 17.62 C 8.56 g/m*3 17.62 C 0 km/h
1068 09-06-2009 11:00:00 19.74 C 7.52 g/m*3 19.74 C 0 km/h
1069 09-06-2009 12:00:00 21.98 C 6.9 g/m*3 21.98 C 0 km/h
1070 09-06-2009 13:00:00 22.46 C 6.66 g/m*3 22.46 C 0 km/h
1071 09-06-2009 14:00:00 23.62 C 6.9 g/m*3 23.62 C 0 km/h
1072 09-06-2009 15:00:00 21.2 C 10.19 g/m*3 21.2 C 0 km/h
1073 09-06-2009 16:00:00 24.08 C 7.74 g/m*3 24.08 C 0 km/h
1074 09-06-2009 17:00:00 25.34 C 7.13 g/m*3 25.34 C 0 km/h
1075 09-06-2009 18:00:00 20.98 C 7.54 g/m*3 20.98 C 0 km/h
Sensor: Nr:Datum:Temp:Abs-Feuchte:Windchill:Wind:
Aussen-T/F 1076 09-06-2009 19:00:00 18.8 C 8.66 g/m*3 18.8 C 0 km/h
1077 09-06-2009 20:00:00 18.92 C 9.21 g/m*3 18.92 C 0 km/h
1078 09-06-2009 21:00:00 17.3 C 9.1 g/m*3 17.3 C 0 km/h
1079 09-06-2009 22:00:00 15.74 C 9.31 g/m*3 15.74 C 0 km/h
1080 09-06-2009 23:00:00 14.9 C 9.28 g/m*3 14.9 C 0 km/h
1081 10-06-2009 00:00:00 14 C 9.24 g/m*3 14 C 0 km/h
1082 10-06-2009 01:00:00 14.86 C 9.18 g/m*3 14.86 C 0 km/h
1083 10-06-2009 02:00:00 15.36 C 8.81 g/m*3 15.36 C 0 km/h
1084 10-06-2009 03:00:00 14.84 C 9.04 g/m*3 14.84 C 0 km/h
1085 10-06-2009 04:00:00 14.46 C 9.03 g/m*3 14.46 C 0 km/h
1086 10-06-2009 05:00:00 14.42 C 9.23 g/m*3 14.42 C 0 km/h
1087 10-06-2009 06:00:00 14.74 C 9.24 g/m*3 14.74 C 0 km/h
1088 10-06-2009 07:00:00 15.62 C 9.19 g/m*3 15.62 C 0 km/h
1089 10-06-2009 08:00:00 16.58 C 9.09 g/m*3 16.58 C 0 km/h
1090 10-06-2009 09:00:00 16.26 C 9.27 g/m*3 16.26 C 0 km/h
1091 10-06-2009 10:00:00 15.1 C 10.24 g/m*3 15.1 C 0 km/h
1092 10-06-2009 11:00:00 17.42 C 10.06 g/m*3 17.42 C 0 km/h
1093 10-06-2009 12:00:00 19.74 C 8.48 g/m*3 19.74 C 0 km/h
1094 10-06-2009 13:00:00 22 C 7.34 g/m*3 22 C 0 km/h
1095 10-06-2009 14:00:00 22.2 C 6.44 g/m*3 22.2 C 0 km/h
1096 10-06-2009 15:00:00 23.24 C 5.71 g/m*3 23.24 C 0 km/h
1097 10-06-2009 16:00:00 23.32 C 5.15 g/m*3 23.32 C 0 km/h
1098 10-06-2009 17:00:00 22.68 C 4.96 g/m*3 22.68 C 0 km/h
1099 10-06-2009 18:00:00 19.16 C 8.13 g/m*3 19.16 C 0 km/h
1100 10-06-2009 19:00:00 17.64 C 8.93 g/m*3 17.64 C 0 km/h
Sensor: Nr:Datum:Temp:Abs-Feuchte:Windchill:Wind:
Aussen-T/F 1101 10-06-2009 20:00:00 15.58 C 9.62 g/m*3 15.58 C 0 km/h
1102 10-06-2009 21:00:00 15.6 C 9.39 g/m*3 15.6 C 0 km/h
1103 10-06-2009 22:00:00 14.275 C 10.12 g/m*3 14.28 C 0 km/h
1104 10-06-2009 23:00:00 14.18 C 10.54 g/m*3 14.18 C 0 km/h
1105 11-06-2009 00:00:00 14.2 C 10.26 g/m*3 14.2 C 0 km/h
1106 11-06-2009 01:00:00 13.88 C 10.61 g/m*3 13.88 C 0 km/h
1107 11-06-2009 02:00:00 13.96 C 11.05 g/m*3 13.96 C 0 km/h
1108 11-06-2009 03:00:00 14.1 C 11.26 g/m*3 14.1 C 0 km/h
1109 11-06-2009 04:00:00 14.06 C 11.36 g/m*3 14.06 C 0 km/h
1110 11-06-2009 05:00:00 14.38 C 11.36 g/m*3 14.38 C 0 km/h
1111 11-06-2009 06:00:00 14.34 C 10.96 g/m*3 14.34 C 0 km/h
1112 11-06-2009 07:00:00 14.58 C 10.77 g/m*3 14.58 C 0 km/h
1113 11-06-2009 08:00:00 14.76 C 9.55 g/m*3 14.76 C 0 km/h
1114 11-06-2009 09:00:00 15.08 C 8.17 g/m*3 15.08 C 0 km/h
1115 11-06-2009 10:00:00 15.24 C 7.88 g/m*3 15.24 C 0 km/h
1116 11-06-2009 11:00:00 15.34 C 7.54 g/m*3 15.34 C 0 km/h
1117 11-06-2009 12:00:00 15.28 C 6.63 g/m*3 15.28 C 0 km/h
1118 11-06-2009 13:00:00 15.3 C 6.82 g/m*3 15.3 C 0 km/h
1119 11-06-2009 14:00:00 16.34 C 7.54 g/m*3 16.34 C 0 km/h
1120 11-06-2009 15:00:00 16.76 C 7.45 g/m*3 16.76 C 0 km/h
1121 11-06-2009 16:00:00 16.6 C 7.91 g/m*3 16.6 C 0 km/h
1122 11-06-2009 17:00:00 16.96 C 8.11 g/m*3 16.96 C 0 km/h
1123 11-06-2009 18:00:00 14.22 C 9.37 g/m*3 14.22 C 0 km/h
1124 11-06-2009 19:00:00 15.28 C 10.49 g/m*3 15.28 C 0 km/h
1125 11-06-2009 20:00:00 12.78 C 9.17 g/m*3 12.78 C 0 km/h
Sensor: Nr:Datum:Temp:Abs-Feuchte:Windchill:Wind:
Aussen-T/F 1126 11-06-2009 21:00:00 12.48 C 8.85 g/m*3 12.48 C 0 km/h
1127 11-06-2009 22:00:00 12.4 C 8.76 g/m*3 12.4 C 0 km/h
1128 11-06-2009 23:00:00 12.18 C 8.51 g/m*3 12.18 C 0 km/h
1129 12-06-2009 00:00:00 11.48 C 8.13 g/m*3 11.48 C 0 km/h
1130 12-06-2009 01:00:00 10.92 C 8.39 g/m*3 10.92 C 0 km/h
1131 12-06-2009 02:00:00 10.34 C 8.39 g/m*3 10.34 C 0 km/h
1132 12-06-2009 03:00:00 10.18 C 7.96 g/m*3 10.18 C 0 km/h
1133 12-06-2009 04:00:00 9.74 C 8 g/m*3 9.74 C 0 km/h
1134 12-06-2009 05:00:00 9.3 C 7.89 g/m*3 9.3 C 0 km/h
1135 12-06-2009 06:00:00 9.18 C 7.76 g/m*3 9.18 C 0 km/h
1136 12-06-2009 07:00:00 10.08 C 7.63 g/m*3 10.08 C 0 km/h
1137 12-06-2009 08:00:00 11.04 C 7.61 g/m*3 11.04 C 0 km/h
1138 12-06-2009 09:00:00 12.98 C 8 g/m*3 12.98 C 0 km/h
1139 12-06-2009 10:00:00 16.86 C 7.58 g/m*3 16.86 C 0 km/h
1140 12-06-2009 11:00:00 17.76 C 5.87 g/m*3 17.76 C 0 km/h
1141 12-06-2009 12:00:00 19.18 C 5.5 g/m*3 19.18 C 0 km/h
1142 12-06-2009 13:00:00 20.94 C 5.29 g/m*3 20.94 C 0 km/h
1143 12-06-2009 14:00:00 21.16 C 4.92 g/m*3 21.16 C 0 km/h
1144 12-06-2009 15:00:00 21.44 C 5.37 g/m*3 21.44 C 0 km/h
1145 12-06-2009 16:00:00 22.4 C 5.32 g/m*3 22.4 C 0 km/h
1146 12-06-2009 17:00:00 22.44 C 4.98 g/m*3 22.44 C 0 km/h
1147 12-06-2009 18:00:00 22.28 C 5.01 g/m*3 22.28 C 0 km/h
1148 12-06-2009 19:00:00 22.74 C 5.06 g/m*3 22.74 C 0 km/h
1149 12-06-2009 20:00:00 20.72 C 5.15 g/m*3 20.72 C 0 km/h
1150 12-06-2009 21:00:00 18.4 C 5.44 g/m*3 18.4 C 0 km/h
Sensor: Nr:Datum:Temp:Abs-Feuchte:Windchill:Wind:
Aussen-T/F 1151 12-06-2009 22:00:00 16.16 C 5.59 g/m*3 16.16 C 0 km/h
1152 12-06-2009 23:00:00 14.24 C 6.34 g/m*3 14.24 C 0 km/h
1153 13-06-2009 00:00:00 12.7 C 6.86 g/m*3 12.7 C 0 km/h
1154 13-06-2009 01:00:00 11.56 C 6.84 g/m*3 11.56 C 0 km/h
1155 13-06-2009 02:00:00 10.54 C 6.83 g/m*3 10.54 C 0 km/h
1156 13-06-2009 03:00:00 9.56 C 6.93 g/m*3 9.56 C 0 km/h
1157 13-06-2009 04:00:00 8.74 C 6.9 g/m*3 8.74 C 0 km/h
1158 13-06-2009 05:00:00 8.22 C 6.71 g/m*3 8.22 C 0 km/h
1159 13-06-2009 06:00:00 8.3 C 6.95 g/m*3 8.3 C 0 km/h
1160 13-06-2009 07:00:00 8.9 C 7.17 g/m*3 8.9 C 0 km/h
1161 13-06-2009 08:00:00 10.44 C 7.15 g/m*3 10.44 C 0 km/h
1162 13-06-2009 09:00:00 13.92 C 7.06 g/m*3 13.92 C 0 km/h
1163 13-06-2009 10:00:00 16.72 C 6.97 g/m*3 16.72 C 0 km/h
1164 13-06-2009 11:00:00 19.94 C 6.58 g/m*3 19.94 C 0 km/h
1165 13-06-2009 12:00:00 23.02 C 6.01 g/m*3 23.02 C 0 km/h
1166 13-06-2009 13:00:00 25.9 C 5.76 g/m*3 25.9 C 0 km/h
1167 13-06-2009 14:00:00 25.84 C 5.98 g/m*3 25.84 C 0 km/h
1168 13-06-2009 15:00:00 27.08 C 6.26 g/m*3 27.08 C 0 km/h
1169 13-06-2009 16:00:00 28.38 C 6.22 g/m*3 28.38 C 0 km/h
1170 13-06-2009 17:00:00 30.02 C 6.19 g/m*3 30.02 C 0 km/h
1171 13-06-2009 18:00:00 27.62 C 6.07 g/m*3 27.62 C 0 km/h
1172 13-06-2009 19:00:00 27.4 C 6.31 g/m*3 27.4 C 0 km/h
1173 13-06-2009 20:00:00 25.82 C 6.6 g/m*3 25.82 C 0 km/h
1174 13-06-2009 21:00:00 21.7 C 7.67 g/m*3 21.7 C 0 km/h
1175 13-06-2009 22:00:00 19.04 C 7.58 g/m*3 19.04 C 0 km/h
Sensor: Nr:Datum:Temp:Abs-Feuchte:Windchill:Wind:
Aussen-T/F 1176 13-06-2009 23:00:00 17.7 C 7.57 g/m*3 17.7 C 0 km/h
1177 14-06-2009 00:00:00 16.24 C 7.88 g/m*3 16.24 C 0 km/h
1178 14-06-2009 01:00:00 15.2 C 7.97 g/m*3 15.2 C 0 km/h
1179 14-06-2009 02:00:00 14.34 C 8.3 g/m*3 14.34 C 0 km/h
1180 14-06-2009 03:00:00 13.58 C 8.39 g/m*3 13.58 C 0 km/h
1181 14-06-2009 04:00:00 12.8 C 8.27 g/m*3 12.8 C 0 km/h
1182 14-06-2009 05:00:00 12.18 C 8.28 g/m*3 12.18 C 0 km/h
1183 14-06-2009 06:00:00 12.68 C 8.54 g/m*3 12.68 C 0 km/h
1184 14-06-2009 07:00:00 13.18 C 8.65 g/m*3 13.18 C 0 km/h
1185 14-06-2009 08:00:00 14 C 8.68 g/m*3 14 C 0 km/h
1186 14-06-2009 09:00:00 16.76 C 9.1 g/m*3 16.76 C 0 km/h
1187 14-06-2009 10:00:00 20.72 C 8.98 g/m*3 20.72 C 0 km/h
1188 14-06-2009 11:00:00 24.52 C 8.47 g/m*3 24.52 C 0 km/h
1189 14-06-2009 12:00:00 26.84 C 7.4 g/m*3 26.84 C 0 km/h
1190 14-06-2009 13:00:00 28 C 7.29 g/m*3 28 C 0 km/h
1191 14-06-2009 14:00:00 28.62 C 7.65 g/m*3 28.62 C 0 km/h
1192 14-06-2009 15:00:00 29.76 C 7.42 g/m*3 29.76 C 0 km/h
1193 14-06-2009 16:00:00 30.78 C 7.02 g/m*3 30.78 C 0 km/h
1194 14-06-2009 17:00:00 30.06 C 7.3 g/m*3 30.06 C 0 km/h
1195 14-06-2009 18:00:00 26.28 C 10.24 g/m*3 26.28 C 0 km/h
1196 14-06-2009 19:00:00 22.74 C 14.78 g/m*3 22.74 C 0 km/h
1197 14-06-2009 20:00:00 21.18 C 14.66 g/m*3 21.18 C 0 km/h
1198 14-06-2009 21:00:00 20.26 C 14.84 g/m*3 20.26 C 0 km/h
1199 14-06-2009 22:00:00 19.8 C 14.18 g/m*3 19.8 C 0 km/h
1200 14-06-2009 23:00:00 18.78 C 13.74 g/m*3 18.78 C 0 km/h
Sensor: Nr:Datum:Temp:Abs-Feuchte:Windchill:Wind:
Aussen-T/F 1201 15-06-2009 00:00:00 18.3 C 13.48 g/m*3 18.3 C 0 km/h
1202 15-06-2009 01:00:00 17.54 C 12.88 g/m*3 17.54 C 0 km/h
1203 15-06-2009 02:00:00 17.02 C 12.6 g/m*3 17.02 C 0 km/h
1204 15-06-2009 03:00:00 17.08 C 12.56 g/m*3 17.08 C 0 km/h
1205 15-06-2009 04:00:00 16.58 C 12.25 g/m*3 16.58 C 0 km/h
1206 15-06-2009 05:00:00 16.48 C 12.45 g/m*3 16.48 C 0 km/h
1207 15-06-2009 06:00:00 16.8 C 12.5 g/m*3 16.8 C 0 km/h
1208 15-06-2009 07:00:00 17.16 C 12.42 g/m*3 17.16 C 0 km/h
1209 15-06-2009 08:00:00 17.92 C 12.87 g/m*3 17.92 C 0 km/h
1210 15-06-2009 09:00:00 18.46 C 12.88 g/m*3 18.46 C 0 km/h
1211 15-06-2009 10:00:00 17.84 C 12.84 g/m*3 17.84 C 0 km/h
1212 15-06-2009 11:00:00 17.26 C 13.02 g/m*3 17.26 C 0 km/h
1213 15-06-2009 12:00:00 17.68 C 13.74 g/m*3 17.68 C 0 km/h
1214 15-06-2009 13:00:00 18.18 C 14.16 g/m*3 18.18 C 0 km/h
1215 15-06-2009 14:00:00 17.88 C 14.06 g/m*3 17.88 C 0 km/h
1216 15-06-2009 15:00:00 17.5 C 13.9 g/m*3 17.5 C 0 km/h
1217 15-06-2009 16:00:00 16.22 C 12.98 g/m*3 16.22 C 0 km/h
1218 15-06-2009 17:00:00 16.34 C 12.96 g/m*3 16.34 C 0 km/h
1219 15-06-2009 18:00:00 16.24 C 12.66 g/m*3 16.24 C 0 km/h
1220 15-06-2009 19:00:00 15.52 C 11.81 g/m*3 15.52 C 0 km/h
1221 15-06-2009 20:00:00 15.1 C 11.97 g/m*3 15.1 C 0 km/h
1222 15-06-2009 21:00:00 14.8 C 11.86 g/m*3 14.8 C 0 km/h
1223 15-06-2009 22:00:00 14.52 C 11.56 g/m*3 14.52 C 0 km/h
1224 15-06-2009 23:00:00 13.84 C 10.85 g/m*3 13.84 C 0 km/h
1225 16-06-2009 00:00:00 13.18 C 10.48 g/m*3 13.18 C 0 km/h
Sensor: Nr:Datum:Temp:Abs-Feuchte:Windchill:Wind:
Aussen-T/F 1226 16-06-2009 01:00:00 12.48 C 10.21 g/m*3 12.48 C 0 km/h
1227 16-06-2009 02:00:00 12.04 C 10 g/m*3 12.04 C 0 km/h
1228 16-06-2009 03:00:00 12.02 C 10.07 g/m*3 12.02 C 0 km/h
1229 16-06-2009 04:00:00 12.02 C 10.14 g/m*3 12.02 C 0 km/h
1230 16-06-2009 05:00:00 12.3 C 10.32 g/m*3 12.3 C 0 km/h
1231 16-06-2009 06:00:00 12.36 C 10.35 g/m*3 12.36 C 0 km/h
1232 16-06-2009 07:00:00 12.48 C 10.43 g/m*3 12.48 C 0 km/h
1233 16-06-2009 08:00:00 12.96 C 10.75 g/m*3 12.96 C 0 km/h
1234 16-06-2009 09:00:00 14.02 C 11.23 g/m*3 14.02 C 0 km/h
1235 16-06-2009 10:00:00 15.82 C 10.32 g/m*3 15.82 C 0 km/h
1236 16-06-2009 11:00:00 18.2 C 9.17 g/m*3 18.2 C 0 km/h
1237 16-06-2009 12:00:00 20.44 C 7.13 g/m*3 20.44 C 0 km/h
1238 16-06-2009 13:00:00 22.28 C 6.35 g/m*3 22.28 C 0 km/h
1239 16-06-2009 14:00:00 22.08 C 5.93 g/m*3 22.08 C 0 km/h
1240 16-06-2009 15:00:00 20.26 C 7.19 g/m*3 20.26 C 0 km/h
1241 16-06-2009 16:00:00 20.92 C 9.74 g/m*3 20.92 C 0 km/h
1242 16-06-2009 17:00:00 20.1 C 8.07 g/m*3 20.1 C 0 km/h
1243 16-06-2009 18:00:00 23.36 C 7.97 g/m*3 23.36 C 0 km/h
1244 16-06-2009 19:00:00 20.76 C 7.84 g/m*3 20.76 C 0 km/h
1245 16-06-2009 20:00:00 19.96 C 7.79 g/m*3 19.96 C 0 km/h
1246 16-06-2009 21:00:00 18.08 C 8.67 g/m*3 18.08 C 0 km/h
1247 16-06-2009 22:00:00 15.38 C 9.08 g/m*3 15.38 C 0 km/h
1248 16-06-2009 23:00:00 14.44 C 9.42 g/m*3 14.44 C 0 km/h
1249 17-06-2009 00:00:00 13.54 C 9.43 g/m*3 13.54 C 0 km/h
1250 17-06-2009 01:00:00 12.78 C 9.24 g/m*3 12.78 C 0 km/h
Sensor: Nr:Datum:Temp:Abs-Feuchte:Windchill:Wind:
Aussen-T/F 1251 17-06-2009 02:00:00 11.8 C 9.11 g/m*3 11.8 C 0 km/h
1252 17-06-2009 03:00:00 11.78 C 9.15 g/m*3 11.78 C 0 km/h
1253 17-06-2009 04:00:00 12.04 C 9.06 g/m*3 12.04 C 0 km/h
1254 17-06-2009 05:00:00 11.76 C 8.94 g/m*3 11.76 C 0 km/h
1255 17-06-2009 06:00:00 11.3 C 8.91 g/m*3 11.3 C 0 km/h
1256 17-06-2009 07:00:00 11.98 C 9.09 g/m*3 11.98 C 0 km/h
1257 17-06-2009 08:00:00 13.54 C 9.24 g/m*3 13.54 C 0 km/h
1258 17-06-2009 09:00:00 15.28 C 9.44 g/m*3 15.28 C 0 km/h
1259 17-06-2009 10:00:00 18.08 C 9.75 g/m*3 18.08 C 0 km/h
1260 17-06-2009 11:00:00 21.44 C 8.68 g/m*3 21.44 C 0 km/h
1261 17-06-2009 12:00:00 24.68 C 7.1 g/m*3 24.68 C 0 km/h
1262 17-06-2009 13:00:00 28.18 C 6.1 g/m*3 28.18 C 0 km/h
1263 17-06-2009 14:00:00 27.8 C 6.29 g/m*3 27.8 C 0 km/h
1264 17-06-2009 15:00:00 28.66 C 5.81 g/m*3 28.66 C 0 km/h
1265 17-06-2009 16:00:00 30.04 C 6.08 g/m*3 30.04 C 0 km/h
1266 17-06-2009 17:00:00 30.84 C 6.35 g/m*3 30.84 C 0 km/h
1267 17-06-2009 18:00:00 30.04 C 6.26 g/m*3 30.04 C 0 km/h
1268 17-06-2009 19:00:00 26.86 C 8.12 g/m*3 26.86 C 0 km/h
1269 17-06-2009 20:00:00 24.12 C 8.63 g/m*3 24.12 C 0 km/h
1270 17-06-2009 21:00:00 21.48 C 8.66 g/m*3 21.48 C 0 km/h
1271 17-06-2009 22:00:00 20.24 C 7.96 g/m*3 20.24 C 0 km/h
1272 17-06-2009 23:00:00 19.1 C 8.13 g/m*3 19.1 C 0 km/h
1273 18-06-2009 00:00:00 17.64 C 8.36 g/m*3 17.64 C 0 km/h
1274 18-06-2009 01:00:00 16.56 C 8.65 g/m*3 16.56 C 0 km/h
1275 18-06-2009 02:00:00 15.72 C 9.16 g/m*3 15.72 C 0 km/h
Sensor: Nr:Datum:Temp:Abs-Feuchte:Windchill:Wind:
Aussen-T/F 1276 18-06-2009 03:00:00 14.82 C 9.49 g/m*3 14.82 C 0 km/h
1277 18-06-2009 04:00:00 14.14 C 9.59 g/m*3 14.14 C 0 km/h
1278 18-06-2009 05:00:00 13.56 C 9.65 g/m*3 13.56 C 0 km/h
1279 18-06-2009 06:00:00 14.02 C 9.64 g/m*3 14.02 C 0 km/h
1280 18-06-2009 07:00:00 15.8 C 9.83 g/m*3 15.8 C 0 km/h
1281 18-06-2009 08:00:00 17.04 C 10.21 g/m*3 17.04 C 0 km/h
1282 18-06-2009 09:00:00 18.5 C 10.44 g/m*3 18.5 C 0 km/h
1283 18-06-2009 10:00:00 19.96 C 10.48 g/m*3 19.96 C 0 km/h
1284 18-06-2009 11:00:00 22.72 C 9.79 g/m*3 22.72 C 0 km/h
1285 18-06-2009 12:00:00 23.08 C 9.83 g/m*3 23.08 C 0 km/h
1286 18-06-2009 13:00:00 22.34 C 10.29 g/m*3 22.34 C 0 km/h
1287 18-06-2009 14:00:00 23.06 C 10.68 g/m*3 23.06 C 0 km/h
1288 18-06-2009 15:00:00 21.74 C 11.24 g/m*3 21.74 C 0 km/h
1289 18-06-2009 16:00:00 22.04 C 11.59 g/m*3 22.04 C 0 km/h
1290 18-06-2009 17:00:00 22.48 C 11.89 g/m*3 22.48 C 0 km/h
1291 18-06-2009 18:00:00 24.3 C 10.4 g/m*3 24.3 C 0 km/h
1292 18-06-2009 19:00:00 24.26 C 10.11 g/m*3 24.26 C 0 km/h
1293 18-06-2009 20:00:00 23.94 C 10.02 g/m*3 23.94 C 0 km/h
1294 18-06-2009 21:00:00 21.14 C 10.53 g/m*3 21.14 C 0 km/h
1295 18-06-2009 22:00:00 19.6 C 10.7 g/m*3 19.6 C 0 km/h
1296 18-06-2009 23:00:00 18.44 C 10.88 g/m*3 18.44 C 0 km/h
1297 19-06-2009 00:00:00 17.54 C 11 g/m*3 17.54 C 0 km/h
1298 19-06-2009 01:00:00 16.5 C 10.98 g/m*3 16.5 C 0 km/h
1299 19-06-2009 02:00:00 15.64 C 10.85 g/m*3 15.64 C 0 km/h
1300 19-06-2009 03:00:00 14.96 C 10.59 g/m*3 14.96 C 0 km/h
Sensor: Nr:Datum:Temp:Abs-Feuchte:Windchill:Wind:
Aussen-T/F 1301 19-06-2009 04:00:00 14.78 C 10.2 g/m*3 14.78 C 0 km/h
1302 19-06-2009 05:00:00 14.68 C 9.91 g/m*3 14.68 C 0 km/h
1303 19-06-2009 06:00:00 14.66 C 9.77 g/m*3 14.66 C 0 km/h
1304 19-06-2009 07:00:00 15.6 C 9.52 g/m*3 15.6 C 0 km/h
1305 19-06-2009 08:00:00 16.74 C 9.12 g/m*3 16.74 C 0 km/h
1306 19-06-2009 09:00:00 17.22 C 8.47 g/m*3 17.22 C 0 km/h
1307 19-06-2009 10:00:00 18.22 C 7.63 g/m*3 18.22 C 0 km/h
1308 19-06-2009 11:00:00 19.24 C 7.47 g/m*3 19.24 C 0 km/h
1309 19-06-2009 12:00:00 20.28 C 6.46 g/m*3 20.28 C 0 km/h
1310 19-06-2009 13:00:00 22.7 C 5.7 g/m*3 22.7 C 0 km/h
1311 19-06-2009 14:00:00 22.52 C 5.6 g/m*3 22.52 C 0 km/h
1312 19-06-2009 15:00:00 22.4 C 5.2 g/m*3 22.4 C 0 km/h
1313 19-06-2009 16:00:00 22.6 C 4.34 g/m*3 22.6 C 0 km/h
1314 19-06-2009 17:00:00 22.68 C 4.72 g/m*3 22.68 C 0 km/h
1315 19-06-2009 18:00:00 22.56 C 5.09 g/m*3 22.56 C 0 km/h
1316 19-06-2009 19:00:00 22 C 5.4 g/m*3 22 C 0 km/h
1317 19-06-2009 20:00:00 20.3 C 5.66 g/m*3 20.3 C 0 km/h
1318 19-06-2009 21:00:00 18.08 C 5.49 g/m*3 18.08 C 0 km/h
1319 19-06-2009 22:00:00 16.28 C 5.32 g/m*3 16.28 C 0 km/h
1320 19-06-2009 23:00:00 14.76 C 5.79 g/m*3 14.76 C 0 km/h
1321 20-06-2009 00:00:00 13.06 C 6.65 g/m*3 13.06 C 0 km/h
1322 20-06-2009 01:00:00 11.88 C 7.02 g/m*3 11.88 C 0 km/h
1323 20-06-2009 02:00:00 10.9 C 7.14 g/m*3 10.9 C 0 km/h
1324 20-06-2009 03:00:00 10.1 C 7.09 g/m*3 10.1 C 0 km/h
1325 20-06-2009 04:00:00 9.44 C 7.09 g/m*3 9.44 C 0 km/h
Sensor: Nr:Datum:Temp:Abs-Feuchte:Windchill:Wind:
Aussen-T/F 1326 20-06-2009 05:00:00 8.98 C 7.03 g/m*3 8.98 C 0 km/h
1327 20-06-2009 06:00:00 9.08 C 7.16 g/m*3 9.08 C 0 km/h
1328 20-06-2009 07:00:00 10.68 C 7.38 g/m*3 10.68 C 0 km/h
1329 20-06-2009 08:00:00 12.96 C 7.53 g/m*3 12.96 C 0 km/h
1330 20-06-2009 09:00:00 13.26 C 7.49 g/m*3 13.26 C 0 km/h
1331 20-06-2009 10:00:00 13.52 C 7.59 g/m*3 13.52 C 0 km/h
1332 20-06-2009 11:00:00 15.7 C 7.71 g/m*3 15.7 C 0 km/h
1333 20-06-2009 12:00:00 19.1 C 6.49 g/m*3 19.1 C 0 km/h
1334 20-06-2009 13:00:00 17.18 C 6.99 g/m*3 17.18 C 0 km/h
1335 20-06-2009 14:00:00 15.04 C 10.1 g/m*3 15.04 C 0 km/h
1336 20-06-2009 15:00:00 15.96 C 9.95 g/m*3 15.96 C 0 km/h
1337 20-06-2009 16:00:00 16.24 C 10.28 g/m*3 16.24 C 0 km/h
1338 20-06-2009 17:00:00 16.7 C 9.32 g/m*3 16.7 C 0 km/h
1339 20-06-2009 18:00:00 17.74 C 8.38 g/m*3 17.74 C 0 km/h
1340 20-06-2009 19:00:00 17.22 C 8.65 g/m*3 17.22 C 0 km/h
1341 20-06-2009 20:00:00 15.5 C 8.78 g/m*3 15.5 C 0 km/h
1342 20-06-2009 21:00:00 14.42 C 7.45 g/m*3 14.42 C 0 km/h
1343 20-06-2009 22:00:00 13.96 C 7.29 g/m*3 13.96 C 0 km/h
1344 20-06-2009 23:00:00 13.68 C 7.59 g/m*3 13.68 C 0 km/h
1345 21-06-2009 00:00:00 13.4 C 7.11 g/m*3 13.4 C 0 km/h
1346 21-06-2009 01:00:00 12.84 C 6.96 g/m*3 12.84 C 0 km/h
1347 21-06-2009 02:00:00 11.62 C 7.35 g/m*3 11.62 C 0 km/h
1348 21-06-2009 03:00:00 10.82 C 7.8 g/m*3 10.82 C 0 km/h
1349 21-06-2009 04:00:00 10.06 C 7.77 g/m*3 10.06 C 0 km/h
1350 21-06-2009 05:00:00 9.86 C 7.95 g/m*3 9.86 C 0 km/h
Sensor: Nr:Datum:Temp:Abs-Feuchte:Windchill:Wind:
Aussen-T/F 1351 21-06-2009 06:00:00 10.08 C 8.08 g/m*3 10.08 C 0 km/h
1352 21-06-2009 07:00:00 11.22 C 8.38 g/m*3 11.22 C 0 km/h
1353 21-06-2009 08:00:00 12.44 C 8.46 g/m*3 12.44 C 0 km/h
1354 21-06-2009 09:00:00 15.06 C 8.03 g/m*3 15.06 C 0 km/h
1355 21-06-2009 10:00:00 16.54 C 7.77 g/m*3 16.54 C 0 km/h
1356 21-06-2009 11:00:00 15.8 C 7.67 g/m*3 15.8 C 0 km/h
1357 21-06-2009 12:00:00 14.06 C 9.1 g/m*3 14.06 C 0 km/h
1358 21-06-2009 13:00:00 12.7 C 9.55 g/m*3 12.7 C 0 km/h
1359 21-06-2009 14:00:00 14.06 C 10.05 g/m*3 14.06 C 0 km/h
1360 21-06-2009 15:00:00 15.5 C 10.63 g/m*3 15.5 C 0 km/h
1361 21-06-2009 16:00:00 17.74 C 9.01 g/m*3 17.74 C 0 km/h
1362 21-06-2009 17:00:00 19.62 C 8.01 g/m*3 19.62 C 0 km/h
1363 21-06-2009 18:00:00 18.02 C 8.3 g/m*3 18.02 C 0 km/h
1364 21-06-2009 19:00:00 12.96 C 9.46 g/m*3 12.96 C 0 km/h
1365 21-06-2009 20:00:00 13.42 C 9.75 g/m*3 13.42 C 0 km/h
1366 21-06-2009 21:00:00 11.82 C 9.02 g/m*3 11.82 C 0 km/h
1367 21-06-2009 22:00:00 10.94 C 8.84 g/m*3 10.94 C 0 km/h
1368 21-06-2009 23:00:00 11.06 C 9.04 g/m*3 11.06 C 0 km/h
1369 22-06-2009 00:00:00 10.98 C 8.94 g/m*3 10.98 C 0 km/h
1370 22-06-2009 01:00:00 10.04 C 8.42 g/m*3 10.04 C 0 km/h
1371 22-06-2009 02:00:00 10.02 C 8.49 g/m*3 10.02 C 0 km/h
1372 22-06-2009 03:00:00 10.42 C 8.47 g/m*3 10.42 C 0 km/h
1373 22-06-2009 04:00:00 10.42 C 8.22 g/m*3 10.42 C 0 km/h
1374 22-06-2009 05:00:00 10.44 C 8.14 g/m*3 10.44 C 0 km/h
1375 22-06-2009 06:00:00 10.7 C 8.25 g/m*3 10.7 C 0 km/h
Sensor: Nr:Datum:Temp:Abs-Feuchte:Windchill:Wind:
Aussen-T/F 1376 22-06-2009 07:00:00 11.46 C 8.45 g/m*3 11.46 C 0 km/h
1377 22-06-2009 08:00:00 12.6 C 8.16 g/m*3 12.6 C 0 km/h
1378 22-06-2009 09:00:00 14.2 C 7.35 g/m*3 14.2 C 0 km/h
1379 22-06-2009 10:00:00 14.86 C 6.76 g/m*3 14.86 C 0 km/h
1380 22-06-2009 11:00:00 16.54 C 6.33 g/m*3 16.54 C 0 km/h
1381 22-06-2009 12:00:00 18.64 C 6.13 g/m*3 18.64 C 0 km/h
1382 22-06-2009 13:00:00 18.2 C 5.75 g/m*3 18.2 C 0 km/h
1383 22-06-2009 14:00:00 18.42 C 5.95 g/m*3 18.42 C 0 km/h
1384 22-06-2009 15:00:00 17.98 C 6.04 g/m*3 17.98 C 0 km/h
1385 22-06-2009 16:00:00 19.44 C 5.92 g/m*3 19.44 C 0 km/h
1386 22-06-2009 17:00:00 20.98 C 5.89 g/m*3 20.98 C 0 km/h
1387 22-06-2009 18:00:00 22.46 C 5.62 g/m*3 22.46 C 0 km/h
1388 22-06-2009 19:00:00 20.76 C 5.93 g/m*3 20.76 C 0 km/h
1389 22-06-2009 20:00:00 18.86 C 6.24 g/m*3 18.86 C 0 km/h
1390 22-06-2009 21:00:00 17.3 C 6.66 g/m*3 17.3 C 0 km/h
1391 22-06-2009 22:00:00 15.975 C 7.18 g/m*3 15.98 C 0 km/h
1392 22-06-2009 23:00:00 14.14 C 7.54 g/m*3 14.14 C 0 km/h
1393 23-06-2009 00:00:00 13.5 C 7.65 g/m*3 13.5 C 0 km/h
1394 23-06-2009 01:00:00 13.2 C 7.67 g/m*3 13.2 C 0 km/h
1395 23-06-2009 02:00:00 12.32 C 7.94 g/m*3 12.32 C 0 km/h
1396 23-06-2009 03:00:00 11.76 C 7.92 g/m*3 11.76 C 0 km/h
1397 23-06-2009 04:00:00 11.18 C 7.96 g/m*3 11.18 C 0 km/h
1398 23-06-2009 05:00:00 10.82 C 8.04 g/m*3 10.82 C 0 km/h
1399 23-06-2009 06:00:00 11.32 C 8.37 g/m*3 11.32 C 0 km/h
1400 23-06-2009 07:00:00 12.64 C 8.5 g/m*3 12.64 C 0 km/h
Sensor: Nr:Datum:Temp:Abs-Feuchte:Windchill:Wind:
Aussen-T/F 1401 23-06-2009 08:00:00 13.18 C 8.46 g/m*3 13.18 C 0 km/h
1402 23-06-2009 09:00:00 15.02 C 8.29 g/m*3 15.02 C 0 km/h
1403 23-06-2009 10:00:00 17.28 C 7.89 g/m*3 17.28 C 0 km/h
1404 23-06-2009 11:00:00 19.82 C 7.56 g/m*3 19.82 C 0 km/h
1405 23-06-2009 12:00:00 22.3 C 6.83 g/m*3 22.3 C 0 km/h
1406 23-06-2009 13:00:00 24.46 C 6.3 g/m*3 24.46 C 0 km/h
1407 23-06-2009 14:00:00 24.5 C 5.82 g/m*3 24.5 C 0 km/h
1408 23-06-2009 15:00:00 25.475 C 5.67 g/m*3 25.48 C 0 km/h
1409 23-06-2009 16:00:00 26.38 C 5.47 g/m*3 26.38 C 0 km/h
1410 23-06-2009 17:00:00 24.78 C 5.55 g/m*3 24.78 C 0 km/h
1411 23-06-2009 18:00:00 28.08 C 5.57 g/m*3 28.08 C 0 km/h
1412 23-06-2009 19:00:00 24.82 C 5.51 g/m*3 24.82 C 0 km/h
1413 23-06-2009 20:00:00 23.84 C 5.82 g/m*3 23.84 C 0 km/h
1414 23-06-2009 21:00:00 21.62 C 7.03 g/m*3 21.62 C 0 km/h
1415 23-06-2009 22:00:00 19.38 C 7.33 g/m*3 19.38 C 0 km/h
1416 23-06-2009 23:00:00 18.58 C 7.73 g/m*3 18.58 C 0 km/h
1417 24-06-2009 00:00:00 18.14 C 7.9 g/m*3 18.14 C 0 km/h
1418 24-06-2009 01:00:00 17.38 C 7.9 g/m*3 17.38 C 0 km/h
1419 24-06-2009 02:00:00 16.54 C 7.69 g/m*3 16.54 C 0 km/h
1420 24-06-2009 03:00:00 15.26 C 7.63 g/m*3 15.26 C 0 km/h
1421 24-06-2009 04:00:00 14.44 C 7.63 g/m*3 14.44 C 0 km/h
1422 24-06-2009 05:00:00 13.76 C 7.39 g/m*3 13.76 C 0 km/h
1423 24-06-2009 06:00:00 13.56 C 7.37 g/m*3 13.56 C 0 km/h
1424 24-06-2009 07:00:00 13.92 C 7.49 g/m*3 13.92 C 0 km/h
1425 24-06-2009 08:00:00 15.2 C 7.58 g/m*3 15.2 C 0 km/h
Sensor: Nr:Datum:Temp:Abs-Feuchte:Windchill:Wind:
Aussen-T/F 1426 24-06-2009 09:00:00 17.76 C 7.3 g/m*3 17.76 C 0 km/h
1427 24-06-2009 10:00:00 20.88 C 6.66 g/m*3 20.88 C 0 km/h
1428 24-06-2009 11:00:00 23.36 C 6 g/m*3 23.36 C 0 km/h
1429 24-06-2009 12:00:00 26.58 C 5.78 g/m*3 26.58 C 0 km/h
1430 24-06-2009 13:00:00 29.3 C 5.84 g/m*3 29.3 C 0 km/h
1431 24-06-2009 14:00:00 28.7 C 5.93 g/m*3 28.7 C 0 km/h
1432 24-06-2009 15:00:00 30.02 C 6.07 g/m*3 30.02 C 0 km/h
1433 24-06-2009 16:00:00 31.04 C 6.41 g/m*3 31.04 C 0 km/h
1434 24-06-2009 17:00:00 31.88 C 6.71 g/m*3 31.88 C 0 km/h
1435 24-06-2009 18:00:00 31.52 C 6.58 g/m*3 31.52 C 0 km/h
1436 24-06-2009 19:00:00 29.7 C 6.74 g/m*3 29.7 C 0 km/h
1437 24-06-2009 20:00:00 26.56 C 7.84 g/m*3 26.56 C 0 km/h
1438 24-06-2009 21:00:00 23.92 C 8.01 g/m*3 23.92 C 0 km/h
1439 24-06-2009 22:00:00 23.36 C 8.18 g/m*3 23.36 C 0 km/h
1440 24-06-2009 23:00:00 22.22 C 8.26 g/m*3 22.22 C 0 km/h
1441 25-06-2009 00:00:00 21.3 C 8.69 g/m*3 21.3 C 0 km/h
1442 25-06-2009 01:00:00 20.1 C 8.87 g/m*3 20.1 C 0 km/h
1443 25-06-2009 02:00:00 18.66 C 9.07 g/m*3 18.66 C 0 km/h
1444 25-06-2009 03:00:00 17.64 C 9.35 g/m*3 17.64 C 0 km/h
1445 25-06-2009 04:00:00 16.6 C 9.3 g/m*3 16.6 C 0 km/h
1446 25-06-2009 05:00:00 16.04 C 9.12 g/m*3 16.04 C 0 km/h
1447 25-06-2009 06:00:00 16.12 C 9.28 g/m*3 16.12 C 0 km/h
1448 25-06-2009 07:00:00 16.56 C 9.58 g/m*3 16.56 C 0 km/h
1449 25-06-2009 08:00:00 18.14 C 9.7 g/m*3 18.14 C 0 km/h
1450 25-06-2009 09:00:00 20.78 C 9.22 g/m*3 20.78 C 0 km/h
Sensor: Nr:Datum:Temp:Abs-Feuchte:Windchill:Wind:
Aussen-T/F 1451 25-06-2009 10:00:00 23.34 C 9.09 g/m*3 23.34 C 0 km/h
1452 25-06-2009 11:00:00 26.06 C 8.89 g/m*3 26.06 C 0 km/h
1453 25-06-2009 12:00:00 28.4 C 8.67 g/m*3 28.4 C 0 km/h
1454 25-06-2009 13:00:00 30.44 C 8.14 g/m*3 30.44 C 0 km/h
1455 25-06-2009 14:00:00 30.44 C 8.26 g/m*3 30.44 C 0 km/h
1456 25-06-2009 15:00:00 31.44 C 7.73 g/m*3 31.44 C 0 km/h
1457 25-06-2009 16:00:00 31.82 C 7.36 g/m*3 31.82 C 0 km/h
1458 25-06-2009 17:00:00 32.54 C 6.95 g/m*3 32.54 C 0 km/h
1459 25-06-2009 18:00:00 31.2 C 7.89 g/m*3 31.2 C 0 km/h
1460 25-06-2009 19:00:00 29.14 C 9.38 g/m*3 29.14 C 0 km/h
1461 25-06-2009 20:00:00 29.64 C 9.46 g/m*3 29.64 C 0 km/h
1462 25-06-2009 21:00:00 25.34 C 10.46 g/m*3 25.34 C 0 km/h
1463 25-06-2009 22:00:00 24.04 C 10.82 g/m*3 24.04 C 0 km/h
1464 25-06-2009 23:00:00 22.76 C 10.06 g/m*3 22.76 C 0 km/h
1465 26-06-2009 00:00:00 21.38 C 10.3 g/m*3 21.38 C 0 km/h
1466 26-06-2009 01:00:00 20.52 C 10.51 g/m*3 20.52 C 0 km/h
1467 26-06-2009 02:00:00 19.16 C 10.79 g/m*3 19.16 C 0 km/h
1468 26-06-2009 03:00:00 18.2 C 10.91 g/m*3 18.2 C 0 km/h
1469 26-06-2009 04:00:00 17.52 C 11.14 g/m*3 17.52 C 0 km/h
1470 26-06-2009 05:00:00 17.2 C 11.19 g/m*3 17.2 C 0 km/h
1471 26-06-2009 06:00:00 18.08 C 11.51 g/m*3 18.08 C 0 km/h
1472 26-06-2009 07:00:00 19.22 C 11.19 g/m*3 19.22 C 0 km/h
1473 26-06-2009 08:00:00 20 C 10.78 g/m*3 20 C 0 km/h
1474 26-06-2009 09:00:00 21.6 C 10.62 g/m*3 21.6 C 0 km/h
1475 26-06-2009 10:00:00 22.62 C 10.78 g/m*3 22.62 C 0 km/h
Sensor: Nr:Datum:Temp:Abs-Feuchte:Windchill:Wind:
Aussen-T/F 1476 26-06-2009 11:00:00 24.5 C 10.74 g/m*3 24.5 C 0 km/h
1477 26-06-2009 12:00:00 28.22 C 9.58 g/m*3 28.22 C 0 km/h
1478 26-06-2009 13:00:00 30.9 C 7.96 g/m*3 30.9 C 0 km/h
1479 26-06-2009 14:00:00 30.7 C 8.38 g/m*3 30.7 C 0 km/h
1480 26-06-2009 15:00:00 30.74 C 8.65 g/m*3 30.74 C 0 km/h
1481 26-06-2009 16:00:00 32.06 C 7.25 g/m*3 32.06 C 0 km/h
1482 26-06-2009 17:00:00 32.88 C 7.07 g/m*3 32.88 C 0 km/h
1483 26-06-2009 18:00:00 32.54 C 6.95 g/m*3 32.54 C 0 km/h
1484 26-06-2009 19:00:00 30.56 C 8.13 g/m*3 30.56 C 0 km/h
1485 26-06-2009 20:00:00 25.98 C 9.48 g/m*3 25.98 C 0 km/h
1486 26-06-2009 21:00:00 24.14 C 10.04 g/m*3 24.14 C 0 km/h
1487 26-06-2009 22:00:00 22.74 C 10.73 g/m*3 22.74 C 0 km/h
1488 26-06-2009 23:00:00 22 C 11.18 g/m*3 22 C 0 km/h
1489 27-06-2009 00:00:00 21.14 C 11.56 g/m*3 21.14 C 0 km/h
1490 27-06-2009 01:00:00 20.82 C 11.82 g/m*3 20.82 C 0 km/h
1491 27-06-2009 02:00:00 19.84 C 11.78 g/m*3 19.84 C 0 km/h
1492 27-06-2009 03:00:00 19.1 C 11.61 g/m*3 19.1 C 0 km/h
1493 27-06-2009 04:00:00 18.22 C 11.73 g/m*3 18.22 C 0 km/h
1494 27-06-2009 05:00:00 17.86 C 11.91 g/m*3 17.86 C 0 km/h
1495 27-06-2009 06:00:00 18.18 C 11.95 g/m*3 18.18 C 0 km/h
1496 27-06-2009 07:00:00 18.58 C 12.08 g/m*3 18.58 C 0 km/h
1497 27-06-2009 08:00:00 20.14 C 12.2 g/m*3 20.14 C 0 km/h
1498 27-06-2009 09:00:00 22.42 C 12.09 g/m*3 22.42 C 0 km/h
1499 27-06-2009 10:00:00 24.28 C 11.49 g/m*3 24.28 C 0 km/h
1500 27-06-2009 11:00:00 26.3 C 11.09 g/m*3 26.3 C 0 km/h
Sensor: Nr:Datum:Temp:Abs-Feuchte:Windchill:Wind:
Aussen-T/F 1501 27-06-2009 12:00:00 26.96 C 10.63 g/m*3 26.96 C 0 km/h
1502 27-06-2009 13:00:00 28.6 C 10 g/m*3 28.6 C 0 km/h
1503 27-06-2009 14:00:00 23.98 C 12.91 g/m*3 23.98 C 0 km/h
1504 27-06-2009 15:00:00 21.7 C 15.41 g/m*3 21.7 C 0 km/h
1505 27-06-2009 16:00:00 26.08 C 14.33 g/m*3 26.08 C 0 km/h
1506 27-06-2009 17:00:00 25.36 C 13.91 g/m*3 25.36 C 0 km/h
1507 27-06-2009 18:00:00 23.62 C 13.41 g/m*3 23.62 C 0 km/h
1508 27-06-2009 19:00:00 23.78 C 13.41 g/m*3 23.78 C 0 km/h
1509 27-06-2009 20:00:00 23.02 C 12.76 g/m*3 23.02 C 0 km/h
1510 27-06-2009 21:00:00 21.92 C 12.79 g/m*3 21.92 C 0 km/h
1511 27-06-2009 22:00:00 20.26 C 12.67 g/m*3 20.26 C 0 km/h
1512 27-06-2009 23:00:00 19.74 C 12.66 g/m*3 19.74 C 0 km/h
1513 28-06-2009 00:00:00 19.7 C 13.11 g/m*3 19.7 C 0 km/h
1514 28-06-2009 01:00:00 19.7 C 13.11 g/m*3 19.7 C 0 km/h
1515 28-06-2009 02:00:00 19.46 C 12.89 g/m*3 19.46 C 0 km/h
1516 28-06-2009 03:00:00 19.36 C 12.98 g/m*3 19.36 C 0 km/h
1517 28-06-2009 04:00:00 19.28 C 12.96 g/m*3 19.28 C 0 km/h
1518 28-06-2009 05:00:00 19.08 C 12.93 g/m*3 19.08 C 0 km/h
1519 28-06-2009 06:00:00 18.98 C 13.09 g/m*3 18.98 C 0 km/h
1520 28-06-2009 07:00:00 19.32 C 13.32 g/m*3 19.32 C 0 km/h
1521 28-06-2009 08:00:00 20.82 C 12.76 g/m*3 20.82 C 0 km/h
1522 28-06-2009 09:00:00 22.74 C 11.87 g/m*3 22.74 C 0 km/h
1523 28-06-2009 10:00:00 24.72 C 10.65 g/m*3 24.72 C 0 km/h
1524 28-06-2009 11:00:00 27.12 C 9.84 g/m*3 27.12 C 0 km/h
1525 28-06-2009 12:00:00 28.44 C 9.81 g/m*3 28.44 C 0 km/h
Sensor: Nr:Datum:Temp:Abs-Feuchte:Windchill:Wind:
Aussen-T/F 1526 28-06-2009 13:00:00 29.8 C 9.36 g/m*3 29.8 C 0 km/h
1527 28-06-2009 14:00:00 30.46 C 8.7 g/m*3 30.46 C 0 km/h
1528 28-06-2009 15:00:00 31.3 C 8.2 g/m*3 31.3 C 0 km/h
1529 28-06-2009 16:00:00 32 C 7.56 g/m*3 32 C 0 km/h
1530 28-06-2009 17:00:00 31.54 C 7.18 g/m*3 31.54 C 0 km/h
1531 28-06-2009 18:00:00 32.52 C 7.08 g/m*3 32.52 C 0 km/h
1532 28-06-2009 19:00:00 31.22 C 7.71 g/m*3 31.22 C 0 km/h
1533 28-06-2009 20:00:00 29.92 C 9.24 g/m*3 29.92 C 0 km/h
1534 28-06-2009 21:00:00 25.94 C 10.05 g/m*3 25.94 C 0 km/h
1535 28-06-2009 22:00:00 24.4 C 10.9 g/m*3 24.4 C 0 km/h
1536 28-06-2009 23:00:00 23.24 C 11.38 g/m*3 23.24 C 0 km/h
1537 29-06-2009 00:00:00 21.98 C 11.59 g/m*3 21.98 C 0 km/h
1538 29-06-2009 01:00:00 20.98 C 11.67 g/m*3 20.98 C 0 km/h
1539 29-06-2009 02:00:00 20.26 C 11.93 g/m*3 20.26 C 0 km/h
1540 29-06-2009 03:00:00 19.64 C 11.91 g/m*3 19.64 C 0 km/h
1541 29-06-2009 04:00:00 18.98 C 11.88 g/m*3 18.98 C 0 km/h
1542 29-06-2009 05:00:00 18.38 C 12 g/m*3 18.38 C 0 km/h
1543 29-06-2009 06:00:00 18.12 C 12.19 g/m*3 18.12 C 0 km/h
1544 29-06-2009 07:00:00 18.52 C 12.48 g/m*3 18.52 C 0 km/h
1545 29-06-2009 08:00:00 19.86 C 12.58 g/m*3 19.86 C 0 km/h
1546 29-06-2009 09:00:00 22.58 C 12.72 g/m*3 22.58 C 0 km/h
1547 29-06-2009 10:00:00 25.34 C 11.92 g/m*3 25.34 C 0 km/h
1548 29-06-2009 11:00:00 28.02 C 11 g/m*3 28.02 C 0 km/h
1549 29-06-2009 12:00:00 30.68 C 9.69 g/m*3 30.68 C 0 km/h
1550 29-06-2009 13:00:00 31.22 C 8.94 g/m*3 31.22 C 0 km/h
Sensor: Nr:Datum:Temp:Abs-Feuchte:Windchill:Wind:
Aussen-T/F 1551 29-06-2009 14:00:00 28.5 C 10.12 g/m*3 28.5 C 0 km/h
1552 29-06-2009 15:00:00 29.72 C 10.1 g/m*3 29.72 C 0 km/h
1553 29-06-2009 16:00:00 29.36 C 10.72 g/m*3 29.36 C 0 km/h
1554 29-06-2009 17:00:00 29.42 C 10.99 g/m*3 29.42 C 0 km/h
1555 29-06-2009 18:00:00 31.22 C 9.91 g/m*3 31.22 C 0 km/h
1556 29-06-2009 19:00:00 30.08 C 10.54 g/m*3 30.08 C 0 km/h
1557 29-06-2009 20:00:00 28.52 C 11.08 g/m*3 28.52 C 0 km/h
1558 29-06-2009 21:00:00 25.52 C 11.52 g/m*3 25.52 C 0 km/h
1559 29-06-2009 22:00:00 23.56 C 12.1 g/m*3 23.56 C 0 km/h
1560 29-06-2009 23:00:00 22.72 C 12.42 g/m*3 22.72 C 0 km/h
1561 30-06-2009 00:00:00 21.74 C 12.77 g/m*3 21.74 C 0 km/h
1562 30-06-2009 01:00:00 20.88 C 12.99 g/m*3 20.88 C 0 km/h
1563 30-06-2009 02:00:00 20.2 C 13.08 g/m*3 20.2 C 0 km/h
1564 30-06-2009 03:00:00 19.36 C 13.08 g/m*3 19.36 C 0 km/h
1565 30-06-2009 04:00:00 19.08 C 12.97 g/m*3 19.08 C 0 km/h
1566 30-06-2009 05:00:00 18.8 C 13.17 g/m*3 18.8 C 0 km/h
1567 30-06-2009 06:00:00 18.96 C 13.23 g/m*3 18.96 C 0 km/h
1568 30-06-2009 07:00:00 19.8 C 13.19 g/m*3 19.8 C 0 km/h
1569 30-06-2009 08:00:00 21.46 C 13.55 g/m*3 21.46 C 0 km/h
1570 30-06-2009 09:00:00 23.78 C 13.41 g/m*3 23.78 C 0 km/h
1571 30-06-2009 10:00:00 26.1 C 12.83 g/m*3 26.1 C 0 km/h
1572 30-06-2009 11:00:00 28.74 C 12.12 g/m*3 28.74 C 0 km/h
1573 30-06-2009 12:00:00 30.84 C 11.11 g/m*3 30.84 C 0 km/h
1574 30-06-2009 13:00:00 31.82 C 9.43 g/m*3 31.82 C 0 km/h
1575 30-06-2009 14:00:00 31.62 C 9 g/m*3 31.62 C 0 km/h
Sensor: Nr:Datum:Temp:Abs-Feuchte:Windchill:Wind:
Aussen-T/F 1576 30-06-2009 15:00:00 23.16 C 15.06 g/m*3 23.16 C 0 km/h
1577 30-06-2009 16:00:00 19.76 C 14.96 g/m*3 19.76 C 0 km/h
1578 30-06-2009 17:00:00 20.14 C 15.54 g/m*3 20.14 C 0 km/h
1579 30-06-2009 18:00:00 21.38 C 16.37 g/m*3 21.38 C 0 km/h
1580 30-06-2009 19:00:00 22.56 C 15.99 g/m*3 22.56 C 0 km/h
1581 30-06-2009 20:00:00 22.62 C 15.69 g/m*3 22.62 C 0 km/h
1582 30-06-2009 21:00:00 20.14 C 13.94 g/m*3 20.14 C 0 km/h
1583 30-06-2009 22:00:00 19.28 C 13.85 g/m*3 19.28 C 0 km/h
1584 30-06-2009 23:00:00 19 C 13.85 g/m*3 19 C 0 km/h
1585 01-07-2009 00:00:00 18.58 C 13.73 g/m*3 18.58 C 0 km/h
1586 01-07-2009 01:00:00 18.18 C 13.66 g/m*3 18.18 C 0 km/h
1587 01-07-2009 02:00:00 18.26 C 13.79 g/m*3 18.26 C 0 km/h
1588 01-07-2009 03:00:00 18.06 C 13.69 g/m*3 18.06 C 0 km/h
1589 01-07-2009 04:00:00 17.86 C 13.53 g/m*3 17.86 C 0 km/h
1590 01-07-2009 05:00:00 17.8 C 13.54 g/m*3 17.8 C 0 km/h
1591 01-07-2009 06:00:00 18.08 C 13.8 g/m*3 18.08 C 0 km/h
1592 01-07-2009 07:00:00 18.82 C 13.93 g/m*3 18.82 C 0 km/h
1593 01-07-2009 08:00:00 20.3 C 13.79 g/m*3 20.3 C 0 km/h
1594 01-07-2009 09:00:00 22.08 C 14.27 g/m*3 22.08 C 0 km/h
1595 01-07-2009 10:00:00 24.44 C 14.14 g/m*3 24.44 C 0 km/h
1596 01-07-2009 11:00:00 27.46 C 12.83 g/m*3 27.46 C 0 km/h
1597 01-07-2009 12:00:00 30.62 C 11.1 g/m*3 30.62 C 0 km/h
1598 01-07-2009 13:00:00 32.22 C 9.09 g/m*3 32.22 C 0 km/h
1599 01-07-2009 14:00:00 24.94 C 14.18 g/m*3 24.94 C 0 km/h
1600 01-07-2009 15:00:00 27.46 C 14.15 g/m*3 27.46 C 0 km/h
Sensor: Nr:Datum:Temp:Abs-Feuchte:Windchill:Wind:
Aussen-T/F 1601 01-07-2009 16:00:00 31 C 11.71 g/m*3 31 C 0 km/h
1602 01-07-2009 17:00:00 31.42 C 9.56 g/m*3 31.42 C 0 km/h
1603 01-07-2009 18:00:00 27.12 C 11.87 g/m*3 27.12 C 0 km/h
1604 01-07-2009 19:00:00 26.08 C 12.28 g/m*3 26.08 C 0 km/h
1605 01-07-2009 20:00:00 26.62 C 12.4 g/m*3 26.62 C 0 km/h
1606 01-07-2009 21:00:00 24.42 C 12.65 g/m*3 24.42 C 0 km/h
1607 01-07-2009 22:00:00 22.94 C 13.11 g/m*3 22.94 C 0 km/h
1608 01-07-2009 23:00:00 22.06 C 13.48 g/m*3 22.06 C 0 km/h
1609 02-07-2009 00:00:00 21.42 C 13.66 g/m*3 21.42 C 0 km/h
1610 02-07-2009 01:00:00 20.6 C 13.46 g/m*3 20.6 C 0 km/h
1611 02-07-2009 02:00:00 19.88 C 13.39 g/m*3 19.88 C 0 km/h
1612 02-07-2009 03:00:00 19.34 C 13.4 g/m*3 19.34 C 0 km/h
1613 02-07-2009 04:00:00 18.8 C 13.37 g/m*3 18.8 C 0 km/h
1614 02-07-2009 05:00:00 18.4 C 13.12 g/m*3 18.4 C 0 km/h
1615 02-07-2009 06:00:00 18.42 C 13.23 g/m*3 18.42 C 0 km/h
1616 02-07-2009 07:00:00 18.9 C 13.48 g/m*3 18.9 C 0 km/h
1617 02-07-2009 08:00:00 20.24 C 13.88 g/m*3 20.24 C 0 km/h
1618 02-07-2009 09:00:00 21.66 C 14.2 g/m*3 21.66 C 0 km/h
1619 02-07-2009 10:00:00 25.12 C 13.67 g/m*3 25.12 C 0 km/h
1620 02-07-2009 11:00:00 28.16 C 12.78 g/m*3 28.16 C 0 km/h
1621 02-07-2009 12:00:00 30.62 C 10.79 g/m*3 30.62 C 0 km/h
1622 02-07-2009 13:00:00 32.62 C 8.58 g/m*3 32.62 C 0 km/h
1623 02-07-2009 14:00:00 32.12 C 8.9 g/m*3 32.12 C 0 km/h
1624 02-07-2009 15:00:00 33.12 C 7.52 g/m*3 33.12 C 0 km/h
1625 02-07-2009 16:00:00 32.74 C 8.57 g/m*3 32.74 C 0 km/h
Sensor: Nr:Datum:Temp:Abs-Feuchte:Windchill:Wind:
Aussen-T/F 1626 02-07-2009 17:00:00 33.68 C 7.38 g/m*3 33.68 C 0 km/h
1627 02-07-2009 18:00:00 34.46 C 7.69 g/m*3 34.46 C 0 km/h
1628 02-07-2009 19:00:00 33.62 C 8.17 g/m*3 33.62 C 0 km/h
1629 02-07-2009 20:00:00 30.44 C 10.25 g/m*3 30.44 C 0 km/h
1630 02-07-2009 21:00:00 27.6 C 11.81 g/m*3 27.6 C 0 km/h
1631 02-07-2009 22:00:00 26 C 11.98 g/m*3 26 C 0 km/h
1632 02-07-2009 23:00:00 25.06 C 12.1 g/m*3 25.06 C 0 km/h
1633 03-07-2009 00:00:00 23.9 C 12.29 g/m*3 23.9 C 0 km/h
1634 03-07-2009 01:00:00 22.94 C 12.45 g/m*3 22.94 C 0 km/h
1635 03-07-2009 02:00:00 21.98 C 12.64 g/m*3 21.98 C 0 km/h
1636 03-07-2009 03:00:00 21.36 C 12.72 g/m*3 21.36 C 0 km/h
1637 03-07-2009 04:00:00 20.52 C 12.86 g/m*3 20.52 C 0 km/h
1638 03-07-2009 05:00:00 20.04 C 12.85 g/m*3 20.04 C 0 km/h
1639 03-07-2009 06:00:00 20.06 C 13.04 g/m*3 20.06 C 0 km/h
1640 03-07-2009 07:00:00 20.38 C 13.36 g/m*3 20.38 C 0 km/h
1641 03-07-2009 08:00:00 21.94 C 13.46 g/m*3 21.94 C 0 km/h
1642 03-07-2009 09:00:00 24.7 C 13.4 g/m*3 24.7 C 0 km/h
1643 03-07-2009 10:00:00 27.54 C 12.67 g/m*3 27.54 C 0 km/h
1644 03-07-2009 11:00:00 29.82 C 11.65 g/m*3 29.82 C 0 km/h
1645 03-07-2009 12:00:00 32.02 C 9.46 g/m*3 32.02 C 0 km/h
1646 03-07-2009 13:00:00 28.86 C 12.49 g/m*3 28.86 C 0 km/h
1647 03-07-2009 14:00:00 21.98 C 13.53 g/m*3 21.98 C 0 km/h
1648 03-07-2009 15:00:00 20.3 C 14.91 g/m*3 20.3 C 0 km/h
1649 03-07-2009 16:00:00 20.82 C 15.23 g/m*3 20.82 C 0 km/h
1650 03-07-2009 17:00:00 21.94 C 14.85 g/m*3 21.94 C 0 km/h
Sensor: Nr:Datum:Temp:Abs-Feuchte:Windchill:Wind:
Aussen-T/F 1651 03-07-2009 18:00:00 25.26 C 14.2 g/m*3 25.26 C 0 km/h
1652 03-07-2009 19:00:00 26.18 C 13.77 g/m*3 26.18 C 0 km/h
1653 03-07-2009 20:00:00 23.7 C 14.5 g/m*3 23.7 C 0 km/h
1654 03-07-2009 21:00:00 22.4 C 14.82 g/m*3 22.4 C 0 km/h
1655 03-07-2009 22:00:00 21.28 C 14.78 g/m*3 21.28 C 0 km/h
1656 03-07-2009 23:00:00 20.74 C 14.4 g/m*3 20.74 C 0 km/h
1657 04-07-2009 00:00:00 20.16 C 14.37 g/m*3 20.16 C 0 km/h
1658 04-07-2009 01:00:00 19.4 C 14.55 g/m*3 19.4 C 0 km/h
1659 04-07-2009 02:00:00 19.14 C 14.46 g/m*3 19.14 C 0 km/h
1660 04-07-2009 03:00:00 18.84 C 14.37 g/m*3 18.84 C 0 km/h
1661 04-07-2009 04:00:00 18.82 C 14.16 g/m*3 18.82 C 0 km/h
1662 04-07-2009 05:00:00 18.22 C 13.23 g/m*3 18.22 C 0 km/h
1663 04-07-2009 06:00:00 17.52 C 12.93 g/m*3 17.52 C 0 km/h
1664 04-07-2009 07:00:00 17.96 C 13.06 g/m*3 17.96 C 0 km/h
1665 04-07-2009 08:00:00 19.12 C 11.78 g/m*3 19.12 C 0 km/h
1666 04-07-2009 09:00:00 21.2 C 10.56 g/m*3 21.2 C 0 km/h
1667 04-07-2009 10:00:00 23.5 C 10.53 g/m*3 23.5 C 0 km/h
1668 04-07-2009 11:00:00 26.32 C 9.81 g/m*3 26.32 C 0 km/h
1669 04-07-2009 12:00:00 27.14 C 9.75 g/m*3 27.14 C 0 km/h
1670 04-07-2009 13:00:00 29.5 C 9.21 g/m*3 29.5 C 0 km/h
1671 04-07-2009 14:00:00 29.34 C 8.89 g/m*3 29.34 C 0 km/h
1672 04-07-2009 15:00:00 30.02 C 8.62 g/m*3 30.02 C 0 km/h
1673 04-07-2009 16:00:00 31 C 6.98 g/m*3 31 C 0 km/h
1674 04-07-2009 17:00:00 30.82 C 6.78 g/m*3 30.82 C 0 km/h
1675 04-07-2009 18:00:00 30.74 C 6.5 g/m*3 30.74 C 0 km/h
Sensor: Nr:Datum:Temp:Abs-Feuchte:Windchill:Wind:
Aussen-T/F 1676 04-07-2009 19:00:00 30.8 C 7.28 g/m*3 30.8 C 0 km/h
1677 04-07-2009 20:00:00 29.82 C 8.47 g/m*3 29.82 C 0 km/h
1678 04-07-2009 21:00:00 25.36 C 9.49 g/m*3 25.36 C 0 km/h
1679 04-07-2009 22:00:00 23.28 C 9.65 g/m*3 23.28 C 0 km/h
1680 04-07-2009 23:00:00 21.675 C 10.1 g/m*3 21.68 C 0 km/h
1681 05-07-2009 00:00:00 20.64 C 10.4 g/m*3 20.64 C 0 km/h
1682 05-07-2009 01:00:00 19.44 C 10.74 g/m*3 19.44 C 0 km/h
1683 05-07-2009 02:00:00 18.56 C 11.11 g/m*3 18.56 C 0 km/h
1684 05-07-2009 03:00:00 18.02 C 11.07 g/m*3 18.02 C 0 km/h
1685 05-07-2009 04:00:00 17.38 C 11.1 g/m*3 17.38 C 0 km/h
1686 05-07-2009 05:00:00 16.92 C 11.12 g/m*3 16.92 C 0 km/h
1687 05-07-2009 06:00:00 17.36 C 11.27 g/m*3 17.36 C 0 km/h
1688 05-07-2009 07:00:00 17.78 C 11.4 g/m*3 17.78 C 0 km/h
1689 05-07-2009 08:00:00 19.78 C 11.43 g/m*3 19.78 C 0 km/h
1690 05-07-2009 09:00:00 22.5 C 11.27 g/m*3 22.5 C 0 km/h
1691 05-07-2009 10:00:00 23.08 C 11.52 g/m*3 23.08 C 0 km/h
1692 05-07-2009 11:00:00 24.38 C 11.07 g/m*3 24.38 C 0 km/h
1693 05-07-2009 12:00:00 26.9 C 10.75 g/m*3 26.9 C 0 km/h
1694 05-07-2009 13:00:00 29.46667 C 8.89 g/m*3 29.47 C 0 km/h
1695 05-07-2009 14:00:00 31.075 C 8.19 g/m*3 31.08 C 0 km/h
1696 05-07-2009 15:00:00 31.8 C 7.21 g/m*3 31.8 C 0 km/h
1697 05-07-2009 16:00:00 31.86 C 7.04 g/m*3 31.86 C 0 km/h
1698 05-07-2009 17:00:00 29.92 C 9 g/m*3 29.92 C 0 km/h
1699 05-07-2009 18:00:00 27.48 C 9.41 g/m*3 27.48 C 0 km/h
1700 05-07-2009 19:00:00 30 C 8.79 g/m*3 30 C 0 km/h
Sensor: Nr:Datum:Temp:Abs-Feuchte:Windchill:Wind:
Aussen-T/F 1701 05-07-2009 20:00:00 28.2 C 9.85 g/m*3 28.2 C 0 km/h
1702 05-07-2009 21:00:00 25.25 C 10.33 g/m*3 25.25 C 0 km/h
1703 05-07-2009 22:00:00 23.84 C 10.82 g/m*3 23.84 C 0 km/h
1704 05-07-2009 23:00:00 21.68 C 12.77 g/m*3 21.68 C 0 km/h
1705 06-07-2009 00:00:00 18.74 C 14.35 g/m*3 18.74 C 0 km/h
1706 06-07-2009 01:00:00 18.7 C 14.7 g/m*3 18.7 C 0 km/h
1707 06-07-2009 02:00:00 18.42 C 14.3 g/m*3 18.42 C 0 km/h
1708 06-07-2009 03:00:00 18.24 C 13.74 g/m*3 18.24 C 0 km/h
1709 06-07-2009 04:00:00 17.64 C 13.53 g/m*3 17.64 C 0 km/h
1710 06-07-2009 05:00:00 17.48 C 13.25 g/m*3 17.48 C 0 km/h
1711 06-07-2009 06:00:00 17.36 C 13.01 g/m*3 17.36 C 0 km/h
1712 06-07-2009 07:00:00 18.4 C 13.46 g/m*3 18.4 C 0 km/h
1713 06-07-2009 08:00:00 18.94 C 12.86 g/m*3 18.94 C 0 km/h
1714 06-07-2009 09:00:00 21.1 C 11.72 g/m*3 21.1 C 0 km/h
1715 06-07-2009 10:00:00 23.54 C 9.92 g/m*3 23.54 C 0 km/h
1716 06-07-2009 11:00:00 25.98 C 9.14 g/m*3 25.98 C 0 km/h
1717 06-07-2009 12:00:00 25.6 C 9.38 g/m*3 25.6 C 0 km/h
1718 06-07-2009 13:00:00 23.66 C 10.54 g/m*3 23.66 C 0 km/h
1719 06-07-2009 14:00:00 26.82 C 8.71 g/m*3 26.82 C 0 km/h
1720 06-07-2009 15:00:00 28.62 C 7.88 g/m*3 28.62 C 0 km/h
1721 06-07-2009 16:00:00 26.38 C 7.86 g/m*3 26.38 C 0 km/h
1722 06-07-2009 17:00:00 26.22 C 8.28 g/m*3 26.22 C 0 km/h
1723 06-07-2009 18:00:00 27.56 C 8.81 g/m*3 27.56 C 0 km/h
1724 06-07-2009 19:00:00 27.56 C 8.92 g/m*3 27.56 C 0 km/h
1725 06-07-2009 20:00:00 22.52 C 9.44 g/m*3 22.52 C 0 km/h
Sensor: Nr:Datum:Temp:Abs-Feuchte:Windchill:Wind:
Aussen-T/F 1726 06-07-2009 21:00:00 18.56 C 12.04 g/m*3 18.56 C 0 km/h
1727 06-07-2009 22:00:00 18 C 11.46 g/m*3 18 C 0 km/h
1728 06-07-2009 23:00:00 17.72 C 11.42 g/m*3 17.72 C 0 km/h
1729 07-07-2009 00:00:00 17.5 C 11.87 g/m*3 17.5 C 0 km/h
1730 07-07-2009 01:00:00 17.6 C 11.67 g/m*3 17.6 C 0 km/h
1731 07-07-2009 02:00:00 16.98 C 11.48 g/m*3 16.98 C 0 km/h
1732 07-07-2009 03:00:00 16.78 C 11.62 g/m*3 16.78 C 0 km/h
1733 07-07-2009 04:00:00 16.62 C 11.57 g/m*3 16.62 C 0 km/h
1734 07-07-2009 05:00:00 16.04 C 11.42 g/m*3 16.04 C 0 km/h
1735 07-07-2009 06:00:00 16.1 C 11.35 g/m*3 16.1 C 0 km/h
1736 07-07-2009 07:00:00 16.24 C 11.39 g/m*3 16.24 C 0 km/h
1737 07-07-2009 08:00:00 17.26 C 11.52 g/m*3 17.26 C 0 km/h
1738 07-07-2009 09:00:00 17.8 C 10.81 g/m*3 17.8 C 0 km/h
1739 07-07-2009 10:00:00 18.18 C 10.03 g/m*3 18.18 C 0 km/h
1740 07-07-2009 11:00:00 19.96 C 9.41 g/m*3 19.96 C 0 km/h
1741 07-07-2009 12:00:00 19.66 C 9.45 g/m*3 19.66 C 0 km/h
1742 07-07-2009 13:00:00 22.44 C 8.16 g/m*3 22.44 C 0 km/h
1743 07-07-2009 14:00:00 23.16 C 7.14 g/m*3 23.16 C 0 km/h
1744 07-07-2009 15:00:00 23.56 C 6.75 g/m*3 23.56 C 0 km/h
1745 07-07-2009 16:00:00 22.4 C 6.55 g/m*3 22.4 C 0 km/h
1746 07-07-2009 17:00:00 24.62 C 6.67 g/m*3 24.62 C 0 km/h
1747 07-07-2009 18:00:00 23.2 C 7.03 g/m*3 23.2 C 0 km/h
1748 07-07-2009 19:00:00 23.3 C 7.03 g/m*3 23.3 C 0 km/h
1749 07-07-2009 20:00:00 16.18 C 10 g/m*3 16.18 C 0 km/h
1750 07-07-2009 21:00:00 16.06 C 10.17 g/m*3 16.06 C 0 km/h
Sensor: Nr:Datum:Temp:Abs-Feuchte:Windchill:Wind:
Aussen-T/F 1751 07-07-2009 22:00:00 14.6 C 9.41 g/m*3 14.6 C 0 km/h
1752 07-07-2009 23:00:00 14.06 C 9.42 g/m*3 14.06 C 0 km/h
1753 08-07-2009 00:00:00 14.46 C 9.35 g/m*3 14.46 C 0 km/h
1754 08-07-2009 01:00:00 14.74 C 9.54 g/m*3 14.74 C 0 km/h
1755 08-07-2009 02:00:00 15.1 C 9.19 g/m*3 15.1 C 0 km/h
1756 08-07-2009 03:00:00 14.6 C 9.86 g/m*3 14.6 C 0 km/h
1757 08-07-2009 04:00:00 13.96 C 10.18 g/m*3 13.96 C 0 km/h
1758 08-07-2009 05:00:00 13.84 C 10.3 g/m*3 13.84 C 0 km/h
1759 08-07-2009 06:00:00 13.76 C 10.32 g/m*3 13.76 C 0 km/h
1760 08-07-2009 07:00:00 14.56 C 10.31 g/m*3 14.56 C 0 km/h
1761 08-07-2009 08:00:00 15.1 C 10.35 g/m*3 15.1 C 0 km/h
1762 08-07-2009 09:00:00 16.32 C 10.5 g/m*3 16.32 C 0 km/h
1763 08-07-2009 10:00:00 16.74 C 10.03 g/m*3 16.74 C 0 km/h
1764 08-07-2009 11:00:00 18.18 C 10.28 g/m*3 18.18 C 0 km/h
1765 08-07-2009 12:00:00 20.72 C 9.26 g/m*3 20.72 C 0 km/h
1766 08-07-2009 13:00:00 18.36 C 9.1 g/m*3 18.36 C 0 km/h
1767 08-07-2009 14:00:00 16.72 C 10.79 g/m*3 16.72 C 0 km/h
1768 08-07-2009 15:00:00 17.52 C 10.21 g/m*3 17.52 C 0 km/h
1769 08-07-2009 16:00:00 19.84 C 8.49 g/m*3 19.84 C 0 km/h
1770 08-07-2009 17:00:00 18.78 C 8.4 g/m*3 18.78 C 0 km/h
1771 08-07-2009 18:00:00 17.74 C 8.14 g/m*3 17.74 C 0 km/h
1772 08-07-2009 19:00:00 17.16 C 8.27 g/m*3 17.16 C 0 km/h
1773 08-07-2009 20:00:00 16.78 C 8.6 g/m*3 16.78 C 0 km/h
1774 08-07-2009 21:00:00 16.46 C 8.68 g/m*3 16.46 C 0 km/h
1775 08-07-2009 22:00:00 16.1 C 8.91 g/m*3 16.1 C 0 km/h
Sensor: Nr:Datum:Temp:Abs-Feuchte:Windchill:Wind:
Aussen-T/F 1776 08-07-2009 23:00:00 15.82 C 9.06 g/m*3 15.82 C 0 km/h
1777 09-07-2009 00:00:00 15.5 C 8.91 g/m*3 15.5 C 0 km/h
1778 09-07-2009 01:00:00 14.44 C 9.67 g/m*3 14.44 C 0 km/h
1779 09-07-2009 02:00:00 13.38 C 9.45 g/m*3 13.38 C 0 km/h
1780 09-07-2009 03:00:00 13.44 C 9.56 g/m*3 13.44 C 0 km/h
1781 09-07-2009 04:00:00 13.34 C 9.5 g/m*3 13.34 C 0 km/h
1782 09-07-2009 05:00:00 13.14 C 8.97 g/m*3 13.14 C 0 km/h
1783 09-07-2009 06:00:00 13.24 C 8.4 g/m*3 13.24 C 0 km/h
1784 09-07-2009 07:00:00 13.58 C 8.7 g/m*3 13.58 C 0 km/h
1785 09-07-2009 08:00:00 14.64 C 8.98 g/m*3 14.64 C 0 km/h
1786 09-07-2009 09:00:00 14.52 C 8.72 g/m*3 14.52 C 0 km/h
1787 09-07-2009 10:00:00 16.04 C 8.17 g/m*3 16.04 C 0 km/h
1788 09-07-2009 11:00:00 17.44 C 6.71 g/m*3 17.44 C 0 km/h
1789 09-07-2009 12:00:00 19.88 C 6.07 g/m*3 19.88 C 0 km/h
1790 09-07-2009 13:00:00 20.64 C 6.21 g/m*3 20.64 C 0 km/h
1791 09-07-2009 14:00:00 21.56 C 5.75 g/m*3 21.56 C 0 km/h
1792 09-07-2009 15:00:00 22.38 C 5.83 g/m*3 22.38 C 0 km/h
1793 09-07-2009 16:00:00 23.14 C 5.84 g/m*3 23.14 C 0 km/h
1794 09-07-2009 17:00:00 22 C 6.17 g/m*3 22 C 0 km/h
1795 09-07-2009 18:00:00 18.86 C 7.56 g/m*3 18.86 C 0 km/h
1796 09-07-2009 19:00:00 14.96 C 9.52 g/m*3 14.96 C 0 km/h
1797 09-07-2009 20:00:00 14.46 C 9.8 g/m*3 14.46 C 0 km/h
1798 09-07-2009 21:00:00 14.14 C 9.56 g/m*3 14.14 C 0 km/h
1799 09-07-2009 22:00:00 14.26 C 8.9 g/m*3 14.26 C 0 km/h
1800 09-07-2009 23:00:00 14.28 C 8.93 g/m*3 14.28 C 0 km/h
Sensor: Nr:Datum:Temp:Abs-Feuchte:Windchill:Wind:
Aussen-T/F 1801 10-07-2009 00:00:00 13.44 C 8.65 g/m*3 13.44 C 0 km/h
1802 10-07-2009 01:00:00 13.28 C 8.52 g/m*3 13.28 C 0 km/h
1803 10-07-2009 02:00:00 13.28 C 8.58 g/m*3 13.28 C 0 km/h
1804 10-07-2009 03:00:00 13.36 C 8.6 g/m*3 13.36 C 0 km/h
1805 10-07-2009 04:00:00 13.48 C 8.62 g/m*3 13.48 C 0 km/h
1806 10-07-2009 05:00:00 13.18 C 8.65 g/m*3 13.18 C 0 km/h
1807 10-07-2009 06:00:00 13.14 C 8.44 g/m*3 13.14 C 0 km/h
1808 10-07-2009 07:00:00 13.3 C 8.27 g/m*3 13.3 C 0 km/h
1809 10-07-2009 08:00:00 13.76 C 8.08 g/m*3 13.76 C 0 km/h
1810 10-07-2009 09:00:00 15.3 C 7.94 g/m*3 15.3 C 0 km/h
1811 10-07-2009 10:00:00 15.9 C 7.8 g/m*3 15.9 C 0 km/h
1812 10-07-2009 11:00:00 15.68 C 7.8 g/m*3 15.68 C 0 km/h
1813 10-07-2009 12:00:00 17.76 C 6.6 g/m*3 17.76 C 0 km/h
1814 10-07-2009 13:00:00 17.28 C 6.27 g/m*3 17.28 C 0 km/h
1815 10-07-2009 14:00:00 17.7 C 6.1 g/m*3 17.7 C 0 km/h
1816 10-07-2009 15:00:00 17.22 C 6.04 g/m*3 17.22 C 0 km/h
1817 10-07-2009 16:00:00 16.54 C 6.45 g/m*3 16.54 C 0 km/h
1818 10-07-2009 17:00:00 16.52 C 6.44 g/m*3 16.52 C 0 km/h
1819 10-07-2009 18:00:00 16.52 C 6.55 g/m*3 16.52 C 0 km/h
1820 10-07-2009 19:00:00 16.6 C 6.84 g/m*3 16.6 C 0 km/h
1821 10-07-2009 20:00:00 16.46 C 6.92 g/m*3 16.46 C 0 km/h
1822 10-07-2009 21:00:00 15.28 C 8.19 g/m*3 15.28 C 0 km/h
1823 10-07-2009 22:00:00 14.74 C 8.61 g/m*3 14.74 C 0 km/h
1824 10-07-2009 23:00:00 14.38 C 8.57 g/m*3 14.38 C 0 km/h
1825 11-07-2009 00:00:00 14.16 C 8.31 g/m*3 14.16 C 0 km/h
Sensor: Nr:Datum:Temp:Abs-Feuchte:Windchill:Wind:
Aussen-T/F 1826 11-07-2009 01:00:00 14.12 C 8.26 g/m*3 14.12 C 0 km/h
1827 11-07-2009 02:00:00 14.08 C 8.46 g/m*3 14.08 C 0 km/h
1828 11-07-2009 03:00:00 13.88 C 8.48 g/m*3 13.88 C 0 km/h
1829 11-07-2009 04:00:00 13.86 C 8.51 g/m*3 13.86 C 0 km/h
1830 11-07-2009 05:00:00 13.64 C 8.31 g/m*3 13.64 C 0 km/h
1831 11-07-2009 06:00:00 13.76 C 8.34 g/m*3 13.76 C 0 km/h
1832 11-07-2009 07:00:00 14.16 C 8.48 g/m*3 14.16 C 0 km/h
1833 11-07-2009 08:00:00 15.44 C 8.17 g/m*3 15.44 C 0 km/h
1834 11-07-2009 09:00:00 16.38 C 7.75 g/m*3 16.38 C 0 km/h
1835 11-07-2009 10:00:00 17.96 C 7.85 g/m*3 17.96 C 0 km/h
1836 11-07-2009 11:00:00 19.2 C 7.82 g/m*3 19.2 C 0 km/h
1837 11-07-2009 12:00:00 20.16 C 7.64 g/m*3 20.16 C 0 km/h
1838 11-07-2009 13:00:00 20.88 C 7.64 g/m*3 20.88 C 0 km/h
1839 11-07-2009 14:00:00 20.44 C 7.38 g/m*3 20.44 C 0 km/h
1840 11-07-2009 15:00:00 20.4 C 7.43 g/m*3 20.4 C 0 km/h
1841 11-07-2009 16:00:00 21.02 C 7.45 g/m*3 21.02 C 0 km/h
1842 11-07-2009 17:00:00 20.54 C 7.42 g/m*3 20.54 C 0 km/h
1843 11-07-2009 18:00:00 21.3 C 7.49 g/m*3 21.3 C 0 km/h
1844 11-07-2009 19:00:00 21.18 C 7.59 g/m*3 21.18 C 0 km/h
1845 11-07-2009 20:00:00 20.02 C 7.92 g/m*3 20.02 C 0 km/h
1846 11-07-2009 21:00:00 18.9 C 8.26 g/m*3 18.9 C 0 km/h
1847 11-07-2009 22:00:00 18.22 C 8.4 g/m*3 18.22 C 0 km/h
1848 11-07-2009 23:00:00 17.66 C 8.67 g/m*3 17.66 C 0 km/h
1849 12-07-2009 00:00:00 17.1 C 8.85 g/m*3 17.1 C 0 km/h
1850 12-07-2009 01:00:00 16.02 C 9.09 g/m*3 16.02 C 0 km/h
Sensor: Nr:Datum:Temp:Abs-Feuchte:Windchill:Wind:
Aussen-T/F 1851 12-07-2009 02:00:00 15.26 C 9.38 g/m*3 15.26 C 0 km/h
1852 12-07-2009 03:00:00 14.32 C 9.4 g/m*3 14.32 C 0 km/h
1853 12-07-2009 04:00:00 14.52 C 9.56 g/m*3 14.52 C 0 km/h
1854 12-07-2009 05:00:00 14.62 C 9.57 g/m*3 14.62 C 0 km/h
1855 12-07-2009 06:00:00 14.68 C 9.63 g/m*3 14.68 C 0 km/h
1856 12-07-2009 07:00:00 15.04 C 9.46 g/m*3 15.04 C 0 km/h
1857 12-07-2009 08:00:00 15.74 C 10.25 g/m*3 15.74 C 0 km/h
1858 12-07-2009 09:00:00 16.64 C 11.02 g/m*3 16.64 C 0 km/h
1859 12-07-2009 10:00:00 17.32 C 11.62 g/m*3 17.32 C 0 km/h
1860 12-07-2009 11:00:00 18.52 C 11.82 g/m*3 18.52 C 0 km/h
1861 12-07-2009 12:00:00 19.28 C 11.96 g/m*3 19.28 C 0 km/h
1862 12-07-2009 13:00:00 22.94 C 10.61 g/m*3 22.94 C 0 km/h
1863 12-07-2009 14:00:00 24.92 C 10.04 g/m*3 24.92 C 0 km/h
1864 12-07-2009 15:00:00 25.5 C 9.8 g/m*3 25.5 C 0 km/h
1865 12-07-2009 16:00:00 23.42 C 10.44 g/m*3 23.42 C 0 km/h
1866 12-07-2009 17:00:00 25.36 C 10.19 g/m*3 25.36 C 0 km/h
1867 12-07-2009 18:00:00 24.92 C 10.17 g/m*3 24.92 C 0 km/h
1868 12-07-2009 19:00:00 24.84 C 10.04 g/m*3 24.84 C 0 km/h
1869 12-07-2009 20:00:00 23.12 C 10.64 g/m*3 23.12 C 0 km/h
1870 12-07-2009 21:00:00 21.4 C 10.99 g/m*3 21.4 C 0 km/h
1871 12-07-2009 22:00:00 20.04 C 11.4 g/m*3 20.04 C 0 km/h
1872 12-07-2009 23:00:00 18.94 C 11.69 g/m*3 18.94 C 0 km/h
1873 13-07-2009 00:00:00 18.3 C 11.73 g/m*3 18.3 C 0 km/h
1874 13-07-2009 01:00:00 17.76 C 11.93 g/m*3 17.76 C 0 km/h
1875 13-07-2009 02:00:00 17.28 C 12.04 g/m*3 17.28 C 0 km/h
Sensor: Nr:Datum:Temp:Abs-Feuchte:Windchill:Wind:
Aussen-T/F 1876 13-07-2009 03:00:00 17.36 C 11.95 g/m*3 17.36 C 0 km/h
1877 13-07-2009 04:00:00 17.38 C 11.99 g/m*3 17.38 C 0 km/h
1878 13-07-2009 05:00:00 16.82 C 12.37 g/m*3 16.82 C 0 km/h
1879 13-07-2009 06:00:00 16.42 C 12.8 g/m*3 16.42 C 0 km/h
1880 13-07-2009 07:00:00 17.3 C 13.61 g/m*3 17.3 C 0 km/h
1881 13-07-2009 08:00:00 17.82 C 13.65 g/m*3 17.82 C 0 km/h
1882 13-07-2009 09:00:00 19.5 C 13.53 g/m*3 19.5 C 0 km/h
1883 13-07-2009 10:00:00 21.14 C 12.78 g/m*3 21.14 C 0 km/h
1884 13-07-2009 11:00:00 22.62 C 9.57 g/m*3 22.62 C 0 km/h
1885 13-07-2009 12:00:00 25.22 C 7.78 g/m*3 25.22 C 0 km/h
1886 13-07-2009 13:00:00 27.96 C 6.89 g/m*3 27.96 C 0 km/h
1887 13-07-2009 14:00:00 28 C 6.96 g/m*3 28 C 0 km/h
1888 13-07-2009 15:00:00 28.84 C 7.52 g/m*3 28.84 C 0 km/h
1889 13-07-2009 16:00:00 29.8 C 8.28 g/m*3 29.8 C 0 km/h
1890 13-07-2009 17:00:00 28.96 C 9.74 g/m*3 28.96 C 0 km/h
1891 13-07-2009 18:00:00 26.56 C 11 g/m*3 26.56 C 0 km/h
1892 13-07-2009 19:00:00 23.2 C 12.81 g/m*3 23.2 C 0 km/h
1893 13-07-2009 20:00:00 21.78 C 13.61 g/m*3 21.78 C 0 km/h
1894 13-07-2009 21:00:00 22.22 C 12.93 g/m*3 22.22 C 0 km/h
1895 13-07-2009 22:00:00 20.38 C 14.03 g/m*3 20.38 C 0 km/h
1896 13-07-2009 23:00:00 19.84 C 14.35 g/m*3 19.84 C 0 km/h
1897 14-07-2009 00:00:00 19.4 C 13.91 g/m*3 19.4 C 0 km/h
1898 14-07-2009 01:00:00 18.8 C 14.27 g/m*3 18.8 C 0 km/h
1899 14-07-2009 02:00:00 18.74 C 14.57 g/m*3 18.74 C 0 km/h
1900 14-07-2009 03:00:00 18.8 C 14.74 g/m*3 18.8 C 0 km/h
Sensor: Nr:Datum:Temp:Abs-Feuchte:Windchill:Wind:
Aussen-T/F 1901 14-07-2009 04:00:00 18.72 C 14.71 g/m*3 18.72 C 0 km/h
1902 14-07-2009 05:00:00 18.72 C 14.62 g/m*3 18.72 C 0 km/h
1903 14-07-2009 06:00:00 18.62 C 14.63 g/m*3 18.62 C 0 km/h
1904 14-07-2009 07:00:00 19.08333 C 14.88 g/m*3 19.08 C 0 km/h
1905 14-07-2009 08:00:00 19.72 C 14.93 g/m*3 19.72 C 0 km/h
1906 14-07-2009 09:00:00 21.32 C 14.56 g/m*3 21.32 C 0 km/h
1907 14-07-2009 10:00:00 21.6 C 13.92 g/m*3 21.6 C 0 km/h
1908 14-07-2009 11:00:00 23.42 C 13.14 g/m*3 23.42 C 0 km/h
1909 14-07-2009 12:00:00 26.08 C 11.44 g/m*3 26.08 C 0 km/h
1910 14-07-2009 13:00:00 27.76 C 10.31 g/m*3 27.76 C 0 km/h
1911 14-07-2009 14:00:00 27.54 C 10.18 g/m*3 27.54 C 0 km/h
1912 14-07-2009 15:00:00 28.36 C 10.21 g/m*3 28.36 C 0 km/h
1913 14-07-2009 16:00:00 29.02 C 9.78 g/m*3 29.02 C 0 km/h
1914 14-07-2009 17:00:00 28.7 C 10.06 g/m*3 28.7 C 0 km/h
1915 14-07-2009 18:00:00 29.22 C 9.83 g/m*3 29.22 C 0 km/h
1916 14-07-2009 19:00:00 29.4 C 9.98 g/m*3 29.4 C 0 km/h
1917 14-07-2009 20:00:00 28.64 C 10.53 g/m*3 28.64 C 0 km/h
1918 14-07-2009 21:00:00 24.96 C 11.81 g/m*3 24.96 C 0 km/h
1919 14-07-2009 22:00:00 22.68 C 12.59 g/m*3 22.68 C 0 km/h
1920 14-07-2009 23:00:00 22.24 C 12.95 g/m*3 22.24 C 0 km/h
1921 15-07-2009 00:00:00 22.4 C 12.59 g/m*3 22.4 C 0 km/h
1922 15-07-2009 01:00:00 21.52 C 12.76 g/m*3 21.52 C 0 km/h
1923 15-07-2009 02:00:00 21.02 C 12.36 g/m*3 21.02 C 0 km/h
1924 15-07-2009 03:00:00 20.7 C 11.92 g/m*3 20.7 C 0 km/h
1925 15-07-2009 04:00:00 20.04 C 11.5 g/m*3 20.04 C 0 km/h
Sensor: Nr:Datum:Temp:Abs-Feuchte:Windchill:Wind:
Aussen-T/F 1926 15-07-2009 05:00:00 19.84 C 11.68 g/m*3 19.84 C 0 km/h
1927 15-07-2009 06:00:00 19.84 C 11.74 g/m*3 19.84 C 0 km/h
1928 15-07-2009 07:00:00 20.56 C 11.82 g/m*3 20.56 C 0 km/h
1929 15-07-2009 08:00:00 21 C 11.36 g/m*3 21 C 0 km/h
1930 15-07-2009 09:00:00 22.16 C 11.24 g/m*3 22.16 C 0 km/h
1931 15-07-2009 10:00:00 23.56 C 10.99 g/m*3 23.56 C 0 km/h
1932 15-07-2009 11:00:00 24.96 C 10.29 g/m*3 24.96 C 0 km/h
1933 15-07-2009 12:00:00 26.84 C 8.57 g/m*3 26.84 C 0 km/h
1934 15-07-2009 13:00:00 28.36 C 7.54 g/m*3 28.36 C 0 km/h
1935 15-07-2009 14:00:00 28.36 C 7.05 g/m*3 28.36 C 0 km/h
1936 15-07-2009 15:00:00 29.78 C 6.65 g/m*3 29.78 C 0 km/h
1937 15-07-2009 16:00:00 29.5 C 6.91 g/m*3 29.5 C 0 km/h
1938 15-07-2009 17:00:00 28.86 C 6.73 g/m*3 28.86 C 0 km/h
1939 15-07-2009 18:00:00 28.02 C 6.86 g/m*3 28.02 C 0 km/h
1940 15-07-2009 19:00:00 28.16 C 6.97 g/m*3 28.16 C 0 km/h
1941 15-07-2009 20:00:00 26.86 C 7.1 g/m*3 26.86 C 0 km/h
1942 15-07-2009 21:00:00 23.46 C 7.98 g/m*3 23.46 C 0 km/h
1943 15-07-2009 22:00:00 21.4 C 8.92 g/m*3 21.4 C 0 km/h
1944 15-07-2009 23:00:00 19.94 C 9.2 g/m*3 19.94 C 0 km/h
1945 16-07-2009 00:00:00 18.68 C 9.63 g/m*3 18.68 C 0 km/h
1946 16-07-2009 01:00:00 17.52 C 9.91 g/m*3 17.52 C 0 km/h
1947 16-07-2009 02:00:00 16.8 C 10.18 g/m*3 16.8 C 0 km/h
1948 16-07-2009 03:00:00 16.36 C 10.14 g/m*3 16.36 C 0 km/h
1949 16-07-2009 04:00:00 15.9 C 10.29 g/m*3 15.9 C 0 km/h
1950 16-07-2009 05:00:00 15.54 C 10.26 g/m*3 15.54 C 0 km/h
Sensor: Nr:Datum:Temp:Abs-Feuchte:Windchill:Wind:
Aussen-T/F 1951 16-07-2009 06:00:00 15.78 C 10.49 g/m*3 15.78 C 0 km/h
1952 16-07-2009 07:00:00 16.56 C 10.4 g/m*3 16.56 C 0 km/h
1953 16-07-2009 08:00:00 17.56 C 10.47 g/m*3 17.56 C 0 km/h
1954 16-07-2009 09:00:00 20.28 C 10.79 g/m*3 20.28 C 0 km/h
1955 16-07-2009 10:00:00 23.28 C 9.9 g/m*3 23.28 C 0 km/h
1956 16-07-2009 11:00:00 25.38 C 7.95 g/m*3 25.38 C 0 km/h
1957 16-07-2009 12:00:00 28.62 C 6.3 g/m*3 28.62 C 0 km/h
1958 16-07-2009 13:00:00 30.54 C 6.24 g/m*3 30.54 C 0 km/h
1959 16-07-2009 14:00:00 30.28 C 6.16 g/m*3 30.28 C 0 km/h
1960 16-07-2009 15:00:00 31.04 C 6.41 g/m*3 31.04 C 0 km/h
1961 16-07-2009 16:00:00 31.3 C 6.76 g/m*3 31.3 C 0 km/h
1962 16-07-2009 17:00:00 29.74 C 8.85 g/m*3 29.74 C 0 km/h
1963 16-07-2009 18:00:00 31.22 C 8.35 g/m*3 31.22 C 0 km/h
1964 16-07-2009 19:00:00 32.06 C 7.65 g/m*3 32.06 C 0 km/h
1965 16-07-2009 20:00:00 27.96 C 9.06 g/m*3 27.96 C 0 km/h
1966 16-07-2009 21:00:00 24.22 C 8.81 g/m*3 24.22 C 0 km/h
1967 16-07-2009 22:00:00 22.55 C 9.36 g/m*3 22.55 C 0 km/h
1968 16-07-2009 23:00:00 21.66 C 9.71 g/m*3 21.66 C 0 km/h
1969 17-07-2009 00:00:00 21.22 C 9.72 g/m*3 21.22 C 0 km/h
1970 17-07-2009 01:00:00 20.48 C 9.85 g/m*3 20.48 C 0 km/h
1971 17-07-2009 02:00:00 19.98 C 9.94 g/m*3 19.98 C 0 km/h
1972 17-07-2009 03:00:00 19.68 C 10.11 g/m*3 19.68 C 0 km/h
1973 17-07-2009 04:00:00 19.44 C 10.47 g/m*3 19.44 C 0 km/h
1974 17-07-2009 05:00:00 19.08 C 10.48 g/m*3 19.08 C 0 km/h
1975 17-07-2009 06:00:00 19.06 C 10.76 g/m*3 19.06 C 0 km/h
Sensor: Nr:Datum:Temp:Abs-Feuchte:Windchill:Wind:
Aussen-T/F 1976 17-07-2009 07:00:00 18.84 C 12.04 g/m*3 18.84 C 0 km/h
1977 17-07-2009 08:00:00 18.14 C 13.54 g/m*3 18.14 C 0 km/h
1978 17-07-2009 09:00:00 18.9 C 14 g/m*3 18.9 C 0 km/h
1979 17-07-2009 10:00:00 20.74 C 12.7 g/m*3 20.74 C 0 km/h
1980 17-07-2009 11:00:00 22.3 C 10.98 g/m*3 22.3 C 0 km/h
1981 17-07-2009 12:00:00 22.08 C 9.48 g/m*3 22.08 C 0 km/h
1982 17-07-2009 13:00:00 24.74 C 8.03 g/m*3 24.74 C 0 km/h
1983 17-07-2009 14:00:00 25.56 C 7.13 g/m*3 25.56 C 0 km/h
1984 17-07-2009 15:00:00 24.44 C 7.14 g/m*3 24.44 C 0 km/h
1985 17-07-2009 16:00:00 24.3 C 6.95 g/m*3 24.3 C 0 km/h
1986 17-07-2009 17:00:00 22.7 C 7.39 g/m*3 22.7 C 0 km/h
1987 17-07-2009 18:00:00 21.92 C 6.8 g/m*3 21.92 C 0 km/h
1988 17-07-2009 19:00:00 21.16 C 7.65 g/m*3 21.16 C 0 km/h
1989 17-07-2009 20:00:00 20.18 C 7.96 g/m*3 20.18 C 0 km/h
1990 17-07-2009 21:00:00 19.48 C 8.31 g/m*3 19.48 C 0 km/h
1991 17-07-2009 22:00:00 18.88 C 8.41 g/m*3 18.88 C 0 km/h
1992 17-07-2009 23:00:00 18.52 C 9.22 g/m*3 18.52 C 0 km/h
1993 18-07-2009 00:00:00 18.12 C 9.22 g/m*3 18.12 C 0 km/h
1994 18-07-2009 01:00:00 17.04 C 9.2 g/m*3 17.04 C 0 km/h
1995 18-07-2009 02:00:00 16.82 C 8.65 g/m*3 16.82 C 0 km/h
1996 18-07-2009 03:00:00 16.32 C 8.67 g/m*3 16.32 C 0 km/h
1997 18-07-2009 04:00:00 15.44 C 8.53 g/m*3 15.44 C 0 km/h
1998 18-07-2009 05:00:00 14.94 C 8.41 g/m*3 14.94 C 0 km/h
1999 18-07-2009 06:00:00 15.08 C 8.4 g/m*3 15.08 C 0 km/h
2000 18-07-2009 07:00:00 15 C 8.64 g/m*3 15 C 0 km/h
Sensor: Nr:Datum:Temp:Abs-Feuchte:Windchill:Wind:
Aussen-T/F 2001 18-07-2009 08:00:00 16.1 C 8.94 g/m*3 16.1 C 0 km/h
2002 18-07-2009 09:00:00 17 C 8.25 g/m*3 17 C 0 km/h
2003 18-07-2009 10:00:00 17.38 C 8.02 g/m*3 17.38 C 0 km/h
2004 18-07-2009 11:00:00 18.44 C 7.6 g/m*3 18.44 C 0 km/h
2005 18-07-2009 12:00:00 19.24 C 7.4 g/m*3 19.24 C 0 km/h
2006 18-07-2009 13:00:00 18.34 C 7.87 g/m*3 18.34 C 0 km/h
2007 18-07-2009 14:00:00 18.14 C 7.9 g/m*3 18.14 C 0 km/h
2008 18-07-2009 15:00:00 17.94 C 7.59 g/m*3 17.94 C 0 km/h
2009 18-07-2009 16:00:00 18 C 8.51 g/m*3 18 C 0 km/h
2010 18-07-2009 17:00:00 17.66 C 10.11 g/m*3 17.66 C 0 km/h
2011 18-07-2009 18:00:00 19.72 C 10.34 g/m*3 19.72 C 0 km/h
2012 18-07-2009 19:00:00 21.94 C 8.82 g/m*3 21.94 C 0 km/h
2013 18-07-2009 20:00:00 20.88 C 7.06 g/m*3 20.88 C 0 km/h
2014 18-07-2009 21:00:00 18.66 C 7.38 g/m*3 18.66 C 0 km/h
2015 18-07-2009 22:00:00 17.34 C 7.83 g/m*3 17.34 C 0 km/h
2016 18-07-2009 23:00:00 16.26 C 8.25 g/m*3 16.26 C 0 km/h
2017 19-07-2009 00:00:00 15.36 C 8.34 g/m*3 15.36 C 0 km/h
2018 19-07-2009 01:00:00 14.46 C 8.56 g/m*3 14.46 C 0 km/h
2019 19-07-2009 02:00:00 14.74 C 8.38 g/m*3 14.74 C 0 km/h
2020 19-07-2009 03:00:00 15.02 C 8.14 g/m*3 15.02 C 0 km/h
2021 19-07-2009 04:00:00 14.94 C 8.59 g/m*3 14.94 C 0 km/h
2022 19-07-2009 05:00:00 14.24 C 9.72 g/m*3 14.24 C 0 km/h
2023 19-07-2009 06:00:00 14.56 C 10.01 g/m*3 14.56 C 0 km/h
2024 19-07-2009 07:00:00 15.32 C 9.99 g/m*3 15.32 C 0 km/h
2025 19-07-2009 08:00:00 15.48 C 10.3 g/m*3 15.48 C 0 km/h
Sensor: Nr:Datum:Temp:Abs-Feuchte:Windchill:Wind:
Aussen-T/F 2026 19-07-2009 09:00:00 16.74 C 10.23 g/m*3 16.74 C 0 km/h
2027 19-07-2009 10:00:00 18.54 C 9.52 g/m*3 18.54 C 0 km/h
2028 19-07-2009 11:00:00 18.36 C 10.04 g/m*3 18.36 C 0 km/h
2029 19-07-2009 12:00:00 19.3 C 9.92 g/m*3 19.3 C 0 km/h
2030 19-07-2009 13:00:00 20.22 C 7.7 g/m*3 20.22 C 0 km/h
2031 19-07-2009 14:00:00 21.5 C 6.98 g/m*3 21.5 C 0 km/h
2032 19-07-2009 15:00:00 21.46 C 7.83 g/m*3 21.46 C 0 km/h
2033 19-07-2009 16:00:00 19.2 C 8.71 g/m*3 19.2 C 0 km/h
2034 19-07-2009 17:00:00 21.08 C 7.91 g/m*3 21.08 C 0 km/h
2035 19-07-2009 18:00:00 22.5 C 7.11 g/m*3 22.5 C 0 km/h
2036 19-07-2009 19:00:00 21.7 C 6.87 g/m*3 21.7 C 0 km/h
2037 19-07-2009 20:00:00 20.98 C 7.03 g/m*3 20.98 C 0 km/h
2038 19-07-2009 21:00:00 19.04 C 6.96 g/m*3 19.04 C 0 km/h
2039 19-07-2009 22:00:00 17.9 C 7.18 g/m*3 17.9 C 0 km/h
2040 19-07-2009 23:00:00 17.48 C 7.51 g/m*3 17.48 C 0 km/h
2041 20-07-2009 00:00:00 17.78 C 7.16 g/m*3 17.78 C 0 km/h
2042 20-07-2009 01:00:00 17.1 C 7.34 g/m*3 17.1 C 0 km/h
2043 20-07-2009 02:00:00 16.52 C 7.82 g/m*3 16.52 C 0 km/h
2044 20-07-2009 03:00:00 15.96 C 8.1 g/m*3 15.96 C 0 km/h
2045 20-07-2009 04:00:00 15.68 C 8.47 g/m*3 15.68 C 0 km/h
2046 20-07-2009 05:00:00 15.52 C 8.76 g/m*3 15.52 C 0 km/h
2047 20-07-2009 06:00:00 15.54 C 9.01 g/m*3 15.54 C 0 km/h
2048 20-07-2009 07:00:00 16.18 C 9.34 g/m*3 16.18 C 0 km/h
2049 20-07-2009 08:00:00 17.42 C 9.14 g/m*3 17.42 C 0 km/h
2050 20-07-2009 09:00:00 18.86 C 8.76 g/m*3 18.86 C 0 km/h
Sensor: Nr:Datum:Temp:Abs-Feuchte:Windchill:Wind:
Aussen-T/F 2051 20-07-2009 10:00:00 19.8 C 7.96 g/m*3 19.8 C 0 km/h
2052 20-07-2009 11:00:00 20.5 C 7.69 g/m*3 20.5 C 0 km/h
2053 20-07-2009 12:00:00 21.2 C 7.34 g/m*3 21.2 C 0 km/h
2054 20-07-2009 13:00:00 22.38 C 6.94 g/m*3 22.38 C 0 km/h
2055 20-07-2009 14:00:00 24 C 6.31 g/m*3 24 C 0 km/h
2056 20-07-2009 15:00:00 24.82 C 5.97 g/m*3 24.82 C 0 km/h
2057 20-07-2009 16:00:00 24.6 C 6.08 g/m*3 24.6 C 0 km/h
2058 20-07-2009 17:00:00 24.72 C 5.89 g/m*3 24.72 C 0 km/h
2059 20-07-2009 18:00:00 24.06 C 6.29 g/m*3 24.06 C 0 km/h
2060 20-07-2009 19:00:00 23.7 C 6.46 g/m*3 23.7 C 0 km/h
2061 20-07-2009 20:00:00 22.44 C 6.81 g/m*3 22.44 C 0 km/h
2062 20-07-2009 21:00:00 20.1 C 7.47 g/m*3 20.1 C 0 km/h
2063 20-07-2009 22:00:00 18.7 C 7.91 g/m*3 18.7 C 0 km/h
2064 20-07-2009 23:00:00 18.24 C 8.07 g/m*3 18.24 C 0 km/h
2065 21-07-2009 00:00:00 17.72 C 8.31 g/m*3 17.72 C 0 km/h
2066 21-07-2009 01:00:00 17.6 C 8.7 g/m*3 17.6 C 0 km/h
2067 21-07-2009 02:00:00 17 C 9.26 g/m*3 17 C 0 km/h
2068 21-07-2009 03:00:00 15.24 C 10.57 g/m*3 15.24 C 0 km/h
2069 21-07-2009 04:00:00 15.34 C 11.02 g/m*3 15.34 C 0 km/h
2070 21-07-2009 05:00:00 15.5 C 10.87 g/m*3 15.5 C 0 km/h
2071 21-07-2009 06:00:00 15.38 C 10.66 g/m*3 15.38 C 0 km/h
2072 21-07-2009 07:00:00 16.12 C 11.01 g/m*3 16.12 C 0 km/h
2073 21-07-2009 08:00:00 17.32 C 11.5 g/m*3 17.32 C 0 km/h
2074 21-07-2009 09:00:00 20.02 C 10.66 g/m*3 20.02 C 0 km/h
2075 21-07-2009 10:00:00 22.44 C 10.27 g/m*3 22.44 C 0 km/h
Sensor: Nr:Datum:Temp:Abs-Feuchte:Windchill:Wind:
Aussen-T/F 2076 21-07-2009 11:00:00 24.34 C 9.63 g/m*3 24.34 C 0 km/h
2077 21-07-2009 12:00:00 28.16 C 9.27 g/m*3 28.16 C 0 km/h
2078 21-07-2009 13:00:00 30.58 C 8.45 g/m*3 30.58 C 0 km/h
2079 21-07-2009 14:00:00 30.72 C 8.26 g/m*3 30.72 C 0 km/h
2080 21-07-2009 15:00:00 31.52 C 7.83 g/m*3 31.52 C 0 km/h
2081 21-07-2009 16:00:00 31.16 C 8.13 g/m*3 31.16 C 0 km/h
2082 21-07-2009 17:00:00 30.76 C 10.3 g/m*3 30.76 C 0 km/h
2083 21-07-2009 18:00:00 31 C 10.62 g/m*3 31 C 0 km/h
2084 21-07-2009 19:00:00 29 C 11.55 g/m*3 29 C 0 km/h
2085 21-07-2009 20:00:00 26.66 C 11.92 g/m*3 26.66 C 0 km/h
2086 21-07-2009 21:00:00 25.32 C 11.91 g/m*3 25.32 C 0 km/h
2087 21-07-2009 22:00:00 24.64 C 12.23 g/m*3 24.64 C 0 km/h
2088 21-07-2009 23:00:00 23.94 C 12.32 g/m*3 23.94 C 0 km/h
2089 22-07-2009 00:00:00 23.76 C 11.98 g/m*3 23.76 C 0 km/h
2090 22-07-2009 01:00:00 22.58 C 13.4 g/m*3 22.58 C 0 km/h
2091 22-07-2009 02:00:00 20.82 C 14.94 g/m*3 20.82 C 0 km/h
2092 22-07-2009 03:00:00 20.68 C 14.49 g/m*3 20.68 C 0 km/h
2093 22-07-2009 04:00:00 20.28 C 14.05 g/m*3 20.28 C 0 km/h
2094 22-07-2009 05:00:00 19.6 C 13.13 g/m*3 19.6 C 0 km/h
2095 22-07-2009 06:00:00 19.88 C 12.63 g/m*3 19.88 C 0 km/h
2096 22-07-2009 07:00:00 20.96 C 12.1 g/m*3 20.96 C 0 km/h
2097 22-07-2009 08:00:00 21.5 C 12.18 g/m*3 21.5 C 0 km/h
2098 22-07-2009 09:00:00 22.32 C 12.41 g/m*3 22.32 C 0 km/h
2099 22-07-2009 10:00:00 23.82 C 13.05 g/m*3 23.82 C 0 km/h
2100 22-07-2009 11:00:00 24.8 C 11.65 g/m*3 24.8 C 0 km/h
Sensor: Nr:Datum:Temp:Abs-Feuchte:Windchill:Wind:
Aussen-T/F 2101 22-07-2009 12:00:00 26.74 C 10.35 g/m*3 26.74 C 0 km/h
2102 22-07-2009 13:00:00 28.26 C 9.54 g/m*3 28.26 C 0 km/h
2103 22-07-2009 14:00:00 29.44 C 9.53 g/m*3 29.44 C 0 km/h
2104 22-07-2009 15:00:00 29.82 C 9.55 g/m*3 29.82 C 0 km/h
2105 22-07-2009 16:00:00 30.3 C 9.12 g/m*3 30.3 C 0 km/h
2106 22-07-2009 17:00:00 31.18 C 8.47 g/m*3 31.18 C 0 km/h
2107 22-07-2009 18:00:00 31.74 C 7.92 g/m*3 31.74 C 0 km/h
2108 22-07-2009 19:00:00 30.44 C 9.87 g/m*3 30.44 C 0 km/h
2109 22-07-2009 20:00:00 29.94 C 10.22 g/m*3 29.94 C 0 km/h
2110 22-07-2009 21:00:00 25.38 C 10.06 g/m*3 25.38 C 0 km/h
2111 22-07-2009 22:00:00 24.26 C 10.2 g/m*3 24.26 C 0 km/h
2112 22-07-2009 23:00:00 24.04 C 10.42 g/m*3 24.04 C 0 km/h
2113 23-07-2009 00:00:00 22.52 C 12.44 g/m*3 22.52 C 0 km/h
2114 23-07-2009 01:00:00 23.04 C 11.66 g/m*3 23.04 C 0 km/h
2115 23-07-2009 02:00:00 22.8 C 11.58 g/m*3 22.8 C 0 km/h
2116 23-07-2009 03:00:00 21.86 C 11.74 g/m*3 21.86 C 0 km/h
2117 23-07-2009 04:00:00 21.26 C 11.75 g/m*3 21.26 C 0 km/h
2118 23-07-2009 05:00:00 20.92 C 12.18 g/m*3 20.92 C 0 km/h
2119 23-07-2009 06:00:00 20.04 C 13.1 g/m*3 20.04 C 0 km/h
2120 23-07-2009 07:00:00 20.72 C 13.45 g/m*3 20.72 C 0 km/h
2121 23-07-2009 08:00:00 20.1 C 13.7 g/m*3 20.1 C 0 km/h
2122 23-07-2009 09:00:00 18.74 C 13.96 g/m*3 18.74 C 0 km/h
2123 23-07-2009 10:00:00 21.04 C 14.65 g/m*3 21.04 C 0 km/h
2124 23-07-2009 11:00:00 23.4 C 13.84 g/m*3 23.4 C 0 km/h
2125 23-07-2009 12:00:00 25.14 C 11.74 g/m*3 25.14 C 0 km/h
Sensor: Nr:Datum:Temp:Abs-Feuchte:Windchill:Wind:
Aussen-T/F 2126 23-07-2009 13:00:00 24.54 C 10.63 g/m*3 24.54 C 0 km/h
2127 23-07-2009 14:00:00 24.54 C 10.45 g/m*3 24.54 C 0 km/h
2128 23-07-2009 15:00:00 26.04 C 10.05 g/m*3 26.04 C 0 km/h
2129 23-07-2009 16:00:00 26.4 C 10.01 g/m*3 26.4 C 0 km/h
2130 23-07-2009 17:00:00 27.76 C 9.02 g/m*3 27.76 C 0 km/h
2131 23-07-2009 18:00:00 26.62 C 9.58 g/m*3 26.62 C 0 km/h
2132 23-07-2009 19:00:00 24.5 C 10.56 g/m*3 24.5 C 0 km/h
2133 23-07-2009 20:00:00 23.38 C 11.13 g/m*3 23.38 C 0 km/h
2134 23-07-2009 21:00:00 20.4 C 13.13 g/m*3 20.4 C 0 km/h
2135 23-07-2009 22:00:00 19.18 C 13.7 g/m*3 19.18 C 0 km/h
2136 23-07-2009 23:00:00 18.76 C 13.3 g/m*3 18.76 C 0 km/h
2137 24-07-2009 00:00:00 18.94 C 12.96 g/m*3 18.94 C 0 km/h
2138 24-07-2009 01:00:00 18.7 C 12.07 g/m*3 18.7 C 0 km/h
2139 24-07-2009 02:00:00 18.14 C 11.93 g/m*3 18.14 C 0 km/h
2140 24-07-2009 03:00:00 17.88 C 11.96 g/m*3 17.88 C 0 km/h
2141 24-07-2009 04:00:00 17.5 C 11.78 g/m*3 17.5 C 0 km/h
2142 24-07-2009 05:00:00 17.38 C 11.31 g/m*3 17.38 C 0 km/h
2143 24-07-2009 06:00:00 17.42 C 10.74 g/m*3 17.42 C 0 km/h
2144 24-07-2009 07:00:00 18.02 C 10.76 g/m*3 18.02 C 0 km/h
2145 24-07-2009 08:00:00 18.38 C 10.53 g/m*3 18.38 C 0 km/h
2146 24-07-2009 09:00:00 19.16 C 10.27 g/m*3 19.16 C 0 km/h
2147 24-07-2009 10:00:00 18.96 C 11.45 g/m*3 18.96 C 0 km/h
2148 24-07-2009 11:00:00 20.88 C 10.81 g/m*3 20.88 C 0 km/h
2149 24-07-2009 12:00:00 20.14 C 10.66 g/m*3 20.14 C 0 km/h
2150 24-07-2009 13:00:00 22.86 C 8.69 g/m*3 22.86 C 0 km/h
Sensor: Nr:Datum:Temp:Abs-Feuchte:Windchill:Wind:
Aussen-T/F 2151 24-07-2009 14:00:00 23.3 C 7.4 g/m*3 23.3 C 0 km/h
2152 24-07-2009 15:00:00 24.96 C 6.66 g/m*3 24.96 C 0 km/h
2153 24-07-2009 16:00:00 25.48 C 5.82 g/m*3 25.48 C 0 km/h
2154 24-07-2009 17:00:00 25.48 C 6.01 g/m*3 25.48 C 0 km/h
2155 24-07-2009 18:00:00 26.38 C 6.51 g/m*3 26.38 C 0 km/h
2156 24-07-2009 19:00:00 23.9 C 6.32 g/m*3 23.9 C 0 km/h
2157 24-07-2009 20:00:00 20.02 C 7.58 g/m*3 20.02 C 0 km/h
2158 24-07-2009 21:00:00 18.6 C 8.44 g/m*3 18.6 C 0 km/h
2159 24-07-2009 22:00:00 18.08 C 8.12 g/m*3 18.08 C 0 km/h
2160 24-07-2009 23:00:00 17.4 C 8.39 g/m*3 17.4 C 0 km/h
2161 25-07-2009 00:00:00 16.54 C 8.87 g/m*3 16.54 C 0 km/h
2162 25-07-2009 01:00:00 16.28 C 8.98 g/m*3 16.28 C 0 km/h
2163 25-07-2009 02:00:00 16.08 C 9.17 g/m*3 16.08 C 0 km/h
2164 25-07-2009 03:00:00 15.5 C 9.39 g/m*3 15.5 C 0 km/h
2165 25-07-2009 04:00:00 14.8 C 9.2 g/m*3 14.8 C 0 km/h
2166 25-07-2009 05:00:00 14.66 C 8.69 g/m*3 14.66 C 0 km/h
2167 25-07-2009 06:00:00 14.4 C 8.9 g/m*3 14.4 C 0 km/h
2168 25-07-2009 07:00:00 14.5 C 9.1 g/m*3 14.5 C 0 km/h
2169 25-07-2009 08:00:00 15.96 C 8.81 g/m*3 15.96 C 0 km/h
2170 25-07-2009 09:00:00 17.42 C 8.58 g/m*3 17.42 C 0 km/h
2171 25-07-2009 10:00:00 18.74 C 7.93 g/m*3 18.74 C 0 km/h
2172 25-07-2009 11:00:00 19.9 C 7.32 g/m*3 19.9 C 0 km/h
2173 25-07-2009 12:00:00 20.14 C 8.47 g/m*3 20.14 C 0 km/h
2174 25-07-2009 13:00:00 21.74 C 7.61 g/m*3 21.74 C 0 km/h
2175 25-07-2009 14:00:00 22.14 C 7.51 g/m*3 22.14 C 0 km/h
Sensor: Nr:Datum:Temp:Abs-Feuchte:Windchill:Wind:
Aussen-T/F 2176 25-07-2009 15:00:00 22.32 C 7.39 g/m*3 22.32 C 0 km/h
2177 25-07-2009 16:00:00 23.32 C 7.37 g/m*3 23.32 C 0 km/h
2178 25-07-2009 17:00:00 23.52 C 6.82 g/m*3 23.52 C 0 km/h
2179 25-07-2009 18:00:00 20.08 C 8.54 g/m*3 20.08 C 0 km/h
2180 25-07-2009 19:00:00 18.38 C 12 g/m*3 18.38 C 0 km/h
2181 25-07-2009 20:00:00 17.22 C 11.17 g/m*3 17.22 C 0 km/h
2182 25-07-2009 21:00:00 16.38 C 11.07 g/m*3 16.38 C 0 km/h
2183 25-07-2009 22:00:00 16.5 C 11.06 g/m*3 16.5 C 0 km/h
2184 25-07-2009 23:00:00 16.22 C 10.74 g/m*3 16.22 C 0 km/h
2185 26-07-2009 00:00:00 14.72 C 10.13 g/m*3 14.72 C 0 km/h
2186 26-07-2009 01:00:00 13.86 C 9.88 g/m*3 13.86 C 0 km/h
2187 26-07-2009 02:00:00 13.3 C 9.73 g/m*3 13.3 C 0 km/h
2188 26-07-2009 03:00:00 12.76 C 9.61 g/m*3 12.76 C 0 km/h
2189 26-07-2009 04:00:00 12.44 C 9.6 g/m*3 12.44 C 0 km/h
2190 26-07-2009 05:00:00 12.86 C 9.87 g/m*3 12.86 C 0 km/h
2191 26-07-2009 06:00:00 12.86 C 9.62 g/m*3 12.86 C 0 km/h
2192 26-07-2009 07:00:00 13.08 C 9.55 g/m*3 13.08 C 0 km/h
2193 26-07-2009 08:00:00 13.74 C 9.69 g/m*3 13.74 C 0 km/h
2194 26-07-2009 09:00:00 15.12 C 9.97 g/m*3 15.12 C 0 km/h
2195 26-07-2009 10:00:00 17.36 C 10.41 g/m*3 17.36 C 0 km/h
2196 26-07-2009 11:00:00 20.76 C 10.98 g/m*3 20.76 C 0 km/h
2197 26-07-2009 12:00:00 23.72 C 7.84 g/m*3 23.72 C 0 km/h
2198 26-07-2009 13:00:00 25.14 C 6.77 g/m*3 25.14 C 0 km/h
2199 26-07-2009 14:00:00 26.16 C 6.24 g/m*3 26.16 C 0 km/h
2200 26-07-2009 15:00:00 28.28 C 5.85 g/m*3 28.28 C 0 km/h
Sensor: Nr:Datum:Temp:Abs-Feuchte:Windchill:Wind:
Aussen-T/F 2201 26-07-2009 16:00:00 28.42 C 5.79 g/m*3 28.42 C 0 km/h
2202 26-07-2009 17:00:00 29.5 C 5.9 g/m*3 29.5 C 0 km/h
2203 26-07-2009 18:00:00 30.4 C 6.57 g/m*3 30.4 C 0 km/h
2204 26-07-2009 19:00:00 28.52 C 8.17 g/m*3 28.52 C 0 km/h
2205 26-07-2009 20:00:00 24.38 C 8.76 g/m*3 24.38 C 0 km/h
2206 26-07-2009 21:00:00 21.48 C 8.89 g/m*3 21.48 C 0 km/h
2207 26-07-2009 22:00:00 20.34 C 8.64 g/m*3 20.34 C 0 km/h
2208 26-07-2009 23:00:00 19.56 C 8.62 g/m*3 19.56 C 0 km/h
2209 27-07-2009 00:00:00 18.54 C 8.82 g/m*3 18.54 C 0 km/h
2210 27-07-2009 01:00:00 17.38 C 9.06 g/m*3 17.38 C 0 km/h
2211 27-07-2009 02:00:00 16.5 C 9.44 g/m*3 16.5 C 0 km/h
2212 27-07-2009 03:00:00 15.44 C 9.43 g/m*3 15.44 C 0 km/h
2213 27-07-2009 04:00:00 14.5 C 9.2 g/m*3 14.5 C 0 km/h
2214 27-07-2009 05:00:00 13.78 C 9.02 g/m*3 13.78 C 0 km/h
2215 27-07-2009 06:00:00 13.46 C 9.1 g/m*3 13.46 C 0 km/h
2216 27-07-2009 07:00:00 13.88 C 9.53 g/m*3 13.88 C 0 km/h
2217 27-07-2009 08:00:00 15.06 C 9.94 g/m*3 15.06 C 0 km/h
2218 27-07-2009 09:00:00 17.68 C 10.37 g/m*3 17.68 C 0 km/h
2219 27-07-2009 10:00:00 21.52 C 10.65 g/m*3 21.52 C 0 km/h
2220 27-07-2009 11:00:00 25.1 C 9.31 g/m*3 25.1 C 0 km/h
2221 27-07-2009 12:00:00 27.48 C 7.4 g/m*3 27.48 C 0 km/h
2222 27-07-2009 13:00:00 29.66 C 6.31 g/m*3 29.66 C 0 km/h
2223 27-07-2009 14:00:00 30.42 C 7.01 g/m*3 30.42 C 0 km/h
2224 27-07-2009 15:00:00 29.6 C 6.41 g/m*3 29.6 C 0 km/h
2225 27-07-2009 16:00:00 29.7 C 7.28 g/m*3 29.7 C 0 km/h
Sensor: Nr:Datum:Temp:Abs-Feuchte:Windchill:Wind:
Aussen-T/F 2226 27-07-2009 17:00:00 27.4 C 7.42 g/m*3 27.4 C 0 km/h
2227 27-07-2009 18:00:00 22.02 C 10.92 g/m*3 22.02 C 0 km/h
2228 27-07-2009 19:00:00 19.24 C 13.52 g/m*3 19.24 C 0 km/h
2229 27-07-2009 20:00:00 20.36 C 13.48 g/m*3 20.36 C 0 km/h
2230 27-07-2009 21:00:00 19.4 C 12.68 g/m*3 19.4 C 0 km/h
2231 27-07-2009 22:00:00 18.68 C 12.54 g/m*3 18.68 C 0 km/h
2232 27-07-2009 23:00:00 17.76 C 11.11 g/m*3 17.76 C 0 km/h
2233 28-07-2009 00:00:00 17.64 C 10.7 g/m*3 17.64 C 0 km/h
2234 28-07-2009 01:00:00 17.5 C 10.41 g/m*3 17.5 C 0 km/h
2235 28-07-2009 02:00:00 16.92 C 8.61 g/m*3 16.92 C 0 km/h
2236 28-07-2009 03:00:00 15.64 C 8.67 g/m*3 15.64 C 0 km/h
2237 28-07-2009 04:00:00 14.22 C 8.66 g/m*3 14.22 C 0 km/h
2238 28-07-2009 05:00:00 13.24 C 8.77 g/m*3 13.24 C 0 km/h
2239 28-07-2009 06:00:00 12.84 C 9.14 g/m*3 12.84 C 0 km/h
2240 28-07-2009 07:00:00 13.66 C 9.4 g/m*3 13.66 C 0 km/h
2241 28-07-2009 08:00:00 15.02 C 9.09 g/m*3 15.02 C 0 km/h
2242 28-07-2009 09:00:00 16.72 C 8.59 g/m*3 16.72 C 0 km/h
2243 28-07-2009 10:00:00 18.76 C 7.87 g/m*3 18.76 C 0 km/h
2244 28-07-2009 11:00:00 20.22 C 7.6 g/m*3 20.22 C 0 km/h
2245 28-07-2009 12:00:00 22.42 C 6.88 g/m*3 22.42 C 0 km/h
2246 28-07-2009 13:00:00 25.58 C 6.28 g/m*3 25.58 C 0 km/h
2247 28-07-2009 14:00:00 25.72 C 6.18 g/m*3 25.72 C 0 km/h
2248 28-07-2009 15:00:00 27.14 C 5.76 g/m*3 27.14 C 0 km/h
2249 28-07-2009 16:00:00 28.02 C 5.55 g/m*3 28.02 C 0 km/h
2250 28-07-2009 17:00:00 28.22 C 5.67 g/m*3 28.22 C 0 km/h
Sensor: Nr:Datum:Temp:Abs-Feuchte:Windchill:Wind:
Aussen-T/F 2251 28-07-2009 18:00:00 27.64 C 5.76 g/m*3 27.64 C 0 km/h
2252 28-07-2009 19:00:00 28.38 C 6.22 g/m*3 28.38 C 0 km/h
2253 28-07-2009 20:00:00 25.28 C 6.83 g/m*3 25.28 C 0 km/h
2254 28-07-2009 21:00:00 21.36 C 7.03 g/m*3 21.36 C 0 km/h
2255 28-07-2009 22:00:00 19.5 C 7.17 g/m*3 19.5 C 0 km/h
2256 28-07-2009 23:00:00 18.14 C 7.37 g/m*3 18.14 C 0 km/h
2257 29-07-2009 00:00:00 17.06 C 7.67 g/m*3 17.06 C 0 km/h
2258 29-07-2009 01:00:00 15.96 C 8.16 g/m*3 15.96 C 0 km/h
2259 29-07-2009 02:00:00 15.02 C 8.45 g/m*3 15.02 C 0 km/h
2260 29-07-2009 03:00:00 14.32 C 8.56 g/m*3 14.32 C 0 km/h
2261 29-07-2009 04:00:00 13.6 C 8.59 g/m*3 13.6 C 0 km/h
2262 29-07-2009 05:00:00 12.84 C 8.51 g/m*3 12.84 C 0 km/h
2263 29-07-2009 06:00:00 12.56 C 8.52 g/m*3 12.56 C 0 km/h
2264 29-07-2009 07:00:00 12.68 C 8.78 g/m*3 12.68 C 0 km/h
2265 29-07-2009 08:00:00 13.54 C 9.03 g/m*3 13.54 C 0 km/h
2266 29-07-2009 09:00:00 16.02 C 9.22 g/m*3 16.02 C 0 km/h
2267 29-07-2009 10:00:00 20.02 C 9.34 g/m*3 20.02 C 0 km/h
2268 29-07-2009 11:00:00 23.84 C 8.24 g/m*3 23.84 C 0 km/h
2269 29-07-2009 12:00:00 26.72 C 7.86 g/m*3 26.72 C 0 km/h
2270 29-07-2009 13:00:00 29.38 C 6.74 g/m*3 29.38 C 0 km/h
2271 29-07-2009 14:00:00 30.06 C 7.12 g/m*3 30.06 C 0 km/h
2272 29-07-2009 15:00:00 30.68 C 7.05 g/m*3 30.68 C 0 km/h
2273 29-07-2009 16:00:00 31.4 C 6.93 g/m*3 31.4 C 0 km/h
2274 29-07-2009 17:00:00 31.74 C 7.26 g/m*3 31.74 C 0 km/h
2275 29-07-2009 18:00:00 31.22 C 7.19 g/m*3 31.22 C 0 km/h
Sensor: Nr:Datum:Temp:Abs-Feuchte:Windchill:Wind:
Aussen-T/F 2276 29-07-2009 19:00:00 29.02 C 8.68 g/m*3 29.02 C 0 km/h
2277 29-07-2009 20:00:00 25.72 C 9.06 g/m*3 25.72 C 0 km/h
2278 29-07-2009 21:00:00 23.82 C 8.83 g/m*3 23.82 C 0 km/h
2279 29-07-2009 22:00:00 23.04 C 8.94 g/m*3 23.04 C 0 km/h
2280 29-07-2009 23:00:00 22.42 C 8.95 g/m*3 22.42 C 0 km/h
2281 30-07-2009 00:00:00 22.36 C 9.04 g/m*3 22.36 C 0 km/h
2282 30-07-2009 01:00:00 22.2 C 9.35 g/m*3 22.2 C 0 km/h
2283 30-07-2009 02:00:00 21.06 C 11.21 g/m*3 21.06 C 0 km/h
2284 30-07-2009 03:00:00 18.8 C 13.27 g/m*3 18.8 C 0 km/h
2285 30-07-2009 04:00:00 18.1 C 13.54 g/m*3 18.1 C 0 km/h
2286 30-07-2009 05:00:00 17.74 C 13.22 g/m*3 17.74 C 0 km/h
2287 30-07-2009 06:00:00 17.74 C 13.13 g/m*3 17.74 C 0 km/h
2288 30-07-2009 07:00:00 18.12 C 11.08 g/m*3 18.12 C 0 km/h
2289 30-07-2009 08:00:00 18.24 C 10.16 g/m*3 18.24 C 0 km/h
2290 30-07-2009 09:00:00 19.28 C 9.48 g/m*3 19.28 C 0 km/h
2291 30-07-2009 10:00:00 19.78 C 8.16 g/m*3 19.78 C 0 km/h
2292 30-07-2009 11:00:00 20.68 C 6.98 g/m*3 20.68 C 0 km/h
2293 30-07-2009 12:00:00 21.26 C 6.25 g/m*3 21.26 C 0 km/h
2294 30-07-2009 13:00:00 22.28 C 6.07 g/m*3 22.28 C 0 km/h
2295 30-07-2009 14:00:00 23.6 C 5.91 g/m*3 23.6 C 0 km/h
2296 30-07-2009 15:00:00 24.68 C 5.25 g/m*3 24.68 C 0 km/h
2297 30-07-2009 16:00:00 24.34 C 5.63 g/m*3 24.34 C 0 km/h
2298 30-07-2009 17:00:00 25.08 C 5.46 g/m*3 25.08 C 0 km/h
2299 30-07-2009 18:00:00 24.92 C 5.32 g/m*3 24.92 C 0 km/h
2300 30-07-2009 19:00:00 24.82 C 4.92 g/m*3 24.82 C 0 km/h
Sensor: Nr:Datum:Temp:Abs-Feuchte:Windchill:Wind:
Aussen-T/F 2301 30-07-2009 20:00:00 22.54 C 5.69 g/m*3 22.54 C 0 km/h
2302 30-07-2009 21:00:00 20.8 C 6.27 g/m*3 20.8 C 0 km/h
2303 30-07-2009 22:00:00 19.42 C 6.82 g/m*3 19.42 C 0 km/h
2304 30-07-2009 23:00:00 18.7 C 6.95 g/m*3 18.7 C 0 km/h
2305 31-07-2009 00:00:00 17.54 C 7.11 g/m*3 17.54 C 0 km/h
2306 31-07-2009 01:00:00 16.04 C 7.51 g/m*3 16.04 C 0 km/h
2307 31-07-2009 02:00:00 15.02 C 7.5 g/m*3 15.02 C 0 km/h
2308 31-07-2009 03:00:00 14.14 C 7.49 g/m*3 14.14 C 0 km/h
2309 31-07-2009 04:00:00 13.6 C 7.74 g/m*3 13.6 C 0 km/h
2310 31-07-2009 05:00:00 13.34 C 7.78 g/m*3 13.34 C 0 km/h
2311 31-07-2009 06:00:00 13.08 C 7.82 g/m*3 13.08 C 0 km/h
2312 31-07-2009 07:00:00 13.56 C 8.1 g/m*3 13.56 C 0 km/h
2313 31-07-2009 08:00:00 15 C 7.85 g/m*3 15 C 0 km/h
2314 31-07-2009 09:00:00 17.58 C 7.73 g/m*3 17.58 C 0 km/h
2315 31-07-2009 10:00:00 20 C 6.91 g/m*3 20 C 0 km/h
2316 31-07-2009 11:00:00 22.32 C 6.44 g/m*3 22.32 C 0 km/h
2317 31-07-2009 12:00:00 23.02 C 6.09 g/m*3 23.02 C 0 km/h
2318 31-07-2009 13:00:00 25.52 C 5.93 g/m*3 25.52 C 0 km/h
2319 31-07-2009 14:00:00 25.6 C 5.86 g/m*3 25.6 C 0 km/h
2320 31-07-2009 15:00:00 27.44 C 5.64 g/m*3 27.44 C 0 km/h
2321 31-07-2009 16:00:00 28.72 C 5.66 g/m*3 28.72 C 0 km/h
2322 31-07-2009 17:00:00 27.3 C 5.6 g/m*3 27.3 C 0 km/h
2323 31-07-2009 18:00:00 27.64 C 6.67 g/m*3 27.64 C 0 km/h
2324 31-07-2009 19:00:00 27.62 C 6.34 g/m*3 27.62 C 0 km/h
2325 31-07-2009 20:00:00 24.22 C 7.14 g/m*3 24.22 C 0 km/h
Sensor: Nr:Datum:Temp:Abs-Feuchte:Windchill:Wind:
Aussen-T/F 2326 31-07-2009 21:00:00 21.12 C 7.23 g/m*3 21.12 C 0 km/h
2327 31-07-2009 22:00:00 19.38 C 6.93 g/m*3 19.38 C 0 km/h
2328 31-07-2009 23:00:00 19.02 C 6.66 g/m*3 19.02 C 0 km/h
2329 01-08-2009 00:00:00 17.56 C 6.73 g/m*3 17.56 C 0 km/h
2330 01-08-2009 01:00:00 16.24 C 6.77 g/m*3 16.24 C 0 km/h
2331 01-08-2009 02:00:00 15.08 C 7.01 g/m*3 15.08 C 0 km/h
2332 01-08-2009 03:00:00 14.1 C 7.43 g/m*3 14.1 C 0 km/h
2333 01-08-2009 04:00:00 13.62 C 7.78 g/m*3 13.62 C 0 km/h
2334 01-08-2009 05:00:00 13.56 C 8.03 g/m*3 13.56 C 0 km/h
2335 01-08-2009 06:00:00 13.86 C 8.23 g/m*3 13.86 C 0 km/h
2336 01-08-2009 07:00:00 14.36 C 8.46 g/m*3 14.36 C 0 km/h
2337 01-08-2009 08:00:00 14.7 C 8.56 g/m*3 14.7 C 0 km/h
2338 01-08-2009 09:00:00 17.16 C 8.15 g/m*3 17.16 C 0 km/h
2339 01-08-2009 10:00:00 21.12 C 7.6 g/m*3 21.12 C 0 km/h
2340 01-08-2009 11:00:00 23.78 C 7.69 g/m*3 23.78 C 0 km/h
2341 01-08-2009 12:00:00 26.4 C 8.12 g/m*3 26.4 C 0 km/h
2342 01-08-2009 13:00:00 27.94 C 8.19 g/m*3 27.94 C 0 km/h
2343 01-08-2009 14:00:00 30.28 C 7.88 g/m*3 30.28 C 0 km/h
2344 01-08-2009 15:00:00 31.04 C 7.18 g/m*3 31.04 C 0 km/h
2345 01-08-2009 16:00:00 32.28 C 6.85 g/m*3 32.28 C 0 km/h
2346 01-08-2009 17:00:00 32.44 C 6.91 g/m*3 32.44 C 0 km/h
2347 01-08-2009 18:00:00 33.1 C 7.16 g/m*3 33.1 C 0 km/h
2348 01-08-2009 19:00:00 31.56 C 7.72 g/m*3 31.56 C 0 km/h
2349 01-08-2009 20:00:00 28.06 C 9.39 g/m*3 28.06 C 0 km/h
2350 01-08-2009 21:00:00 24.78 C 9.32 g/m*3 24.78 C 0 km/h
Sensor: Nr:Datum:Temp:Abs-Feuchte:Windchill:Wind:
Aussen-T/F 2351 01-08-2009 22:00:00 23.3 C 9.37 g/m*3 23.3 C 0 km/h
2352 01-08-2009 23:00:00 22.6 C 9.64 g/m*3 22.6 C 0 km/h
2353 02-08-2009 00:00:00 21.58 C 9.59 g/m*3 21.58 C 0 km/h
2354 02-08-2009 01:00:00 20.2 C 9.86 g/m*3 20.2 C 0 km/h
2355 02-08-2009 02:00:00 19.08 C 9.95 g/m*3 19.08 C 0 km/h
2356 02-08-2009 03:00:00 18.66 C 10.32 g/m*3 18.66 C 0 km/h
2357 02-08-2009 04:00:00 17.44 C 11.85 g/m*3 17.44 C 0 km/h
2358 02-08-2009 05:00:00 17.44 C 12.45 g/m*3 17.44 C 0 km/h
2359 02-08-2009 06:00:00 17.46 C 12.64 g/m*3 17.46 C 0 km/h
2360 02-08-2009 07:00:00 18.08 C 13.18 g/m*3 18.08 C 0 km/h
2361 02-08-2009 08:00:00 19.86 C 12.96 g/m*3 19.86 C 0 km/h
2362 02-08-2009 09:00:00 21.3 C 11.26 g/m*3 21.3 C 0 km/h
2363 02-08-2009 10:00:00 22.12 C 10.79 g/m*3 22.12 C 0 km/h
2364 02-08-2009 11:00:00 22.62 C 10.5 g/m*3 22.62 C 0 km/h
2365 02-08-2009 12:00:00 22.08 C 11.07 g/m*3 22.08 C 0 km/h
2366 02-08-2009 13:00:00 23.6 C 10.68 g/m*3 23.6 C 0 km/h
2367 02-08-2009 14:00:00 25.2 C 9.59 g/m*3 25.2 C 0 km/h
2368 02-08-2009 15:00:00 24.9 C 9.43 g/m*3 24.9 C 0 km/h
2369 02-08-2009 16:00:00 23.04 C 10.51 g/m*3 23.04 C 0 km/h
2370 02-08-2009 17:00:00 21.78 C 10.85 g/m*3 21.78 C 0 km/h
2371 02-08-2009 18:00:00 21.46 C 10.72 g/m*3 21.46 C 0 km/h
2372 02-08-2009 19:00:00 20.6 C 10.09 g/m*3 20.6 C 0 km/h
2373 02-08-2009 20:00:00 20.54 C 9.7 g/m*3 20.54 C 0 km/h
2374 02-08-2009 21:00:00 18.6 C 9.52 g/m*3 18.6 C 0 km/h
2375 02-08-2009 22:00:00 17.36 C 9.99 g/m*3 17.36 C 0 km/h
Sensor: Nr:Datum:Temp:Abs-Feuchte:Windchill:Wind:
Aussen-T/F 2376 02-08-2009 23:00:00 16.32 C 10.08 g/m*3 16.32 C 0 km/h
2377 03-08-2009 00:00:00 16.54 C 10.33 g/m*3 16.54 C 0 km/h
2378 03-08-2009 01:00:00 16.36 C 10.39 g/m*3 16.36 C 0 km/h
2379 03-08-2009 02:00:00 16.34 C 10.37 g/m*3 16.34 C 0 km/h
2380 03-08-2009 03:00:00 16.38 C 10.43 g/m*3 16.38 C 0 km/h
2381 03-08-2009 04:00:00 16.24 C 10.56 g/m*3 16.24 C 0 km/h
2382 03-08-2009 05:00:00 15.52 C 10.96 g/m*3 15.52 C 0 km/h
2383 03-08-2009 06:00:00 15.2 C 11.32 g/m*3 15.2 C 0 km/h
2384 03-08-2009 07:00:00 15.66 C 11.64 g/m*3 15.66 C 0 km/h
2385 03-08-2009 08:00:00 16.62 C 11.34 g/m*3 16.62 C 0 km/h
2386 03-08-2009 09:00:00 17.52 C 10.69 g/m*3 17.52 C 0 km/h
2387 03-08-2009 10:00:00 19.56 C 9.57 g/m*3 19.56 C 0 km/h
2388 03-08-2009 11:00:00 22.74 C 8.26 g/m*3 22.74 C 0 km/h
2389 03-08-2009 12:00:00 21.9 C 7.45 g/m*3 21.9 C 0 km/h
2390 03-08-2009 13:00:00 22.56 C 7.82 g/m*3 22.56 C 0 km/h
2391 03-08-2009 14:00:00 25.68 C 6.79 g/m*3 25.68 C 0 km/h
2392 03-08-2009 15:00:00 26.72 C 5.98 g/m*3 26.72 C 0 km/h
2393 03-08-2009 16:00:00 25.1 C 6.16 g/m*3 25.1 C 0 km/h
2394 03-08-2009 17:00:00 21.62 C 6.91 g/m*3 21.62 C 0 km/h
2395 03-08-2009 18:00:00 21.2 C 7.41 g/m*3 21.2 C 0 km/h
2396 03-08-2009 19:00:00 20.7 C 7.38 g/m*3 20.7 C 0 km/h
2397 03-08-2009 20:00:00 19.8 C 7.75 g/m*3 19.8 C 0 km/h
2398 03-08-2009 21:00:00 18.82 C 7.74 g/m*3 18.82 C 0 km/h
2399 03-08-2009 22:00:00 17.82 C 8.39 g/m*3 17.82 C 0 km/h
2400 03-08-2009 23:00:00 16.78 C 9.34 g/m*3 16.78 C 0 km/h
Sensor: Nr:Datum:Temp:Abs-Feuchte:Windchill:Wind:
Aussen-T/F 2401 04-08-2009 00:00:00 15.38 C 9.5 g/m*3 15.38 C 0 km/h
2402 04-08-2009 01:00:00 14.3 C 9.34 g/m*3 14.3 C 0 km/h
2403 04-08-2009 02:00:00 13.42 C 9.59 g/m*3 13.42 C 0 km/h
2404 04-08-2009 03:00:00 12.94 C 9.63 g/m*3 12.94 C 0 km/h
2405 04-08-2009 04:00:00 12.66 C 9.53 g/m*3 12.66 C 0 km/h
2406 04-08-2009 05:00:00 12.3 C 9.21 g/m*3 12.3 C 0 km/h
2407 04-08-2009 06:00:00 12.26 C 9.18 g/m*3 12.26 C 0 km/h
2408 04-08-2009 07:00:00 12.04 C 9.25 g/m*3 12.04 C 0 km/h
2409 04-08-2009 08:00:00 13.16 C 9.32 g/m*3 13.16 C 0 km/h
2410 04-08-2009 09:00:00 13.72 C 9.3 g/m*3 13.72 C 0 km/h
2411 04-08-2009 10:00:00 17.16 C 9.09 g/m*3 17.16 C 0 km/h
2412 04-08-2009 11:00:00 20.96 C 7.35 g/m*3 20.96 C 0 km/h
2413 04-08-2009 12:00:00 23.4 C 5.34 g/m*3 23.4 C 0 km/h
2414 04-08-2009 13:00:00 26.42 C 4.98 g/m*3 26.42 C 0 km/h
2415 04-08-2009 14:00:00 27.66 C 5.34 g/m*3 27.66 C 0 km/h
2416 04-08-2009 15:00:00 29.68 C 5.96 g/m*3 29.68 C 0 km/h
2417 04-08-2009 16:00:00 30.38 C 6.19 g/m*3 30.38 C 0 km/h
2418 04-08-2009 17:00:00 31.84 C 6.69 g/m*3 31.84 C 0 km/h
2419 04-08-2009 18:00:00 31.74 C 6.66 g/m*3 31.74 C 0 km/h
2420 04-08-2009 19:00:00 31.2 C 6.47 g/m*3 31.2 C 0 km/h
2421 04-08-2009 20:00:00 27.52 C 5.67 g/m*3 27.52 C 0 km/h
2422 04-08-2009 21:00:00 22.6 C 5.95 g/m*3 22.6 C 0 km/h
2423 04-08-2009 22:00:00 20.24 C 5.96 g/m*3 20.24 C 0 km/h
2424 04-08-2009 23:00:00 18.76 C 6.11 g/m*3 18.76 C 0 km/h
2425 05-08-2009 00:00:00 17.28 C 6.42 g/m*3 17.28 C 0 km/h
Sensor: Nr:Datum:Temp:Abs-Feuchte:Windchill:Wind:
Aussen-T/F 2426 05-08-2009 01:00:00 16.08 C 6.71 g/m*3 16.08 C 0 km/h
2427 05-08-2009 02:00:00 15.04 C 6.81 g/m*3 15.04 C 0 km/h
2428 05-08-2009 03:00:00 14.14 C 7.11 g/m*3 14.14 C 0 km/h
2429 05-08-2009 04:00:00 13.2 C 7.21 g/m*3 13.2 C 0 km/h
2430 05-08-2009 05:00:00 12.54 C 7.38 g/m*3 12.54 C 0 km/h
2431 05-08-2009 06:00:00 12.1 C 7.46 g/m*3 12.1 C 0 km/h
2432 05-08-2009 07:00:00 12.32 C 7.83 g/m*3 12.32 C 0 km/h
2433 05-08-2009 08:00:00 13.38 C 8.1 g/m*3 13.38 C 0 km/h
2434 05-08-2009 09:00:00 15.84 C 8.37 g/m*3 15.84 C 0 km/h
2435 05-08-2009 10:00:00 19.42 C 8.52 g/m*3 19.42 C 0 km/h
2436 05-08-2009 11:00:00 23.24 C 8.46 g/m*3 23.24 C 0 km/h
2437 05-08-2009 12:00:00 26.34 C 6.25 g/m*3 26.34 C 0 km/h
2438 05-08-2009 13:00:00 29.22 C 6.1 g/m*3 29.22 C 0 km/h
2439 05-08-2009 14:00:00 30.26 C 6.15 g/m*3 30.26 C 0 km/h
2440 05-08-2009 15:00:00 31.54 C 6.59 g/m*3 31.54 C 0 km/h
2441 05-08-2009 16:00:00 32.12 C 6.8 g/m*3 32.12 C 0 km/h
2442 05-08-2009 17:00:00 32.8 C 7.04 g/m*3 32.8 C 0 km/h
2443 05-08-2009 18:00:00 32.7 C 7.01 g/m*3 32.7 C 0 km/h
2444 05-08-2009 19:00:00 31.08 C 6.81 g/m*3 31.08 C 0 km/h
2445 05-08-2009 20:00:00 28.84 C 7.4 g/m*3 28.84 C 0 km/h
2446 05-08-2009 21:00:00 24.6 C 7.61 g/m*3 24.6 C 0 km/h
2447 05-08-2009 22:00:00 23.06 C 8.13 g/m*3 23.06 C 0 km/h
2448 05-08-2009 23:00:00 21.52 C 8.19 g/m*3 21.52 C 0 km/h
2449 06-08-2009 00:00:00 20.04 C 8.66 g/m*3 20.04 C 0 km/h
2450 06-08-2009 01:00:00 18.92 C 8.73 g/m*3 18.92 C 0 km/h
Sensor: Nr:Datum:Temp:Abs-Feuchte:Windchill:Wind:
Aussen-T/F 2451 06-08-2009 02:00:00 17.98 C 8.93 g/m*3 17.98 C 0 km/h
2452 06-08-2009 03:00:00 16.98 C 9.02 g/m*3 16.98 C 0 km/h
2453 06-08-2009 04:00:00 16.12 C 9.06 g/m*3 16.12 C 0 km/h
2454 06-08-2009 05:00:00 15.36 C 9.25 g/m*3 15.36 C 0 km/h
2455 06-08-2009 06:00:00 14.86 C 9.33 g/m*3 14.86 C 0 km/h
2456 06-08-2009 07:00:00 15.26 C 9.59 g/m*3 15.26 C 0 km/h
2457 06-08-2009 08:00:00 16.3 C 9.77 g/m*3 16.3 C 0 km/h
2458 06-08-2009 09:00:00 18.92 C 10.02 g/m*3 18.92 C 0 km/h
2459 06-08-2009 10:00:00 22.78 C 9.09 g/m*3 22.78 C 0 km/h
2460 06-08-2009 11:00:00 25.5 C 8.62 g/m*3 25.5 C 0 km/h
2461 06-08-2009 12:00:00 28.3 C 8.18 g/m*3 28.3 C 0 km/h
2462 06-08-2009 13:00:00 30.96 C 7.28 g/m*3 30.96 C 0 km/h
2463 06-08-2009 14:00:00 31.3 C 6.5 g/m*3 31.3 C 0 km/h
2464 06-08-2009 15:00:00 32.68 C 7 g/m*3 32.68 C 0 km/h
2465 06-08-2009 16:00:00 33.3 C 7.23 g/m*3 33.3 C 0 km/h
2466 06-08-2009 17:00:00 33.98 C 7.5 g/m*3 33.98 C 0 km/h
2467 06-08-2009 18:00:00 33.68 C 7.38 g/m*3 33.68 C 0 km/h
2468 06-08-2009 19:00:00 32.86 C 7.07 g/m*3 32.86 C 0 km/h
2469 06-08-2009 20:00:00 30.36 C 7.79 g/m*3 30.36 C 0 km/h
2470 06-08-2009 21:00:00 26.4 C 8.31 g/m*3 26.4 C 0 km/h
2471 06-08-2009 22:00:00 24.68 C 9 g/m*3 24.68 C 0 km/h
2472 06-08-2009 23:00:00 23.2 C 9.36 g/m*3 23.2 C 0 km/h
2473 07-08-2009 00:00:00 22.06 C 9.43 g/m*3 22.06 C 0 km/h
2474 07-08-2009 01:00:00 20.94 C 9.71 g/m*3 20.94 C 0 km/h
2475 07-08-2009 02:00:00 19.78 C 10 g/m*3 19.78 C 0 km/h
Sensor: Nr:Datum:Temp:Abs-Feuchte:Windchill:Wind:
Aussen-T/F 2476 07-08-2009 03:00:00 18.86 C 10.21 g/m*3 18.86 C 0 km/h
2477 07-08-2009 04:00:00 18.08 C 10.31 g/m*3 18.08 C 0 km/h
2478 07-08-2009 05:00:00 17.38 C 10.36 g/m*3 17.38 C 0 km/h
2479 07-08-2009 06:00:00 16.96 C 10.36 g/m*3 16.96 C 0 km/h
2480 07-08-2009 07:00:00 17.26 C 10.67 g/m*3 17.26 C 0 km/h
2481 07-08-2009 08:00:00 18.4 C 10.88 g/m*3 18.4 C 0 km/h
2482 07-08-2009 09:00:00 20.76 C 10.95 g/m*3 20.76 C 0 km/h
2483 07-08-2009 10:00:00 24.18 C 10.95 g/m*3 24.18 C 0 km/h
2484 07-08-2009 11:00:00 27.7 C 9.31 g/m*3 27.7 C 0 km/h
2485 07-08-2009 12:00:00 30.1 C 8.48 g/m*3 30.1 C 0 km/h
2486 07-08-2009 13:00:00 30.88 C 7 g/m*3 30.88 C 0 km/h
2487 07-08-2009 14:00:00 32.02 C 6.76 g/m*3 32.02 C 0 km/h
2488 07-08-2009 15:00:00 32.56 C 6.96 g/m*3 32.56 C 0 km/h
2489 07-08-2009 16:00:00 33.38 C 7.26 g/m*3 33.38 C 0 km/h
2490 07-08-2009 17:00:00 33.8 C 7.43 g/m*3 33.8 C 0 km/h
2491 07-08-2009 18:00:00 33.86 C 7.45 g/m*3 33.86 C 0 km/h
2492 07-08-2009 19:00:00 32.08 C 7.53 g/m*3 32.08 C 0 km/h
2493 07-08-2009 20:00:00 28.44 C 8.13 g/m*3 28.44 C 0 km/h
2494 07-08-2009 21:00:00 26.36 C 8.3 g/m*3 26.36 C 0 km/h
2495 07-08-2009 22:00:00 25.06 C 9.52 g/m*3 25.06 C 0 km/h
2496 07-08-2009 23:00:00 24.08 C 10.4 g/m*3 24.08 C 0 km/h
2497 08-08-2009 00:00:00 23.42 C 10.78 g/m*3 23.42 C 0 km/h
2498 08-08-2009 01:00:00 23.12 C 11.13 g/m*3 23.12 C 0 km/h
2499 08-08-2009 02:00:00 22.58 C 11.28 g/m*3 22.58 C 0 km/h
2500 08-08-2009 03:00:00 21.72 C 11.46 g/m*3 21.72 C 0 km/h
Sensor: Nr:Datum:Temp:Abs-Feuchte:Windchill:Wind:
Aussen-T/F 2501 08-08-2009 04:00:00 21.16 C 12.09 g/m*3 21.16 C 0 km/h
2502 08-08-2009 05:00:00 21.28 C 12.59 g/m*3 21.28 C 0 km/h
2503 08-08-2009 06:00:00 21.3 C 12.71 g/m*3 21.3 C 0 km/h
2504 08-08-2009 07:00:00 21.04 C 12.89 g/m*3 21.04 C 0 km/h
2505 08-08-2009 08:00:00 21.24 C 12.85 g/m*3 21.24 C 0 km/h
2506 08-08-2009 09:00:00 21.52 C 12.69 g/m*3 21.52 C 0 km/h
2507 08-08-2009 10:00:00 21.34 C 12.26 g/m*3 21.34 C 0 km/h
2508 08-08-2009 11:00:00 20.4 C 12.49 g/m*3 20.4 C 0 km/h
2509 08-08-2009 12:00:00 20.5 C 12.6 g/m*3 20.5 C 0 km/h
2510 08-08-2009 13:00:00 21.88 C 12.07 g/m*3 21.88 C 0 km/h
2511 08-08-2009 14:00:00 21.98 C 12.06 g/m*3 21.98 C 0 km/h
2512 08-08-2009 15:00:00 21.94 C 12.07 g/m*3 21.94 C 0 km/h
2513 08-08-2009 16:00:00 20.8 C 12.28 g/m*3 20.8 C 0 km/h
2514 08-08-2009 17:00:00 20.84 C 12.38 g/m*3 20.84 C 0 km/h
2515 08-08-2009 18:00:00 20.56 C 12.32 g/m*3 20.56 C 0 km/h
2516 08-08-2009 19:00:00 20.48 C 12.55 g/m*3 20.48 C 0 km/h
2517 08-08-2009 20:00:00 20.46 C 12.46 g/m*3 20.46 C 0 km/h
2518 08-08-2009 21:00:00 20.1 C 12.45 g/m*3 20.1 C 0 km/h
2519 08-08-2009 22:00:00 19.92 C 12.56 g/m*3 19.92 C 0 km/h
2520 08-08-2009 23:00:00 19.84 C 12.64 g/m*3 19.84 C 0 km/h
2521 09-08-2009 00:00:00 19.94 C 12.64 g/m*3 19.94 C 0 km/h
2522 09-08-2009 01:00:00 19.72 C 12.85 g/m*3 19.72 C 0 km/h
2523 09-08-2009 02:00:00 19.68 C 12.72 g/m*3 19.68 C 0 km/h
2524 09-08-2009 03:00:00 19.5 C 12.69 g/m*3 19.5 C 0 km/h
2525 09-08-2009 04:00:00 19.3 C 12.71 g/m*3 19.3 C 0 km/h
Sensor: Nr:Datum:Temp:Abs-Feuchte:Windchill:Wind:
Aussen-T/F 2526 09-08-2009 05:00:00 19.28 C 12.76 g/m*3 19.28 C 0 km/h
2527 09-08-2009 06:00:00 19.2 C 12.76 g/m*3 19.2 C 0 km/h
2528 09-08-2009 07:00:00 19.36 C 12.85 g/m*3 19.36 C 0 km/h
2529 09-08-2009 08:00:00 20.06 C 12.63 g/m*3 20.06 C 0 km/h
2530 09-08-2009 09:00:00 20.98 C 12.33 g/m*3 20.98 C 0 km/h
2531 09-08-2009 10:00:00 22.44 C 12.18 g/m*3 22.44 C 0 km/h
2532 09-08-2009 11:00:00 24.6 C 11.57 g/m*3 24.6 C 0 km/h
2533 09-08-2009 12:00:00 24.38 C 11.34 g/m*3 24.38 C 0 km/h
2534 09-08-2009 13:00:00 24.06 C 11.31 g/m*3 24.06 C 0 km/h
2535 09-08-2009 14:00:00 25.16 C 11.2 g/m*3 25.16 C 0 km/h
2536 09-08-2009 15:00:00 27.64 C 10.61 g/m*3 27.64 C 0 km/h
2537 09-08-2009 16:00:00 29.56 C 10.13 g/m*3 29.56 C 0 km/h
2538 09-08-2009 17:00:00 29.78 C 9.89 g/m*3 29.78 C 0 km/h
2539 09-08-2009 18:00:00 27.66 C 9.98 g/m*3 27.66 C 0 km/h
2540 09-08-2009 19:00:00 25.5 C 10.56 g/m*3 25.5 C 0 km/h
2541 09-08-2009 20:00:00 24.1 C 11.2 g/m*3 24.1 C 0 km/h
2542 09-08-2009 21:00:00 22.825 C 11.5 g/m*3 22.83 C 0 km/h
2543 09-08-2009 22:00:00 21.86 C 11.55 g/m*3 21.86 C 0 km/h
2544 09-08-2009 23:00:00 21.12 C 11.77 g/m*3 21.12 C 0 km/h
2545 10-08-2009 00:00:00 20.58 C 11.98 g/m*3 20.58 C 0 km/h
2546 10-08-2009 01:00:00 19.98 C 12.15 g/m*3 19.98 C 0 km/h
2547 10-08-2009 02:00:00 19.76 C 12.27 g/m*3 19.76 C 0 km/h
2548 10-08-2009 03:00:00 19.28 C 12.33 g/m*3 19.28 C 0 km/h
2549 10-08-2009 04:00:00 19.02 C 12.43 g/m*3 19.02 C 0 km/h
2550 10-08-2009 05:00:00 18.7 C 12.46 g/m*3 18.7 C 0 km/h
Sensor: Nr:Datum:Temp:Abs-Feuchte:Windchill:Wind:
Aussen-T/F 2551 10-08-2009 06:00:00 18.84 C 12.62 g/m*3 18.84 C 0 km/h
2552 10-08-2009 07:00:00 18.98 C 12.7 g/m*3 18.98 C 0 km/h
2553 10-08-2009 08:00:00 19.8 C 12.74 g/m*3 19.8 C 0 km/h
2554 10-08-2009 09:00:00 20.96 C 12.57 g/m*3 20.96 C 0 km/h
2555 10-08-2009 10:00:00 21.76 C 12.25 g/m*3 21.76 C 0 km/h
2556 10-08-2009 11:00:00 21.76 C 12.25 g/m*3 21.76 C 0 km/h
2557 10-08-2009 12:00:00 20.28 C 13.14 g/m*3 20.28 C 0 km/h
2558 10-08-2009 13:00:00 22.02 C 15.19 g/m*3 22.02 C 0 km/h
2559 10-08-2009 14:00:00 26.56 C 13.91 g/m*3 26.56 C 0 km/h
2560 10-08-2009 15:00:00 28.1 C 11.32 g/m*3 28.1 C 0 km/h
2561 10-08-2009 16:00:00 26.78 C 10.42 g/m*3 26.78 C 0 km/h
2562 10-08-2009 17:00:00 25.4 C 10.55 g/m*3 25.4 C 0 km/h
2563 10-08-2009 18:00:00 25.58 C 10.13 g/m*3 25.58 C 0 km/h
2564 10-08-2009 19:00:00 25.46 C 9.02 g/m*3 25.46 C 0 km/h
2565 10-08-2009 20:00:00 23.56 C 7.98 g/m*3 23.56 C 0 km/h
2566 10-08-2009 21:00:00 20.64 C 8.72 g/m*3 20.64 C 0 km/h
2567 10-08-2009 22:00:00 18.9 C 9.07 g/m*3 18.9 C 0 km/h
2568 10-08-2009 23:00:00 18.16 C 9.24 g/m*3 18.16 C 0 km/h
2569 11-08-2009 00:00:00 18.44 C 9.68 g/m*3 18.44 C 0 km/h
2570 11-08-2009 01:00:00 18.14 C 9.79 g/m*3 18.14 C 0 km/h
2571 11-08-2009 02:00:00 17.86 C 10.05 g/m*3 17.86 C 0 km/h
2572 11-08-2009 03:00:00 17.96 C 10.17 g/m*3 17.96 C 0 km/h
2573 11-08-2009 04:00:00 17.88 C 10.71 g/m*3 17.88 C 0 km/h
2574 11-08-2009 05:00:00 17.78 C 11.31 g/m*3 17.78 C 0 km/h
2575 11-08-2009 06:00:00 17.68 C 11.54 g/m*3 17.68 C 0 km/h
Sensor: Nr:Datum:Temp:Abs-Feuchte:Windchill:Wind:
Aussen-T/F 2576 11-08-2009 07:00:00 18.28 C 11.49 g/m*3 18.28 C 0 km/h
2577 11-08-2009 08:00:00 19.06 C 11.15 g/m*3 19.06 C 0 km/h
2578 11-08-2009 09:00:00 18.12 C 12 g/m*3 18.12 C 0 km/h
2579 11-08-2009 10:00:00 19.64 C 11.78 g/m*3 19.64 C 0 km/h
2580 11-08-2009 11:00:00 20.68 C 11.26 g/m*3 20.68 C 0 km/h
2581 11-08-2009 12:00:00 20.4 C 12.88 g/m*3 20.4 C 0 km/h
2582 11-08-2009 13:00:00 20.9 C 12.75 g/m*3 20.9 C 0 km/h
2583 11-08-2009 14:00:00 22.16 C 13.67 g/m*3 22.16 C 0 km/h
2584 11-08-2009 15:00:00 23.16 C 13.36 g/m*3 23.16 C 0 km/h
2585 11-08-2009 16:00:00 25.92 C 12.36 g/m*3 25.92 C 0 km/h
2586 11-08-2009 17:00:00 26.36 C 11.52 g/m*3 26.36 C 0 km/h
2587 11-08-2009 18:00:00 24.32 C 10.94 g/m*3 24.32 C 0 km/h
2588 11-08-2009 19:00:00 23.66 C 10.84 g/m*3 23.66 C 0 km/h
2589 11-08-2009 20:00:00 22.12 C 11.69 g/m*3 22.12 C 0 km/h
2590 11-08-2009 21:00:00 20.82 C 11.78 g/m*3 20.82 C 0 km/h
2591 11-08-2009 22:00:00 19.74 C 11.91 g/m*3 19.74 C 0 km/h
2592 11-08-2009 23:00:00 19.48 C 12.14 g/m*3 19.48 C 0 km/h
2593 12-08-2009 00:00:00 19.18 C 12.15 g/m*3 19.18 C 0 km/h
2594 12-08-2009 01:00:00 18.6 C 11.55 g/m*3 18.6 C 0 km/h
2595 12-08-2009 02:00:00 18.2 C 11.47 g/m*3 18.2 C 0 km/h
2596 12-08-2009 03:00:00 17.84 C 11.78 g/m*3 17.84 C 0 km/h
2597 12-08-2009 04:00:00 17.22 C 11.88 g/m*3 17.22 C 0 km/h
2598 12-08-2009 05:00:00 16 C 11.36 g/m*3 16 C 0 km/h
2599 12-08-2009 06:00:00 15.14 C 11.25 g/m*3 15.14 C 0 km/h
2600 12-08-2009 07:00:00 15.08 C 11.36 g/m*3 15.08 C 0 km/h
Sensor: Nr:Datum:Temp:Abs-Feuchte:Windchill:Wind:
Aussen-T/F 2601 12-08-2009 08:00:00 16.4 C 11.33 g/m*3 16.4 C 0 km/h
2602 12-08-2009 09:00:00 17.84 C 10.59 g/m*3 17.84 C 0 km/h
2603 12-08-2009 10:00:00 20.18 C 9.78 g/m*3 20.18 C 0 km/h
2604 12-08-2009 11:00:00 22.7 C 9.58 g/m*3 22.7 C 0 km/h
2605 12-08-2009 12:00:00 24.8 C 8.97 g/m*3 24.8 C 0 km/h
2606 12-08-2009 13:00:00 25.68 C 8.66 g/m*3 25.68 C 0 km/h
2607 12-08-2009 14:00:00 26.94 C 8.05 g/m*3 26.94 C 0 km/h
2608 12-08-2009 15:00:00 27.38 C 7.83 g/m*3 27.38 C 0 km/h
2609 12-08-2009 16:00:00 26.16 C 8.35 g/m*3 26.16 C 0 km/h
2610 12-08-2009 17:00:00 25.82 C 8.72 g/m*3 25.82 C 0 km/h
2611 12-08-2009 18:00:00 25.52 C 9.1 g/m*3 25.52 C 0 km/h
2612 12-08-2009 19:00:00 24.86 C 9.41 g/m*3 24.86 C 0 km/h
2613 12-08-2009 20:00:00 23.68 C 10.55 g/m*3 23.68 C 0 km/h
2614 12-08-2009 21:00:00 19.7 C 13.96 g/m*3 19.7 C 0 km/h
2615 12-08-2009 22:00:00 19.28 C 13.52 g/m*3 19.28 C 0 km/h
2616 12-08-2009 23:00:00 19.14 C 13.47 g/m*3 19.14 C 0 km/h
2617 13-08-2009 00:00:00 18.78 C 13.54 g/m*3 18.78 C 0 km/h
2618 13-08-2009 01:00:00 18.18 C 13.54 g/m*3 18.18 C 0 km/h
2619 13-08-2009 02:00:00 17.9 C 13.5 g/m*3 17.9 C 0 km/h
2620 13-08-2009 03:00:00 17.54 C 13.57 g/m*3 17.54 C 0 km/h
2621 13-08-2009 04:00:00 16.48 C 12.87 g/m*3 16.48 C 0 km/h
2622 13-08-2009 05:00:00 16.34 C 12.93 g/m*3 16.34 C 0 km/h
2623 13-08-2009 06:00:00 16.2 C 12.88 g/m*3 16.2 C 0 km/h
2624 13-08-2009 07:00:00 16.6 C 13.19 g/m*3 16.6 C 0 km/h
2625 13-08-2009 08:00:00 17.08 C 13.32 g/m*3 17.08 C 0 km/h
Sensor: Nr:Datum:Temp:Abs-Feuchte:Windchill:Wind:
Aussen-T/F 2626 13-08-2009 09:00:00 18.2 C 13.21 g/m*3 18.2 C 0 km/h
2627 13-08-2009 10:00:00 19.58 C 12.28 g/m*3 19.58 C 0 km/h
2628 13-08-2009 11:00:00 20.94 C 10.66 g/m*3 20.94 C 0 km/h
2629 13-08-2009 12:00:00 23.38 C 10.12 g/m*3 23.38 C 0 km/h
2630 13-08-2009 13:00:00 23.56 C 10.99 g/m*3 23.56 C 0 km/h
2631 13-08-2009 14:00:00 24.56 C 10.64 g/m*3 24.56 C 0 km/h
2632 13-08-2009 15:00:00 22.9 C 12.02 g/m*3 22.9 C 0 km/h
2633 13-08-2009 16:00:00 19.32 C 12.75 g/m*3 19.32 C 0 km/h
2634 13-08-2009 17:00:00 18.74 C 13.35 g/m*3 18.74 C 0 km/h
2635 13-08-2009 18:00:00 17.98 C 13.68 g/m*3 17.98 C 0 km/h
2636 13-08-2009 19:00:00 17.64 C 13.53 g/m*3 17.64 C 0 km/h
2637 13-08-2009 20:00:00 17.56 C 13.38 g/m*3 17.56 C 0 km/h
2638 13-08-2009 21:00:00 16.56 C 12.71 g/m*3 16.56 C 0 km/h
2639 13-08-2009 22:00:00 15.1 C 11.77 g/m*3 15.1 C 0 km/h
2640 13-08-2009 23:00:00 14.3 C 11.3 g/m*3 14.3 C 0 km/h
2641 14-08-2009 00:00:00 14.18 C 11.27 g/m*3 14.18 C 0 km/h
2642 14-08-2009 01:00:00 14.32 C 11.49 g/m*3 14.32 C 0 km/h
2643 14-08-2009 02:00:00 14.36 C 11.59 g/m*3 14.36 C 0 km/h
2644 14-08-2009 03:00:00 14.1 C 11.29 g/m*3 14.1 C 0 km/h
2645 14-08-2009 04:00:00 14.04 C 11.08 g/m*3 14.04 C 0 km/h
2646 14-08-2009 05:00:00 14.14 C 11 g/m*3 14.14 C 0 km/h
2647 14-08-2009 06:00:00 14.02 C 10.97 g/m*3 14.02 C 0 km/h
2648 14-08-2009 07:00:00 14.2 C 11.09 g/m*3 14.2 C 0 km/h
2649 14-08-2009 08:00:00 15.22 C 11.36 g/m*3 15.22 C 0 km/h
2650 14-08-2009 09:00:00 16.66 C 11.29 g/m*3 16.66 C 0 km/h
Sensor: Nr:Datum:Temp:Abs-Feuchte:Windchill:Wind:
Aussen-T/F 2651 14-08-2009 10:00:00 17.54 C 10.82 g/m*3 17.54 C 0 km/h
2652 14-08-2009 11:00:00 19.1 C 10.59 g/m*3 19.1 C 0 km/h
2653 14-08-2009 12:00:00 21.04 C 10.14 g/m*3 21.04 C 0 km/h
2654 14-08-2009 13:00:00 22.98 C 9.44 g/m*3 22.98 C 0 km/h
2655 14-08-2009 14:00:00 25.06 C 8.64 g/m*3 25.06 C 0 km/h
2656 14-08-2009 15:00:00 26.22 C 7.49 g/m*3 26.22 C 0 km/h
2657 14-08-2009 16:00:00 26.92 C 7.28 g/m*3 26.92 C 0 km/h
2658 14-08-2009 17:00:00 28.96 C 7.11 g/m*3 28.96 C 0 km/h
2659 14-08-2009 18:00:00 29.22 C 7.5 g/m*3 29.22 C 0 km/h
2660 14-08-2009 19:00:00 26.12 C 8.92 g/m*3 26.12 C 0 km/h
2661 14-08-2009 20:00:00 22.52 C 9.32 g/m*3 22.52 C 0 km/h
2662 14-08-2009 21:00:00 19.58 C 9.44 g/m*3 19.58 C 0 km/h
2663 14-08-2009 22:00:00 18.62 C 9.98 g/m*3 18.62 C 0 km/h
2664 14-08-2009 23:00:00 17.46 C 9.88 g/m*3 17.46 C 0 km/h
2665 15-08-2009 00:00:00 16.6 C 9.94 g/m*3 16.6 C 0 km/h
2666 15-08-2009 01:00:00 15.8 C 10.28 g/m*3 15.8 C 0 km/h
2667 15-08-2009 02:00:00 15.08 C 10.36 g/m*3 15.08 C 0 km/h
2668 15-08-2009 03:00:00 14.52 C 10.31 g/m*3 14.52 C 0 km/h
2669 15-08-2009 04:00:00 13.94 C 10.19 g/m*3 13.94 C 0 km/h
2670 15-08-2009 05:00:00 13.74 C 10.42 g/m*3 13.74 C 0 km/h
2671 15-08-2009 06:00:00 13.94 C 10.31 g/m*3 13.94 C 0 km/h
2672 15-08-2009 07:00:00 13.76 C 10.13 g/m*3 13.76 C 0 km/h
2673 15-08-2009 08:00:00 14.28 C 10.21 g/m*3 14.28 C 0 km/h
2674 15-08-2009 09:00:00 15.2 C 10.28 g/m*3 15.2 C 0 km/h
2675 15-08-2009 10:00:00 17.78 C 10.98 g/m*3 17.78 C 0 km/h
Sensor: Nr:Datum:Temp:Abs-Feuchte:Windchill:Wind:
Aussen-T/F 2676 15-08-2009 11:00:00 21.4 C 11.06 g/m*3 21.4 C 0 km/h
2677 15-08-2009 12:00:00 24.12 C 9.07 g/m*3 24.12 C 0 km/h
2678 15-08-2009 13:00:00 26.38 C 7.86 g/m*3 26.38 C 0 km/h
2679 15-08-2009 14:00:00 28.02 C 8.17 g/m*3 28.02 C 0 km/h
2680 15-08-2009 15:00:00 29.96 C 8.05 g/m*3 29.96 C 0 km/h
2681 15-08-2009 16:00:00 31.08 C 7.2 g/m*3 31.08 C 0 km/h
2682 15-08-2009 17:00:00 31.74 C 6.66 g/m*3 31.74 C 0 km/h
2683 15-08-2009 18:00:00 31.42 C 6.55 g/m*3 31.42 C 0 km/h
2684 15-08-2009 19:00:00 30.94 C 7.21 g/m*3 30.94 C 0 km/h
2685 15-08-2009 20:00:00 27.14 C 8.61 g/m*3 27.14 C 0 km/h
2686 15-08-2009 21:00:00 23.64 C 9.59 g/m*3 23.64 C 0 km/h
2687 15-08-2009 22:00:00 21.92 C 9.78 g/m*3 21.92 C 0 km/h
2688 15-08-2009 23:00:00 20.7 C 9.97 g/m*3 20.7 C 0 km/h
2689 16-08-2009 00:00:00 19.6 C 10.1 g/m*3 19.6 C 0 km/h
2690 16-08-2009 01:00:00 18.48 C 10.21 g/m*3 18.48 C 0 km/h
2691 16-08-2009 02:00:00 17.76 C 10.39 g/m*3 17.76 C 0 km/h
2692 16-08-2009 03:00:00 16.98 C 10.46 g/m*3 16.98 C 0 km/h
2693 16-08-2009 04:00:00 16.28 C 10.5 g/m*3 16.28 C 0 km/h
2694 16-08-2009 05:00:00 15.84 C 10.66 g/m*3 15.84 C 0 km/h
2695 16-08-2009 06:00:00 15.52 C 10.48 g/m*3 15.52 C 0 km/h
2696 16-08-2009 07:00:00 15.56 C 10.59 g/m*3 15.56 C 0 km/h
2697 16-08-2009 08:00:00 16.34 C 10.96 g/m*3 16.34 C 0 km/h
2698 16-08-2009 09:00:00 18.18 C 11.36 g/m*3 18.18 C 0 km/h
2699 16-08-2009 10:00:00 21.36 C 11.9 g/m*3 21.36 C 0 km/h
2700 16-08-2009 11:00:00 25.04 C 11.49 g/m*3 25.04 C 0 km/h
Sensor: Nr:Datum:Temp:Abs-Feuchte:Windchill:Wind:
Aussen-T/F 2701 16-08-2009 12:00:00 28.1 C 9.46 g/m*3 28.1 C 0 km/h
2702 16-08-2009 13:00:00 30.4 C 8.37 g/m*3 30.4 C 0 km/h
2703 16-08-2009 14:00:00 31.58 C 7.33 g/m*3 31.58 C 0 km/h
2704 16-08-2009 15:00:00 32.36 C 6.88 g/m*3 32.36 C 0 km/h
2705 16-08-2009 16:00:00 32.84 C 7.06 g/m*3 32.84 C 0 km/h
2706 16-08-2009 17:00:00 32.78 C 7.04 g/m*3 32.78 C 0 km/h
2707 16-08-2009 18:00:00 32.3 C 7.48 g/m*3 32.3 C 0 km/h
2708 16-08-2009 19:00:00 31.58 C 9.11 g/m*3 31.58 C 0 km/h
2709 16-08-2009 20:00:00 28.98 C 10.16 g/m*3 28.98 C 0 km/h
2710 16-08-2009 21:00:00 26.28 C 11.03 g/m*3 26.28 C 0 km/h
2711 16-08-2009 22:00:00 24.72 C 11.42 g/m*3 24.72 C 0 km/h
2712 16-08-2009 23:00:00 23.44 C 11.76 g/m*3 23.44 C 0 km/h
2713 17-08-2009 00:00:00 22.54 C 11.93 g/m*3 22.54 C 0 km/h
2714 17-08-2009 01:00:00 21.5 C 11.62 g/m*3 21.5 C 0 km/h
2715 17-08-2009 02:00:00 20.66 C 11.82 g/m*3 20.66 C 0 km/h
2716 17-08-2009 03:00:00 19.6 C 11.99 g/m*3 19.6 C 0 km/h
2717 17-08-2009 04:00:00 18.84 C 12.11 g/m*3 18.84 C 0 km/h
2718 17-08-2009 05:00:00 18.16 C 12.03 g/m*3 18.16 C 0 km/h
2719 17-08-2009 06:00:00 17.86 C 12.09 g/m*3 17.86 C 0 km/h
2720 17-08-2009 07:00:00 18.38 C 12.16 g/m*3 18.38 C 0 km/h
2721 17-08-2009 08:00:00 19.18 C 12.12 g/m*3 19.18 C 0 km/h
2722 17-08-2009 09:00:00 20.82 C 12.04 g/m*3 20.82 C 0 km/h
2723 17-08-2009 10:00:00 22.88 C 12.08 g/m*3 22.88 C 0 km/h
2724 17-08-2009 11:00:00 26.16 C 11.64 g/m*3 26.16 C 0 km/h
2725 17-08-2009 12:00:00 28.22 C 11.01 g/m*3 28.22 C 0 km/h
Sensor: Nr:Datum:Temp:Abs-Feuchte:Windchill:Wind:
Aussen-T/F 2726 17-08-2009 13:00:00 29.74 C 10.23 g/m*3 29.74 C 0 km/h
2727 17-08-2009 14:00:00 30.14 C 9.9 g/m*3 30.14 C 0 km/h
2728 17-08-2009 15:00:00 29.82 C 10.03 g/m*3 29.82 C 0 km/h
2729 17-08-2009 16:00:00 29.9 C 10.01 g/m*3 29.9 C 0 km/h
2730 17-08-2009 17:00:00 29.2 C 9.52 g/m*3 29.2 C 0 km/h
2731 17-08-2009 18:00:00 28.88 C 8.73 g/m*3 28.88 C 0 km/h
2732 17-08-2009 19:00:00 26.7 C 8.76 g/m*3 26.7 C 0 km/h
2733 17-08-2009 20:00:00 23.58 C 8.84 g/m*3 23.58 C 0 km/h
2734 17-08-2009 21:00:00 22.22 C 8.37 g/m*3 22.22 C 0 km/h
2735 17-08-2009 22:00:00 21.06 C 8.9 g/m*3 21.06 C 0 km/h
2736 17-08-2009 23:00:00 20.72 C 9.44 g/m*3 20.72 C 0 km/h
2737 18-08-2009 00:00:00 19.9 C 9.55 g/m*3 19.9 C 0 km/h
2738 18-08-2009 01:00:00 18.8 C 9.37 g/m*3 18.8 C 0 km/h
2739 18-08-2009 02:00:00 18 C 9.49 g/m*3 18 C 0 km/h
2740 18-08-2009 03:00:00 16.9 C 9.69 g/m*3 16.9 C 0 km/h
2741 18-08-2009 04:00:00 15.9 C 9.94 g/m*3 15.9 C 0 km/h
2742 18-08-2009 05:00:00 15.14 C 9.91 g/m*3 15.14 C 0 km/h
2743 18-08-2009 06:00:00 14.38 C 9.95 g/m*3 14.38 C 0 km/h
2744 18-08-2009 07:00:00 14.32 C 10.06 g/m*3 14.32 C 0 km/h
2745 18-08-2009 08:00:00 14.92 C 10.31 g/m*3 14.92 C 0 km/h
2746 18-08-2009 09:00:00 16.88 C 10.6 g/m*3 16.88 C 0 km/h
2747 18-08-2009 10:00:00 19.58 C 10.22 g/m*3 19.58 C 0 km/h
2748 18-08-2009 11:00:00 21.94 C 8.7 g/m*3 21.94 C 0 km/h
2749 18-08-2009 12:00:00 23.88 C 7.61 g/m*3 23.88 C 0 km/h
2750 18-08-2009 13:00:00 26.58 C 7.04 g/m*3 26.58 C 0 km/h
Sensor: Nr:Datum:Temp:Abs-Feuchte:Windchill:Wind:
Aussen-T/F 2751 18-08-2009 14:00:00 27.9 C 6.11 g/m*3 27.9 C 0 km/h
2752 18-08-2009 15:00:00 30.34 C 6.18 g/m*3 30.34 C 0 km/h
2753 18-08-2009 16:00:00 31.12 C 6.44 g/m*3 31.12 C 0 km/h
2754 18-08-2009 17:00:00 32.44 C 6.91 g/m*3 32.44 C 0 km/h
2755 18-08-2009 18:00:00 32.08 C 6.78 g/m*3 32.08 C 0 km/h
2756 18-08-2009 19:00:00 29.56 C 6.87 g/m*3 29.56 C 0 km/h
2757 18-08-2009 20:00:00 25.2 C 7.03 g/m*3 25.2 C 0 km/h
2758 18-08-2009 21:00:00 22.94 C 7.7 g/m*3 22.94 C 0 km/h
2759 18-08-2009 22:00:00 21.48 C 7.95 g/m*3 21.48 C 0 km/h
2760 18-08-2009 23:00:00 20.34 C 8.29 g/m*3 20.34 C 0 km/h
2761 19-08-2009 00:00:00 19.28 C 8.91 g/m*3 19.28 C 0 km/h
2762 19-08-2009 01:00:00 18.22 C 9.18 g/m*3 18.22 C 0 km/h
2763 19-08-2009 02:00:00 17.38 C 9.36 g/m*3 17.38 C 0 km/h
2764 19-08-2009 03:00:00 16.6 C 9.38 g/m*3 16.6 C 0 km/h
2765 19-08-2009 04:00:00 15.74 C 9.44 g/m*3 15.74 C 0 km/h
2766 19-08-2009 05:00:00 15.1 C 9.47 g/m*3 15.1 C 0 km/h
2767 19-08-2009 06:00:00 14.52 C 9.46 g/m*3 14.52 C 0 km/h
2768 19-08-2009 07:00:00 14.58 C 9.72 g/m*3 14.58 C 0 km/h
2769 19-08-2009 08:00:00 15.54 C 10.18 g/m*3 15.54 C 0 km/h
2770 19-08-2009 09:00:00 17.58 C 10.4 g/m*3 17.58 C 0 km/h
2771 19-08-2009 10:00:00 20.8 C 10.18 g/m*3 20.8 C 0 km/h
2772 19-08-2009 11:00:00 24.18 C 10.15 g/m*3 24.18 C 0 km/h
2773 19-08-2009 12:00:00 27.46 C 8.92 g/m*3 27.46 C 0 km/h
2774 19-08-2009 13:00:00 30.16 C 8.08 g/m*3 30.16 C 0 km/h
2775 19-08-2009 14:00:00 31.74 C 7.46 g/m*3 31.74 C 0 km/h
Sensor: Nr:Datum:Temp:Abs-Feuchte:Windchill:Wind:
Aussen-T/F 2776 19-08-2009 15:00:00 32.88 C 7.15 g/m*3 32.88 C 0 km/h
2777 19-08-2009 16:00:00 33.3 C 7.23 g/m*3 33.3 C 0 km/h
2778 19-08-2009 17:00:00 33.74 C 7.4 g/m*3 33.74 C 0 km/h
2779 19-08-2009 18:00:00 34.06 C 7.53 g/m*3 34.06 C 0 km/h
2780 19-08-2009 19:00:00 32.56 C 7.3 g/m*3 32.56 C 0 km/h
2781 19-08-2009 20:00:00 29.38 C 9.21 g/m*3 29.38 C 0 km/h
2782 19-08-2009 21:00:00 26.9 C 9.52 g/m*3 26.9 C 0 km/h
2783 19-08-2009 22:00:00 25.02 C 10 g/m*3 25.02 C 0 km/h
2784 19-08-2009 23:00:00 23.52 C 10.37 g/m*3 23.52 C 0 km/h
2785 20-08-2009 00:00:00 22.26 C 10.8 g/m*3 22.26 C 0 km/h
2786 20-08-2009 01:00:00 21.28 C 10.84 g/m*3 21.28 C 0 km/h
2787 20-08-2009 02:00:00 20.38 C 10.96 g/m*3 20.38 C 0 km/h
2788 20-08-2009 03:00:00 19.64 C 11.1 g/m*3 19.64 C 0 km/h
2789 20-08-2009 04:00:00 18.9 C 11.24 g/m*3 18.9 C 0 km/h
2790 20-08-2009 05:00:00 18.22 C 11.2 g/m*3 18.22 C 0 km/h
2791 20-08-2009 06:00:00 17.68 C 11.3 g/m*3 17.68 C 0 km/h
2792 20-08-2009 07:00:00 18.1 C 11.62 g/m*3 18.1 C 0 km/h
2793 20-08-2009 08:00:00 19.84 C 11.71 g/m*3 19.84 C 0 km/h
2794 20-08-2009 09:00:00 21.26 C 11.9 g/m*3 21.26 C 0 km/h
2795 20-08-2009 10:00:00 24.46 C 12.46 g/m*3 24.46 C 0 km/h
2796 20-08-2009 11:00:00 27.8 C 13.45 g/m*3 27.8 C 0 km/h
2797 20-08-2009 12:00:00 31.2 C 11 g/m*3 31.2 C 0 km/h
2798 20-08-2009 13:00:00 32.56 C 9.95 g/m*3 32.56 C 0 km/h
2799 20-08-2009 14:00:00 33.72 C 8.8 g/m*3 33.72 C 0 km/h
2800 20-08-2009 15:00:00 34.42 C 7.67 g/m*3 34.42 C 0 km/h
Sensor: Nr:Datum:Temp:Abs-Feuchte:Windchill:Wind:
Aussen-T/F 2801 20-08-2009 16:00:00 33.64 C 7.73 g/m*3 33.64 C 0 km/h
2802 20-08-2009 17:00:00 33.74 C 8.14 g/m*3 33.74 C 0 km/h
2803 20-08-2009 18:00:00 33.42 C 8.01 g/m*3 33.42 C 0 km/h
2804 20-08-2009 19:00:00 32.08 C 8.81 g/m*3 32.08 C 0 km/h
2805 20-08-2009 20:00:00 30.32 C 9.75 g/m*3 30.32 C 0 km/h
2806 20-08-2009 21:00:00 29.66 C 8.93 g/m*3 29.66 C 0 km/h
2807 20-08-2009 22:00:00 25.66 C 10.41 g/m*3 25.66 C 0 km/h
2808 20-08-2009 23:00:00 24.52 C 10.8 g/m*3 24.52 C 0 km/h
2809 21-08-2009 00:00:00 23.8 C 10.93 g/m*3 23.8 C 0 km/h
2810 21-08-2009 01:00:00 21.52 C 14.12 g/m*3 21.52 C 0 km/h
2811 21-08-2009 02:00:00 20.5 C 13.7 g/m*3 20.5 C 0 km/h
2812 21-08-2009 03:00:00 20.38 C 13.68 g/m*3 20.38 C 0 km/h
2813 21-08-2009 04:00:00 20.24 C 13.74 g/m*3 20.24 C 0 km/h
2814 21-08-2009 05:00:00 19.74 C 12.36 g/m*3 19.74 C 0 km/h
2815 21-08-2009 06:00:00 18.28 C 10.24 g/m*3 18.28 C 0 km/h
2816 21-08-2009 07:00:00 18.66 C 10 g/m*3 18.66 C 0 km/h
2817 21-08-2009 08:00:00 19.34 C 10.61 g/m*3 19.34 C 0 km/h
2818 21-08-2009 09:00:00 19.48 C 9.42 g/m*3 19.48 C 0 km/h
2819 21-08-2009 10:00:00 19 C 8.38 g/m*3 19 C 0 km/h
2820 21-08-2009 11:00:00 16.88 C 8.39 g/m*3 16.88 C 0 km/h
2821 21-08-2009 12:00:00 15.58 C 10.73 g/m*3 15.58 C 0 km/h
2822 21-08-2009 13:00:00 16.3 C 11.07 g/m*3 16.3 C 0 km/h
2823 21-08-2009 14:00:00 18.14 C 10.47 g/m*3 18.14 C 0 km/h
2824 21-08-2009 15:00:00 21.42 C 9.87 g/m*3 21.42 C 0 km/h
2825 21-08-2009 16:00:00 25.48 C 8.13 g/m*3 25.48 C 0 km/h
Sensor: Nr:Datum:Temp:Abs-Feuchte:Windchill:Wind:
Aussen-T/F 2826 21-08-2009 17:00:00 27.48 C 7.88 g/m*3 27.48 C 0 km/h
2827 21-08-2009 18:00:00 26.2 C 8.03 g/m*3 26.2 C 0 km/h
2828 21-08-2009 19:00:00 25.16 C 8.64 g/m*3 25.16 C 0 km/h
2829 21-08-2009 20:00:00 20.5 C 9.57 g/m*3 20.5 C 0 km/h
2830 21-08-2009 21:00:00 18.64 C 9.99 g/m*3 18.64 C 0 km/h
2831 21-08-2009 22:00:00 17.5 C 10.14 g/m*3 17.5 C 0 km/h
2832 21-08-2009 23:00:00 16.8 C 10.19 g/m*3 16.8 C 0 km/h
2833 22-08-2009 00:00:00 15.96 C 10.09 g/m*3 15.96 C 0 km/h
2834 22-08-2009 01:00:00 15.32 C 10.15 g/m*3 15.32 C 0 km/h
2835 22-08-2009 02:00:00 14.58 C 10.2 g/m*3 14.58 C 0 km/h
2836 22-08-2009 03:00:00 13.98 C 10.14 g/m*3 13.98 C 0 km/h
2837 22-08-2009 04:00:00 13.5 C 9.85 g/m*3 13.5 C 0 km/h
2838 22-08-2009 05:00:00 13.12 C 9.76 g/m*3 13.12 C 0 km/h
2839 22-08-2009 06:00:00 13.1 C 9.61 g/m*3 13.1 C 0 km/h
2840 22-08-2009 07:00:00 13.28 C 9.58 g/m*3 13.28 C 0 km/h
2841 22-08-2009 08:00:00 14.42 C 9.68 g/m*3 14.42 C 0 km/h
2842 22-08-2009 09:00:00 16.36 C 9.44 g/m*3 16.36 C 0 km/h
2843 22-08-2009 10:00:00 18.26 C 9.61 g/m*3 18.26 C 0 km/h
2844 22-08-2009 11:00:00 21.3 C 9.13 g/m*3 21.3 C 0 km/h
2845 22-08-2009 12:00:00 22.42 C 8.47 g/m*3 22.42 C 0 km/h
2846 22-08-2009 13:00:00 24.42 C 7.62 g/m*3 24.42 C 0 km/h
2847 22-08-2009 14:00:00 26.06 C 6.6 g/m*3 26.06 C 0 km/h
2848 22-08-2009 15:00:00 26.66 C 6.06 g/m*3 26.66 C 0 km/h
2849 22-08-2009 16:00:00 29.02 C 6.04 g/m*3 29.02 C 0 km/h
2850 22-08-2009 17:00:00 28.14 C 5.54 g/m*3 28.14 C 0 km/h
Sensor: Nr:Datum:Temp:Abs-Feuchte:Windchill:Wind:
Aussen-T/F 2851 22-08-2009 18:00:00 28.56 C 5.61 g/m*3 28.56 C 0 km/h
2852 22-08-2009 19:00:00 26.62 C 6.05 g/m*3 26.62 C 0 km/h
2853 22-08-2009 20:00:00 23.26 C 6.72 g/m*3 23.26 C 0 km/h
2854 22-08-2009 21:00:00 19.92 C 6.67 g/m*3 19.92 C 0 km/h
2855 22-08-2009 22:00:00 18.42 C 6.96 g/m*3 18.42 C 0 km/h
2856 22-08-2009 23:00:00 17.2 C 7.06 g/m*3 17.2 C 0 km/h
2857 23-08-2009 00:00:00 15.88 C 7.44 g/m*3 15.88 C 0 km/h
2858 23-08-2009 01:00:00 14.82 C 7.66 g/m*3 14.82 C 0 km/h
2859 23-08-2009 02:00:00 13.96 C 7.72 g/m*3 13.96 C 0 km/h
2860 23-08-2009 03:00:00 13.24 C 7.97 g/m*3 13.24 C 0 km/h
2861 23-08-2009 04:00:00 12.56 C 8.12 g/m*3 12.56 C 0 km/h
2862 23-08-2009 05:00:00 11.96 C 8.12 g/m*3 11.96 C 0 km/h
2863 23-08-2009 06:00:00 11.44 C 8.05 g/m*3 11.44 C 0 km/h
2864 23-08-2009 07:00:00 11.52 C 8.19 g/m*3 11.52 C 0 km/h
2865 23-08-2009 08:00:00 12.42 C 8.62 g/m*3 12.42 C 0 km/h
2866 23-08-2009 09:00:00 14.3 C 8.99 g/m*3 14.3 C 0 km/h
2867 23-08-2009 10:00:00 17.04 C 9.34 g/m*3 17.04 C 0 km/h
2868 23-08-2009 11:00:00 20.58 C 8.83 g/m*3 20.58 C 0 km/h
2869 23-08-2009 12:00:00 23.4 C 7.15 g/m*3 23.4 C 0 km/h
2870 23-08-2009 13:00:00 25.34 C 6.1 g/m*3 25.34 C 0 km/h
2871 23-08-2009 14:00:00 27 C 5.56 g/m*3 27 C 0 km/h
2872 23-08-2009 15:00:00 28.38 C 5.66 g/m*3 28.38 C 0 km/h
2873 23-08-2009 16:00:00 30.22 C 6.14 g/m*3 30.22 C 0 km/h
2874 23-08-2009 17:00:00 30.96 C 6.39 g/m*3 30.96 C 0 km/h
2875 23-08-2009 18:00:00 30.8 C 6.33 g/m*3 30.8 C 0 km/h
Sensor: Nr:Datum:Temp:Abs-Feuchte:Windchill:Wind:
Aussen-T/F 2876 23-08-2009 19:00:00 30.04 C 6.08 g/m*3 30.04 C 0 km/h
2877 23-08-2009 20:00:00 25.08 C 6.29 g/m*3 25.08 C 0 km/h
2878 23-08-2009 21:00:00 21.42 C 6.57 g/m*3 21.42 C 0 km/h
2879 23-08-2009 22:00:00 19.82 C 7.05 g/m*3 19.82 C 0 km/h
2880 23-08-2009 23:00:00 18.72 C 7.15 g/m*3 18.72 C 0 km/h
2881 24-08-2009 00:00:00 17.72 C 7.25 g/m*3 17.72 C 0 km/h
2882 24-08-2009 01:00:00 16.8 C 7.49 g/m*3 16.8 C 0 km/h
2883 24-08-2009 02:00:00 15.74 C 7.7 g/m*3 15.74 C 0 km/h
2884 24-08-2009 03:00:00 14.82 C 7.96 g/m*3 14.82 C 0 km/h
2885 24-08-2009 04:00:00 13.86 C 8.11 g/m*3 13.86 C 0 km/h
2886 24-08-2009 05:00:00 13.2 C 8.38 g/m*3 13.2 C 0 km/h
2887 24-08-2009 06:00:00 12.7 C 8.35 g/m*3 12.7 C 0 km/h
2888 24-08-2009 07:00:00 12.78 C 8.61 g/m*3 12.78 C 0 km/h
2889 24-08-2009 08:00:00 13.58 C 9.05 g/m*3 13.58 C 0 km/h
2890 24-08-2009 09:00:00 15.76 C 9.51 g/m*3 15.76 C 0 km/h
2891 24-08-2009 10:00:00 19.36 C 9.45 g/m*3 19.36 C 0 km/h
2892 24-08-2009 11:00:00 22.48 C 8.86 g/m*3 22.48 C 0 km/h
2893 24-08-2009 12:00:00 24.64 C 8.39 g/m*3 24.64 C 0 km/h
2894 24-08-2009 13:00:00 27.38 C 8.15 g/m*3 27.38 C 0 km/h
2895 24-08-2009 14:00:00 29.8 C 8.1 g/m*3 29.8 C 0 km/h
2896 24-08-2009 15:00:00 31.62 C 6.95 g/m*3 31.62 C 0 km/h
2897 24-08-2009 16:00:00 32.3 C 6.86 g/m*3 32.3 C 0 km/h
2898 24-08-2009 17:00:00 32.88 C 7.07 g/m*3 32.88 C 0 km/h
2899 24-08-2009 18:00:00 33.06 C 7.14 g/m*3 33.06 C 0 km/h
2900 24-08-2009 19:00:00 31.4 C 7.91 g/m*3 31.4 C 0 km/h
Sensor: Nr:Datum:Temp:Abs-Feuchte:Windchill:Wind:
Aussen-T/F 2901 24-08-2009 20:00:00 27.7 C 9.36 g/m*3 27.7 C 0 km/h
2902 24-08-2009 21:00:00 25.54 C 9.82 g/m*3 25.54 C 0 km/h
2903 24-08-2009 22:00:00 24.36 C 9.99 g/m*3 24.36 C 0 km/h
2904 24-08-2009 23:00:00 23.24 C 10.29 g/m*3 23.24 C 0 km/h
2905 25-08-2009 00:00:00 21.9 C 10 g/m*3 21.9 C 0 km/h
2906 25-08-2009 01:00:00 20.96 C 10.02 g/m*3 20.96 C 0 km/h
2907 25-08-2009 02:00:00 20.74 C 10.29 g/m*3 20.74 C 0 km/h
2908 25-08-2009 03:00:00 20.3 C 10.38 g/m*3 20.3 C 0 km/h
2909 25-08-2009 04:00:00 19.98 C 10.46 g/m*3 19.98 C 0 km/h
2910 25-08-2009 05:00:00 20 C 10.09 g/m*3 20 C 0 km/h
2911 25-08-2009 06:00:00 19.24 C 10.18 g/m*3 19.24 C 0 km/h
2912 25-08-2009 07:00:00 19.78 C 10.37 g/m*3 19.78 C 0 km/h
2913 25-08-2009 08:00:00 20.36 C 10.66 g/m*3 20.36 C 0 km/h
2914 25-08-2009 09:00:00 21.74 C 10.97 g/m*3 21.74 C 0 km/h
2915 25-08-2009 10:00:00 23.64 C 10.7 g/m*3 23.64 C 0 km/h
2916 25-08-2009 11:00:00 23.7 C 11.12 g/m*3 23.7 C 0 km/h
2917 25-08-2009 12:00:00 26 C 10.76 g/m*3 26 C 0 km/h
2918 25-08-2009 13:00:00 28.2 C 9.84 g/m*3 28.2 C 0 km/h
2919 25-08-2009 14:00:00 28.46 C 9.15 g/m*3 28.46 C 0 km/h
2920 25-08-2009 15:00:00 28.1 C 9.35 g/m*3 28.1 C 0 km/h
2921 25-08-2009 16:00:00 28.1 C 8.97 g/m*3 28.1 C 0 km/h
2922 25-08-2009 17:00:00 26.42 C 9.27 g/m*3 26.42 C 0 km/h
2923 25-08-2009 18:00:00 25.26 C 9.58 g/m*3 25.26 C 0 km/h
2924 25-08-2009 19:00:00 24.08 C 11.1 g/m*3 24.08 C 0 km/h
2925 25-08-2009 20:00:00 23.24 C 11.67 g/m*3 23.24 C 0 km/h
Sensor: Nr:Datum:Temp:Abs-Feuchte:Windchill:Wind:
Aussen-T/F 2926 25-08-2009 21:00:00 22.1 C 11.87 g/m*3 22.1 C 0 km/h
2927 25-08-2009 22:00:00 21.52 C 12.01 g/m*3 21.52 C 0 km/h
2928 25-08-2009 23:00:00 21.04 C 11.79 g/m*3 21.04 C 0 km/h
2929 26-08-2009 00:00:00 20.52 C 10.47 g/m*3 20.52 C 0 km/h
2930 26-08-2009 01:00:00 19.8 C 10.39 g/m*3 19.8 C 0 km/h
2931 26-08-2009 02:00:00 18.4 C 10.29 g/m*3 18.4 C 0 km/h
2932 26-08-2009 03:00:00 17.18 C 10.3 g/m*3 17.18 C 0 km/h
2933 26-08-2009 04:00:00 16.24 C 10.15 g/m*3 16.24 C 0 km/h
2934 26-08-2009 05:00:00 15.48 C 10.09 g/m*3 15.48 C 0 km/h
2935 26-08-2009 06:00:00 15.24 C 10.1 g/m*3 15.24 C 0 km/h
2936 26-08-2009 07:00:00 14.8 C 10.21 g/m*3 14.8 C 0 km/h
2937 26-08-2009 08:00:00 15.44 C 10.51 g/m*3 15.44 C 0 km/h
2938 26-08-2009 09:00:00 16.92 C 10.83 g/m*3 16.92 C 0 km/h
2939 26-08-2009 10:00:00 19.66 C 10.16 g/m*3 19.66 C 0 km/h
2940 26-08-2009 11:00:00 22.12 C 7.66 g/m*3 22.12 C 0 km/h
2941 26-08-2009 12:00:00 23.96 C 6.95 g/m*3 23.96 C 0 km/h
2942 26-08-2009 13:00:00 25.96 C 7 g/m*3 25.96 C 0 km/h
2943 26-08-2009 14:00:00 27.84 C 7.33 g/m*3 27.84 C 0 km/h
2944 26-08-2009 15:00:00 27.72 C 8.14 g/m*3 27.72 C 0 km/h
2945 26-08-2009 16:00:00 28.7 C 7.69 g/m*3 28.7 C 0 km/h
2946 26-08-2009 17:00:00 28.9 C 7.31 g/m*3 28.9 C 0 km/h
2947 26-08-2009 18:00:00 28.12 C 6.9 g/m*3 28.12 C 0 km/h
2948 26-08-2009 19:00:00 27.7 C 7.33 g/m*3 27.7 C 0 km/h
2949 26-08-2009 20:00:00 23.78 C 8.21 g/m*3 23.78 C 0 km/h
2950 26-08-2009 21:00:00 22.66 C 8.95 g/m*3 22.66 C 0 km/h
Sensor: Nr:Datum:Temp:Abs-Feuchte:Windchill:Wind:
Aussen-T/F 2951 26-08-2009 22:00:00 22.04 C 9.8 g/m*3 22.04 C 0 km/h
2952 26-08-2009 23:00:00 21.24 C 10.44 g/m*3 21.24 C 0 km/h
2953 27-08-2009 00:00:00 20.26 C 10.67 g/m*3 20.26 C 0 km/h
2954 27-08-2009 01:00:00 19.56 C 10.95 g/m*3 19.56 C 0 km/h
2955 27-08-2009 02:00:00 18.68 C 11.07 g/m*3 18.68 C 0 km/h
2956 27-08-2009 03:00:00 17.92 C 11.1 g/m*3 17.92 C 0 km/h
2957 27-08-2009 04:00:00 17.28 C 11.12 g/m*3 17.28 C 0 km/h
2958 27-08-2009 05:00:00 16.66 C 11.34 g/m*3 16.66 C 0 km/h
2959 27-08-2009 06:00:00 16.14 C 11.13 g/m*3 16.14 C 0 km/h
2960 27-08-2009 07:00:00 16.1 C 11.24 g/m*3 16.1 C 0 km/h
2961 27-08-2009 08:00:00 16.68 C 11.75 g/m*3 16.68 C 0 km/h
2962 27-08-2009 09:00:00 18.28 C 12.15 g/m*3 18.28 C 0 km/h
2963 27-08-2009 10:00:00 21.3 C 11.48 g/m*3 21.3 C 0 km/h
2964 27-08-2009 11:00:00 24.7 C 9.1 g/m*3 24.7 C 0 km/h
2965 27-08-2009 12:00:00 26.26 C 8.1 g/m*3 26.26 C 0 km/h
2966 27-08-2009 13:00:00 27.94 C 7.43 g/m*3 27.94 C 0 km/h
2967 27-08-2009 14:00:00 29.78 C 7.19 g/m*3 29.78 C 0 km/h
2968 27-08-2009 15:00:00 30.42 C 6.45 g/m*3 30.42 C 0 km/h
2969 27-08-2009 16:00:00 30.38 C 6.87 g/m*3 30.38 C 0 km/h
2970 27-08-2009 17:00:00 29.7 C 7.46 g/m*3 29.7 C 0 km/h
2971 27-08-2009 18:00:00 30.26 C 7.01 g/m*3 30.26 C 0 km/h
2972 27-08-2009 19:00:00 30.02 C 7.53 g/m*3 30.02 C 0 km/h
2973 27-08-2009 20:00:00 26.66 C 8.03 g/m*3 26.66 C 0 km/h
2974 27-08-2009 21:00:00 24.26 C 8.79 g/m*3 24.26 C 0 km/h
2975 27-08-2009 22:00:00 23 C 9.5 g/m*3 23 C 0 km/h
Sensor: Nr:Datum:Temp:Abs-Feuchte:Windchill:Wind:
Aussen-T/F 2976 27-08-2009 23:00:00 22.2 C 9.86 g/m*3 22.2 C 0 km/h
2977 28-08-2009 00:00:00 22 C 10.05 g/m*3 22 C 0 km/h
2978 28-08-2009 01:00:00 21.44 C 10.34 g/m*3 21.44 C 0 km/h
2979 28-08-2009 02:00:00 20.92 C 10.47 g/m*3 20.92 C 0 km/h
2980 28-08-2009 03:00:00 20.6 C 10.6 g/m*3 20.6 C 0 km/h
2981 28-08-2009 04:00:00 20.16 C 10.54 g/m*3 20.16 C 0 km/h
2982 28-08-2009 05:00:00 19.66 C 10.71 g/m*3 19.66 C 0 km/h
2983 28-08-2009 06:00:00 19.54 C 10.56 g/m*3 19.54 C 0 km/h
2984 28-08-2009 07:00:00 19.36 C 10.85 g/m*3 19.36 C 0 km/h
2985 28-08-2009 08:00:00 20.18 C 10.97 g/m*3 20.18 C 0 km/h
2986 28-08-2009 09:00:00 21.58 C 10.27 g/m*3 21.58 C 0 km/h
2987 28-08-2009 10:00:00 22.02 C 9.87 g/m*3 22.02 C 0 km/h
2988 28-08-2009 11:00:00 22.54 C 9.17 g/m*3 22.54 C 0 km/h
2989 28-08-2009 12:00:00 23.52 C 7.75 g/m*3 23.52 C 0 km/h
2990 28-08-2009 13:00:00 22.36 C 7.97 g/m*3 22.36 C 0 km/h
2991 28-08-2009 14:00:00 24.3 C 7.92 g/m*3 24.3 C 0 km/h
2992 28-08-2009 15:00:00 25.14 C 7.05 g/m*3 25.14 C 0 km/h
2993 28-08-2009 16:00:00 25.36 C 6.15 g/m*3 25.36 C 0 km/h
2994 28-08-2009 17:00:00 24.58 C 5.58 g/m*3 24.58 C 0 km/h
2995 28-08-2009 18:00:00 24.7 C 4.62 g/m*3 24.7 C 0 km/h
2996 28-08-2009 19:00:00 22.98 C 5.05 g/m*3 22.98 C 0 km/h
2997 28-08-2009 20:00:00 20.56 C 5.29 g/m*3 20.56 C 0 km/h
2998 28-08-2009 21:00:00 19.32 C 5.51 g/m*3 19.32 C 0 km/h
2999 28-08-2009 22:00:00 18.14 C 5.95 g/m*3 18.14 C 0 km/h
3000 28-08-2009 23:00:00 17.58 C 5.93 g/m*3 17.58 C 0 km/h
Sensor: Nr:Datum:Temp:Abs-Feuchte:Windchill:Wind:
Aussen-T/F 3001 29-08-2009 00:00:00 16.8 C 5.95 g/m*3 16.8 C 0 km/h
3002 29-08-2009 01:00:00 16.32 C 5.81 g/m*3 16.32 C 0 km/h
3003 29-08-2009 02:00:00 15.44 C 5.87 g/m*3 15.44 C 0 km/h
3004 29-08-2009 03:00:00 14.8 C 5.95 g/m*3 14.8 C 0 km/h
3005 29-08-2009 04:00:00 14.18 C 6.29 g/m*3 14.18 C 0 km/h
3006 29-08-2009 05:00:00 13.6 C 6.73 g/m*3 13.6 C 0 km/h
3007 29-08-2009 06:00:00 12.98 C 6.98 g/m*3 12.98 C 0 km/h
3008 29-08-2009 07:00:00 12.72 C 7.31 g/m*3 12.72 C 0 km/h
3009 29-08-2009 08:00:00 13.4 C 7.49 g/m*3 13.4 C 0 km/h
3010 29-08-2009 09:00:00 14.98 C 7.2 g/m*3 14.98 C 0 km/h
3011 29-08-2009 10:00:00 16.86 C 6.8 g/m*3 16.86 C 0 km/h
3012 29-08-2009 11:00:00 18.12 C 5.91 g/m*3 18.12 C 0 km/h
3013 29-08-2009 12:00:00 18.82 C 5.64 g/m*3 18.82 C 0 km/h
3014 29-08-2009 13:00:00 19.82 C 5.23 g/m*3 19.82 C 0 km/h
3015 29-08-2009 14:00:00 20.14 C 4.95 g/m*3 20.14 C 0 km/h
3016 29-08-2009 15:00:00 21.78 C 4.45 g/m*3 21.78 C 0 km/h
3017 29-08-2009 16:00:00 21 C 5.24 g/m*3 21 C 0 km/h
3018 29-08-2009 17:00:00 20.78 C 5.21 g/m*3 20.78 C 0 km/h
3019 29-08-2009 18:00:00 18.32 C 7.36 g/m*3 18.32 C 0 km/h
3020 29-08-2009 19:00:00 16.54 C 9.18 g/m*3 16.54 C 0 km/h
3021 29-08-2009 20:00:00 13.96 C 7.77 g/m*3 13.96 C 0 km/h
3022 29-08-2009 21:00:00 13.06 C 6.94 g/m*3 13.06 C 0 km/h
3023 29-08-2009 22:00:00 12.66 C 6.75 g/m*3 12.66 C 0 km/h
3024 29-08-2009 23:00:00 12 C 6.54 g/m*3 12 C 0 km/h
3025 30-08-2009 00:00:00 11.34 C 6.38 g/m*3 11.34 C 0 km/h
Sensor: Nr:Datum:Temp:Abs-Feuchte:Windchill:Wind:
Aussen-T/F 3026 30-08-2009 01:00:00 10.54 C 6.4 g/m*3 10.54 C 0 km/h
3027 30-08-2009 02:00:00 10.1 C 6.43 g/m*3 10.1 C 0 km/h
3028 30-08-2009 03:00:00 9.28 C 6.59 g/m*3 9.28 C 0 km/h
3029 30-08-2009 04:00:00 8.88 C 6.75 g/m*3 8.88 C 0 km/h
3030 30-08-2009 05:00:00 8.7 C 7.02 g/m*3 8.7 C 0 km/h
3031 30-08-2009 06:00:00 8.6 C 6.94 g/m*3 8.6 C 0 km/h
3032 30-08-2009 07:00:00 9.02 C 6.99 g/m*3 9.02 C 0 km/h
3033 30-08-2009 08:00:00 10.72 C 7.08 g/m*3 10.72 C 0 km/h
3034 30-08-2009 09:00:00 12.82 C 7.02 g/m*3 12.82 C 0 km/h
3035 30-08-2009 10:00:00 15.22 C 6.58 g/m*3 15.22 C 0 km/h
3036 30-08-2009 11:00:00 17.56 C 6.19 g/m*3 17.56 C 0 km/h
3037 30-08-2009 12:00:00 19.64 C 5.99 g/m*3 19.64 C 0 km/h
3038 30-08-2009 13:00:00 21.28 C 5.51 g/m*3 21.28 C 0 km/h
3039 30-08-2009 14:00:00 23.04 C 4.53 g/m*3 23.04 C 0 km/h
3040 30-08-2009 15:00:00 24.54 C 4.49 g/m*3 24.54 C 0 km/h
3041 30-08-2009 16:00:00 25.92 C 4.85 g/m*3 25.92 C 0 km/h
3042 30-08-2009 17:00:00 27.26 C 5.22 g/m*3 27.26 C 0 km/h
3043 30-08-2009 18:00:00 26.96 C 5.14 g/m*3 26.96 C 0 km/h
3044 30-08-2009 19:00:00 25.66 C 5.16 g/m*3 25.66 C 0 km/h
3045 30-08-2009 20:00:00 21.16 C 6.18 g/m*3 21.16 C 0 km/h
3046 30-08-2009 21:00:00 18.56 C 6.57 g/m*3 18.56 C 0 km/h
3047 30-08-2009 22:00:00 17.08 C 6.83 g/m*3 17.08 C 0 km/h
3048 30-08-2009 23:00:00 15.84 C 6.83 g/m*3 15.84 C 0 km/h
3049 31-08-2009 00:00:00 14.68 C 7.04 g/m*3 14.68 C 0 km/h
3050 31-08-2009 01:00:00 13.74 C 7.22 g/m*3 13.74 C 0 km/h
Sensor: Nr:Datum:Temp:Abs-Feuchte:Windchill:Wind:
Aussen-T/F 3051 31-08-2009 02:00:00 12.82 C 7.18 g/m*3 12.82 C 0 km/h
3052 31-08-2009 03:00:00 12.2 C 7.19 g/m*3 12.2 C 0 km/h
3053 31-08-2009 04:00:00 11.48 C 7.12 g/m*3 11.48 C 0 km/h
3054 31-08-2009 05:00:00 10.8 C 7.08 g/m*3 10.8 C 0 km/h
3055 31-08-2009 06:00:00 10.22 C 7.03 g/m*3 10.22 C 0 km/h
3056 31-08-2009 07:00:00 10.26 C 7.07 g/m*3 10.26 C 0 km/h
3057 31-08-2009 08:00:00 10.78 C 7.21 g/m*3 10.78 C 0 km/h
3058 31-08-2009 09:00:00 12.6 C 7.48 g/m*3 12.6 C 0 km/h
3059 31-08-2009 10:00:00 16.32 C 7.5 g/m*3 16.32 C 0 km/h
3060 31-08-2009 11:00:00 19.72 C 7.62 g/m*3 19.72 C 0 km/h
3061 31-08-2009 12:00:00 22.88 C 6.7 g/m*3 22.88 C 0 km/h
3062 31-08-2009 13:00:00 25.5 C 5.78 g/m*3 25.5 C 0 km/h
3063 31-08-2009 14:00:00 27.82 C 5.44 g/m*3 27.82 C 0 km/h
3064 31-08-2009 15:00:00 29.12 C 5.78 g/m*3 29.12 C 0 km/h
3065 31-08-2009 16:00:00 31.32 C 6.51 g/m*3 31.32 C 0 km/h
3066 31-08-2009 17:00:00 31.78 C 6.67 g/m*3 31.78 C 0 km/h
3067 31-08-2009 18:00:00 31.48 C 6.57 g/m*3 31.48 C 0 km/h
3068 31-08-2009 19:00:00 29.64 C 6.01 g/m*3 29.64 C 0 km/h
3069 31-08-2009 20:00:00 23.86 C 5.61 g/m*3 23.86 C 0 km/h
3070 31-08-2009 21:00:00 21.52 C 5.66 g/m*3 21.52 C 0 km/h
3071 31-08-2009 22:00:00 19.96 C 5.9 g/m*3 19.96 C 0 km/h
3072 31-08-2009 23:00:00 18.62 C 6.5 g/m*3 18.62 C 0 km/h
3073 01-09-2009 00:00:00 17.4 C 6.76 g/m*3 17.4 C 0 km/h
3074 01-09-2009 01:00:00 16.42 C 6.93 g/m*3 16.42 C 0 km/h
3075 01-09-2009 02:00:00 15.8 C 7.27 g/m*3 15.8 C 0 km/h
Sensor: Nr:Datum:Temp:Abs-Feuchte:Windchill:Wind:
Aussen-T/F 3076 01-09-2009 03:00:00 15.32 C 7.11 g/m*3 15.32 C 0 km/h
3077 01-09-2009 04:00:00 14.6 C 7.53 g/m*3 14.6 C 0 km/h
3078 01-09-2009 05:00:00 14.1 C 7.67 g/m*3 14.1 C 0 km/h
3079 01-09-2009 06:00:00 13.62 C 7.94 g/m*3 13.62 C 0 km/h
3080 01-09-2009 07:00:00 13.88 C 8.33 g/m*3 13.88 C 0 km/h
3081 01-09-2009 08:00:00 14.72 C 8.57 g/m*3 14.72 C 0 km/h
3082 01-09-2009 09:00:00 17.04 C 9.08 g/m*3 17.04 C 0 km/h
3083 01-09-2009 10:00:00 21.34 C 9.57 g/m*3 21.34 C 0 km/h
3084 01-09-2009 11:00:00 25.82 C 8.92 g/m*3 25.82 C 0 km/h
3085 01-09-2009 12:00:00 28.44 C 8.41 g/m*3 28.44 C 0 km/h
3086 01-09-2009 13:00:00 29.46 C 8.36 g/m*3 29.46 C 0 km/h
3087 01-09-2009 14:00:00 29.82 C 8.35 g/m*3 29.82 C 0 km/h
3088 01-09-2009 15:00:00 28.08 C 8.63 g/m*3 28.08 C 0 km/h
3089 01-09-2009 16:00:00 23.76 C 11.25 g/m*3 23.76 C 0 km/h
3090 01-09-2009 17:00:00 20.66 C 13.76 g/m*3 20.66 C 0 km/h
3091 01-09-2009 18:00:00 20.04 C 14.34 g/m*3 20.04 C 0 km/h
3092 01-09-2009 19:00:00 19.96 C 14.62 g/m*3 19.96 C 0 km/h
3093 01-09-2009 20:00:00 19.82 C 14.36 g/m*3 19.82 C 0 km/h
3094 01-09-2009 21:00:00 19.68 C 13.77 g/m*3 19.68 C 0 km/h
3095 01-09-2009 22:00:00 19.58 C 13.35 g/m*3 19.58 C 0 km/h
3096 01-09-2009 23:00:00 19 C 12.84 g/m*3 19 C 0 km/h
3097 02-09-2009 00:00:00 18.36 C 12.74 g/m*3 18.36 C 0 km/h
3098 02-09-2009 01:00:00 17.3 C 12.05 g/m*3 17.3 C 0 km/h
3099 02-09-2009 02:00:00 16.86 C 11.25 g/m*3 16.86 C 0 km/h
3100 02-09-2009 03:00:00 16.4 C 11.25 g/m*3 16.4 C 0 km/h
Sensor: Nr:Datum:Temp:Abs-Feuchte:Windchill:Wind:
Aussen-T/F 3101 02-09-2009 04:00:00 15.88 C 11.06 g/m*3 15.88 C 0 km/h
3102 02-09-2009 05:00:00 15.32 C 11.01 g/m*3 15.32 C 0 km/h
3103 02-09-2009 06:00:00 15.14 C 10.89 g/m*3 15.14 C 0 km/h
3104 02-09-2009 07:00:00 15.24 C 10.8 g/m*3 15.24 C 0 km/h
3105 02-09-2009 08:00:00 16.2 C 10.84 g/m*3 16.2 C 0 km/h
3106 02-09-2009 09:00:00 17.84 C 10.13 g/m*3 17.84 C 0 km/h
3107 02-09-2009 10:00:00 19.08 C 9.5 g/m*3 19.08 C 0 km/h
3108 02-09-2009 11:00:00 20.32 C 9.09 g/m*3 20.32 C 0 km/h
3109 02-09-2009 12:00:00 21.82 C 8.03 g/m*3 21.82 C 0 km/h
3110 02-09-2009 13:00:00 22.72 C 6.47 g/m*3 22.72 C 0 km/h
3111 02-09-2009 14:00:00 22.8 C 6.54 g/m*3 22.8 C 0 km/h
3112 02-09-2009 15:00:00 23.08 C 6.86 g/m*3 23.08 C 0 km/h
3113 02-09-2009 16:00:00 22.84 C 6.23 g/m*3 22.84 C 0 km/h
3114 02-09-2009 17:00:00 22.2 C 6.05 g/m*3 22.2 C 0 km/h
3115 02-09-2009 18:00:00 21.96 C 6.08 g/m*3 21.96 C 0 km/h
3116 02-09-2009 19:00:00 20.38 C 6.11 g/m*3 20.38 C 0 km/h
3117 02-09-2009 20:00:00 18.12 C 6.65 g/m*3 18.12 C 0 km/h
3118 02-09-2009 21:00:00 18.04 C 7.08 g/m*3 18.04 C 0 km/h
3119 02-09-2009 22:00:00 16.38 C 9.01 g/m*3 16.38 C 0 km/h
3120 02-09-2009 23:00:00 16.08 C 9.61 g/m*3 16.08 C 0 km/h
3121 03-09-2009 00:00:00 16.54 C 9.21 g/m*3 16.54 C 0 km/h
3122 03-09-2009 01:00:00 16.54 C 9.01 g/m*3 16.54 C 0 km/h
3123 03-09-2009 02:00:00 15.7 C 9.47 g/m*3 15.7 C 0 km/h
3124 03-09-2009 03:00:00 15.02 C 10.5 g/m*3 15.02 C 0 km/h
3125 03-09-2009 04:00:00 15.26 C 10.45 g/m*3 15.26 C 0 km/h
Sensor: Nr:Datum:Temp:Abs-Feuchte:Windchill:Wind:
Aussen-T/F 3126 03-09-2009 05:00:00 14.84 C 10.82 g/m*3 14.84 C 0 km/h
3127 03-09-2009 06:00:00 14.84 C 11.12 g/m*3 14.84 C 0 km/h
3128 03-09-2009 07:00:00 15 C 11.44 g/m*3 15 C 0 km/h
3129 03-09-2009 08:00:00 15.72 C 11.55 g/m*3 15.72 C 0 km/h
3130 03-09-2009 09:00:00 16.94 C 11.02 g/m*3 16.94 C 0 km/h
3131 03-09-2009 10:00:00 17.8 C 10.41 g/m*3 17.8 C 0 km/h
3132 03-09-2009 11:00:00 18.24 C 9.1 g/m*3 18.24 C 0 km/h
3133 03-09-2009 12:00:00 19.22 C 6.93 g/m*3 19.22 C 0 km/h
3134 03-09-2009 13:00:00 19.82 C 6.36 g/m*3 19.82 C 0 km/h
3135 03-09-2009 14:00:00 21.04 C 6.17 g/m*3 21.04 C 0 km/h
3136 03-09-2009 15:00:00 22.06 C 5.41 g/m*3 22.06 C 0 km/h
3137 03-09-2009 16:00:00 20.26 C 5.61 g/m*3 20.26 C 0 km/h
3138 03-09-2009 17:00:00 19.56 C 5.86 g/m*3 19.56 C 0 km/h
3139 03-09-2009 18:00:00 18.14 C 7.19 g/m*3 18.14 C 0 km/h
3140 03-09-2009 19:00:00 17.86 C 7.16 g/m*3 17.86 C 0 km/h
3141 03-09-2009 20:00:00 17.38 C 6.9 g/m*3 17.38 C 0 km/h
3142 03-09-2009 21:00:00 17.05 C 6.53 g/m*3 17.05 C 0 km/h
3143 03-09-2009 22:00:00 16.34 C 6.59 g/m*3 16.34 C 0 km/h
3144 03-09-2009 23:00:00 16.2 C 6.76 g/m*3 16.2 C 0 km/h
3145 04-09-2009 00:00:00 16.04 C 6.64 g/m*3 16.04 C 0 km/h
3146 04-09-2009 01:00:00 15.66 C 6.94 g/m*3 15.66 C 0 km/h
3147 04-09-2009 02:00:00 15.26 C 7.45 g/m*3 15.26 C 0 km/h
3148 04-09-2009 03:00:00 15.08 C 7.68 g/m*3 15.08 C 0 km/h
3149 04-09-2009 04:00:00 14.98 C 7.89 g/m*3 14.98 C 0 km/h
3150 04-09-2009 05:00:00 14.6 C 7.73 g/m*3 14.6 C 0 km/h
Sensor: Nr:Datum:Temp:Abs-Feuchte:Windchill:Wind:
Aussen-T/F 3151 04-09-2009 06:00:00 13.76 C 7.58 g/m*3 13.76 C 0 km/h
3152 04-09-2009 07:00:00 13.58 C 7.52 g/m*3 13.58 C 0 km/h
3153 04-09-2009 08:00:00 13.54 C 7.34 g/m*3 13.54 C 0 km/h
3154 04-09-2009 09:00:00 14.06 C 7.22 g/m*3 14.06 C 0 km/h
3155 04-09-2009 10:00:00 15.78 C 6.78 g/m*3 15.78 C 0 km/h
3156 04-09-2009 11:00:00 17.64 C 6.68 g/m*3 17.64 C 0 km/h
3157 04-09-2009 12:00:00 17.58 C 6.8 g/m*3 17.58 C 0 km/h
3158 04-09-2009 13:00:00 15.98 C 8.3 g/m*3 15.98 C 0 km/h
3159 04-09-2009 14:00:00 14 C 9.89 g/m*3 14 C 0 km/h
3160 04-09-2009 15:00:00 13.88 C 10.7 g/m*3 13.88 C 0 km/h
3161 04-09-2009 16:00:00 15.26 C 11.2 g/m*3 15.26 C 0 km/h
3162 04-09-2009 17:00:00 15.08 C 10.46 g/m*3 15.08 C 0 km/h
3163 04-09-2009 18:00:00 14.18 C 10.37 g/m*3 14.18 C 0 km/h
3164 04-09-2009 19:00:00 14.42 C 9.03 g/m*3 14.42 C 0 km/h
3165 04-09-2009 20:00:00 12.44 C 8.19 g/m*3 12.44 C 0 km/h
3166 04-09-2009 21:00:00 12.44 C 7.78 g/m*3 12.44 C 0 km/h
3167 04-09-2009 22:00:00 12 C 7.86 g/m*3 12 C 0 km/h
3168 04-09-2009 23:00:00 12.28 C 7.79 g/m*3 12.28 C 0 km/h
3169 05-09-2009 00:00:00 12.78 C 7.76 g/m*3 12.78 C 0 km/h
3170 05-09-2009 01:00:00 12.52 C 7.75 g/m*3 12.52 C 0 km/h
3171 05-09-2009 02:00:00 12.54 C 7.67 g/m*3 12.54 C 0 km/h
3172 05-09-2009 03:00:00 12.7 C 7.75 g/m*3 12.7 C 0 km/h
3173 05-09-2009 04:00:00 12.76 C 7.8 g/m*3 12.76 C 0 km/h
3174 05-09-2009 05:00:00 12.64 C 7.83 g/m*3 12.64 C 0 km/h
3175 05-09-2009 06:00:00 12.48 C 7.8 g/m*3 12.48 C 0 km/h
Sensor: Nr:Datum:Temp:Abs-Feuchte:Windchill:Wind:
Aussen-T/F 3176 05-09-2009 07:00:00 12.54 C 7.78 g/m*3 12.54 C 0 km/h
3177 05-09-2009 08:00:00 12.78 C 7.94 g/m*3 12.78 C 0 km/h
3178 05-09-2009 09:00:00 14.44 C 7.96 g/m*3 14.44 C 0 km/h
3179 05-09-2009 10:00:00 15.54 C 7.82 g/m*3 15.54 C 0 km/h
3180 05-09-2009 11:00:00 17.06 C 7.52 g/m*3 17.06 C 0 km/h
3181 05-09-2009 12:00:00 17.68 C 6.54 g/m*3 17.68 C 0 km/h
3182 05-09-2009 13:00:00 18.18 C 6.3 g/m*3 18.18 C 0 km/h
3183 05-09-2009 14:00:00 19.4 C 5.91 g/m*3 19.4 C 0 km/h
3184 05-09-2009 15:00:00 21.54 C 5.14 g/m*3 21.54 C 0 km/h
3185 05-09-2009 16:00:00 17.92 C 6.91 g/m*3 17.92 C 0 km/h
3186 05-09-2009 17:00:00 17.82 C 6.69 g/m*3 17.82 C 0 km/h
3187 05-09-2009 18:00:00 18.28 C 6.22 g/m*3 18.28 C 0 km/h
3188 05-09-2009 19:00:00 17.18 C 7.14 g/m*3 17.18 C 0 km/h
3189 05-09-2009 20:00:00 14.9 C 7.93 g/m*3 14.9 C 0 km/h
3190 05-09-2009 21:00:00 13.72 C 8.23 g/m*3 13.72 C 0 km/h
3191 05-09-2009 22:00:00 12.92 C 8.35 g/m*3 12.92 C 0 km/h
3192 05-09-2009 23:00:00 12.28 C 8.16 g/m*3 12.28 C 0 km/h
3193 06-09-2009 00:00:00 11.5 C 8.41 g/m*3 11.5 C 0 km/h
3194 06-09-2009 01:00:00 10.94 C 8.4 g/m*3 10.94 C 0 km/h
3195 06-09-2009 02:00:00 10.78 C 8.41 g/m*3 10.78 C 0 km/h
3196 06-09-2009 03:00:00 10.22 C 8.33 g/m*3 10.22 C 0 km/h
3197 06-09-2009 04:00:00 9.9 C 8.42 g/m*3 9.9 C 0 km/h
3198 06-09-2009 05:00:00 9.5 C 8.37 g/m*3 9.5 C 0 km/h
3199 06-09-2009 06:00:00 9.36 C 8.37 g/m*3 9.36 C 0 km/h
3200 06-09-2009 07:00:00 9.18 C 8.29 g/m*3 9.18 C 0 km/h
Sensor: Nr:Datum:Temp:Abs-Feuchte:Windchill:Wind:
Aussen-T/F 3201 06-09-2009 08:00:00 10.2 C 8.79 g/m*3 10.2 C 0 km/h
3202 06-09-2009 09:00:00 11.94 C 9.11 g/m*3 11.94 C 0 km/h
3203 06-09-2009 10:00:00 13.18 C 8.53 g/m*3 13.18 C 0 km/h